<?xml version="1.0" encoding="UTF-8" standalone="no" ?>
<gpx xmlns="http://www.topografix.com/GPX/1/1" xmlns:xsi="http://www.w3.org/2001/XMLSchema-instance" xsi:schemaLocation="http://www.topografix.com/GPX/1/1 http://www.topografix.com/GPX/1/1/gpx.xsd" version="1.1" creator="VisuGPX - https://www.visugpx.com">
  <metadata>
    <name>Chasseral</name>
    <desc><![CDATA[Chasseral depuis Villeret par la Combe grède et les crêtes.]]></desc>
  </metadata>
  <trk>
    <name><![CDATA[2014-06-13 15:29:24]]></name>
    <trkseg>
      <trkpt lat="47.1535" lon="7.02304">
        <ele>775.92</ele>
        <time>2014-06-13T07:59:23Z</time>
      </trkpt>
      <trkpt lat="47.15334" lon="7.02311">
        <ele>776.4</ele>
        <time>2014-06-13T07:59:44Z</time>
      </trkpt>
      <trkpt lat="47.15313" lon="7.02328">
        <ele>775.92</ele>
        <time>2014-06-13T08:00:03Z</time>
      </trkpt>
      <trkpt lat="47.15292" lon="7.02345">
        <ele>777.36</ele>
        <time>2014-06-13T08:00:21Z</time>
      </trkpt>
      <trkpt lat="47.15278" lon="7.02359">
        <ele>777.36</ele>
        <time>2014-06-13T08:00:34Z</time>
      </trkpt>
      <trkpt lat="47.15269" lon="7.02371">
        <ele>778.32</ele>
        <time>2014-06-13T08:00:45Z</time>
      </trkpt>
      <trkpt lat="47.15253" lon="7.02386">
        <ele>779.29</ele>
        <time>2014-06-13T08:01:00Z</time>
      </trkpt>
      <trkpt lat="47.15244" lon="7.02397">
        <ele>781.21</ele>
        <time>2014-06-13T08:01:10Z</time>
      </trkpt>
      <trkpt lat="47.15235" lon="7.02407">
        <ele>786.02</ele>
        <time>2014-06-13T08:01:22Z</time>
      </trkpt>
      <trkpt lat="47.15222" lon="7.02419">
        <ele>789.86</ele>
        <time>2014-06-13T08:01:38Z</time>
      </trkpt>
      <trkpt lat="47.1521" lon="7.0243">
        <ele>793.71</ele>
        <time>2014-06-13T08:01:52Z</time>
      </trkpt>
      <trkpt lat="47.15196" lon="7.02442">
        <ele>795.15</ele>
        <time>2014-06-13T08:02:04Z</time>
      </trkpt>
      <trkpt lat="47.15181" lon="7.02452">
        <ele>792.26</ele>
        <time>2014-06-13T08:02:15Z</time>
      </trkpt>
      <trkpt lat="47.15161" lon="7.02461">
        <ele>790.82</ele>
        <time>2014-06-13T08:02:30Z</time>
      </trkpt>
      <trkpt lat="47.15141" lon="7.02468">
        <ele>789.38</ele>
        <time>2014-06-13T08:02:49Z</time>
      </trkpt>
      <trkpt lat="47.15127" lon="7.02475">
        <ele>790.82</ele>
        <time>2014-06-13T08:03:05Z</time>
      </trkpt>
      <trkpt lat="47.15119" lon="7.02488">
        <ele>794.67</ele>
        <time>2014-06-13T08:03:19Z</time>
      </trkpt>
      <trkpt lat="47.15112" lon="7.02493">
        <ele>797.07</ele>
        <time>2014-06-13T08:03:25Z</time>
      </trkpt>
      <trkpt lat="47.15094" lon="7.02506">
        <ele>799.95</ele>
        <time>2014-06-13T08:03:42Z</time>
      </trkpt>
      <trkpt lat="47.15076" lon="7.02515">
        <ele>801.88</ele>
        <time>2014-06-13T08:03:57Z</time>
      </trkpt>
      <trkpt lat="47.15065" lon="7.02524">
        <ele>804.28</ele>
        <time>2014-06-13T08:04:10Z</time>
      </trkpt>
      <trkpt lat="47.15048" lon="7.02528">
        <ele>808.13</ele>
        <time>2014-06-13T08:04:24Z</time>
      </trkpt>
      <trkpt lat="47.15036" lon="7.02536">
        <ele>809.09</ele>
        <time>2014-06-13T08:04:36Z</time>
      </trkpt>
      <trkpt lat="47.15025" lon="7.02546">
        <ele>811.97</ele>
        <time>2014-06-13T08:04:50Z</time>
      </trkpt>
      <trkpt lat="47.15014" lon="7.02556">
        <ele>819.18</ele>
        <time>2014-06-13T08:05:05Z</time>
      </trkpt>
      <trkpt lat="47.15002" lon="7.0256">
        <ele>827.83</ele>
        <time>2014-06-13T08:05:21Z</time>
      </trkpt>
      <trkpt lat="47.1499" lon="7.02574">
        <ele>835.52</ele>
        <time>2014-06-13T08:05:36Z</time>
      </trkpt>
      <trkpt lat="47.14979" lon="7.02576">
        <ele>839.85</ele>
        <time>2014-06-13T08:05:47Z</time>
      </trkpt>
      <trkpt lat="47.14971" lon="7.02583">
        <ele>844.66</ele>
        <time>2014-06-13T08:05:59Z</time>
      </trkpt>
      <trkpt lat="47.14957" lon="7.02586">
        <ele>845.62</ele>
        <time>2014-06-13T08:06:09Z</time>
      </trkpt>
      <trkpt lat="47.14941" lon="7.02591">
        <ele>838.41</ele>
        <time>2014-06-13T08:06:22Z</time>
      </trkpt>
      <trkpt lat="47.14934" lon="7.02595">
        <ele>835.52</ele>
        <time>2014-06-13T08:06:29Z</time>
      </trkpt>
      <trkpt lat="47.14921" lon="7.02598">
        <ele>829.76</ele>
        <time>2014-06-13T08:06:39Z</time>
      </trkpt>
      <trkpt lat="47.14913" lon="7.02605">
        <ele>823.99</ele>
        <time>2014-06-13T08:06:52Z</time>
      </trkpt>
      <trkpt lat="47.1491" lon="7.02621">
        <ele>817.26</ele>
        <time>2014-06-13T08:07:04Z</time>
      </trkpt>
      <trkpt lat="47.14911" lon="7.02633">
        <ele>817.26</ele>
        <time>2014-06-13T08:07:21Z</time>
      </trkpt>
      <trkpt lat="47.14911" lon="7.02635">
        <ele>816.78</ele>
        <time>2014-06-13T08:07:22Z</time>
      </trkpt>
      <trkpt lat="47.14911" lon="7.02637">
        <ele>815.82</ele>
        <time>2014-06-13T08:07:23Z</time>
      </trkpt>
      <trkpt lat="47.14908" lon="7.02644">
        <ele>812.93</ele>
        <time>2014-06-13T08:07:30Z</time>
      </trkpt>
      <trkpt lat="47.14902" lon="7.02655">
        <ele>810.53</ele>
        <time>2014-06-13T08:07:42Z</time>
      </trkpt>
      <trkpt lat="47.14895" lon="7.02664">
        <ele>810.53</ele>
        <time>2014-06-13T08:07:53Z</time>
      </trkpt>
      <trkpt lat="47.14894" lon="7.02677">
        <ele>814.85</ele>
        <time>2014-06-13T08:08:04Z</time>
      </trkpt>
      <trkpt lat="47.14897" lon="7.02694">
        <ele>819.66</ele>
        <time>2014-06-13T08:08:16Z</time>
      </trkpt>
      <trkpt lat="47.14888" lon="7.02704">
        <ele>823.51</ele>
        <time>2014-06-13T08:08:29Z</time>
      </trkpt>
      <trkpt lat="47.1488" lon="7.02713">
        <ele>827.35</ele>
        <time>2014-06-13T08:08:43Z</time>
      </trkpt>
      <trkpt lat="47.14877" lon="7.02725">
        <ele>828.31</ele>
        <time>2014-06-13T08:08:56Z</time>
      </trkpt>
      <trkpt lat="47.14873" lon="7.02736">
        <ele>830.24</ele>
        <time>2014-06-13T08:09:09Z</time>
      </trkpt>
      <trkpt lat="47.14857" lon="7.02743">
        <ele>836.48</ele>
        <time>2014-06-13T08:09:28Z</time>
      </trkpt>
      <trkpt lat="47.1483" lon="7.02738">
        <ele>842.25</ele>
        <time>2014-06-13T08:09:42Z</time>
      </trkpt>
      <trkpt lat="47.14815" lon="7.02737">
        <ele>843.69</ele>
        <time>2014-06-13T08:09:56Z</time>
      </trkpt>
      <trkpt lat="47.14805" lon="7.02747">
        <ele>845.62</ele>
        <time>2014-06-13T08:10:14Z</time>
      </trkpt>
      <trkpt lat="47.14792" lon="7.02757">
        <ele>848.98</ele>
        <time>2014-06-13T08:10:30Z</time>
      </trkpt>
      <trkpt lat="47.14778" lon="7.02769">
        <ele>848.5</ele>
        <time>2014-06-13T08:10:46Z</time>
      </trkpt>
      <trkpt lat="47.14767" lon="7.02782">
        <ele>847.06</ele>
        <time>2014-06-13T08:11:01Z</time>
      </trkpt>
      <trkpt lat="47.14757" lon="7.02787">
        <ele>844.66</ele>
        <time>2014-06-13T08:11:14Z</time>
      </trkpt>
      <trkpt lat="47.14752" lon="7.02793">
        <ele>845.14</ele>
        <time>2014-06-13T08:11:24Z</time>
      </trkpt>
      <trkpt lat="47.14744" lon="7.028">
        <ele>847.54</ele>
        <time>2014-06-13T08:11:36Z</time>
      </trkpt>
      <trkpt lat="47.14742" lon="7.02804">
        <ele>848.02</ele>
        <time>2014-06-13T08:11:40Z</time>
      </trkpt>
      <trkpt lat="47.14739" lon="7.02807">
        <ele>848.98</ele>
        <time>2014-06-13T08:11:45Z</time>
      </trkpt>
      <trkpt lat="47.14731" lon="7.02811">
        <ele>854.75</ele>
        <time>2014-06-13T08:11:56Z</time>
      </trkpt>
      <trkpt lat="47.14723" lon="7.02809">
        <ele>862.44</ele>
        <time>2014-06-13T08:12:11Z</time>
      </trkpt>
      <trkpt lat="47.14707" lon="7.02812">
        <ele>871.09</ele>
        <time>2014-06-13T08:12:29Z</time>
      </trkpt>
      <trkpt lat="47.1469" lon="7.02813">
        <ele>877.34</ele>
        <time>2014-06-13T08:12:44Z</time>
      </trkpt>
      <trkpt lat="47.14673" lon="7.02812">
        <ele>882.15</ele>
        <time>2014-06-13T08:13:00Z</time>
      </trkpt>
      <trkpt lat="47.1466" lon="7.02825">
        <ele>885.03</ele>
        <time>2014-06-13T08:13:14Z</time>
      </trkpt>
      <trkpt lat="47.14646" lon="7.0284">
        <ele>888.4</ele>
        <time>2014-06-13T08:13:29Z</time>
      </trkpt>
      <trkpt lat="47.14631" lon="7.02841">
        <ele>893.2</ele>
        <time>2014-06-13T08:13:43Z</time>
      </trkpt>
      <trkpt lat="47.14611" lon="7.02852">
        <ele>894.64</ele>
        <time>2014-06-13T08:13:57Z</time>
      </trkpt>
      <trkpt lat="47.14609" lon="7.02863">
        <ele>881.67</ele>
        <time>2014-06-13T08:14:09Z</time>
      </trkpt>
      <trkpt lat="47.14605" lon="7.02875">
        <ele>875.9</ele>
        <time>2014-06-13T08:14:19Z</time>
      </trkpt>
      <trkpt lat="47.14602" lon="7.02888">
        <ele>866.29</ele>
        <time>2014-06-13T08:14:27Z</time>
      </trkpt>
      <trkpt lat="47.14601" lon="7.02889">
        <ele>865.32</ele>
        <time>2014-06-13T08:14:28Z</time>
      </trkpt>
      <trkpt lat="47.1459" lon="7.02891">
        <ele>860.52</ele>
        <time>2014-06-13T08:14:40Z</time>
      </trkpt>
      <trkpt lat="47.14575" lon="7.02893">
        <ele>857.15</ele>
        <time>2014-06-13T08:14:56Z</time>
      </trkpt>
      <trkpt lat="47.14571" lon="7.02905">
        <ele>851.38</ele>
        <time>2014-06-13T08:15:07Z</time>
      </trkpt>
      <trkpt lat="47.14569" lon="7.0291">
        <ele>849.94</ele>
        <time>2014-06-13T08:15:12Z</time>
      </trkpt>
      <trkpt lat="47.14566" lon="7.02924">
        <ele>847.54</ele>
        <time>2014-06-13T08:15:22Z</time>
      </trkpt>
      <trkpt lat="47.14565" lon="7.02925">
        <ele>847.54</ele>
        <time>2014-06-13T08:15:23Z</time>
      </trkpt>
      <trkpt lat="47.14563" lon="7.02926">
        <ele>847.54</ele>
        <time>2014-06-13T08:15:24Z</time>
      </trkpt>
      <trkpt lat="47.14558" lon="7.02937">
        <ele>847.06</ele>
        <time>2014-06-13T08:15:34Z</time>
      </trkpt>
      <trkpt lat="47.14551" lon="7.02955">
        <ele>846.58</ele>
        <time>2014-06-13T08:15:49Z</time>
      </trkpt>
      <trkpt lat="47.14544" lon="7.02969">
        <ele>845.14</ele>
        <time>2014-06-13T08:16:03Z</time>
      </trkpt>
      <trkpt lat="47.1453" lon="7.0298">
        <ele>847.54</ele>
        <time>2014-06-13T08:16:16Z</time>
      </trkpt>
      <trkpt lat="47.1452" lon="7.02987">
        <ele>848.98</ele>
        <time>2014-06-13T08:16:29Z</time>
      </trkpt>
      <trkpt lat="47.14512" lon="7.03001">
        <ele>849.94</ele>
        <time>2014-06-13T08:16:41Z</time>
      </trkpt>
      <trkpt lat="47.14499" lon="7.03006">
        <ele>848.5</ele>
        <time>2014-06-13T08:16:55Z</time>
      </trkpt>
      <trkpt lat="47.14488" lon="7.03007">
        <ele>848.02</ele>
        <time>2014-06-13T08:17:06Z</time>
      </trkpt>
      <trkpt lat="47.14479" lon="7.03007">
        <ele>848.02</ele>
        <time>2014-06-13T08:17:17Z</time>
      </trkpt>
      <trkpt lat="47.14468" lon="7.03016">
        <ele>850.9</ele>
        <time>2014-06-13T08:17:29Z</time>
      </trkpt>
      <trkpt lat="47.14456" lon="7.0302">
        <ele>855.23</ele>
        <time>2014-06-13T08:17:43Z</time>
      </trkpt>
      <trkpt lat="47.14447" lon="7.03023">
        <ele>858.11</ele>
        <time>2014-06-13T08:17:56Z</time>
      </trkpt>
      <trkpt lat="47.14436" lon="7.0304">
        <ele>858.59</ele>
        <time>2014-06-13T08:18:11Z</time>
      </trkpt>
      <trkpt lat="47.14427" lon="7.03058">
        <ele>860.04</ele>
        <time>2014-06-13T08:18:24Z</time>
      </trkpt>
      <trkpt lat="47.1442" lon="7.03069">
        <ele>861.48</ele>
        <time>2014-06-13T08:18:37Z</time>
      </trkpt>
      <trkpt lat="47.14412" lon="7.03087">
        <ele>864.36</ele>
        <time>2014-06-13T08:18:53Z</time>
      </trkpt>
      <trkpt lat="47.14403" lon="7.03099">
        <ele>866.77</ele>
        <time>2014-06-13T08:19:06Z</time>
      </trkpt>
      <trkpt lat="47.14394" lon="7.03115">
        <ele>867.73</ele>
        <time>2014-06-13T08:19:21Z</time>
      </trkpt>
      <trkpt lat="47.14384" lon="7.03128">
        <ele>866.77</ele>
        <time>2014-06-13T08:19:33Z</time>
      </trkpt>
      <trkpt lat="47.14379" lon="7.03138">
        <ele>870.13</ele>
        <time>2014-06-13T08:19:41Z</time>
      </trkpt>
      <trkpt lat="47.14372" lon="7.03154">
        <ele>874.94</ele>
        <time>2014-06-13T08:19:55Z</time>
      </trkpt>
      <trkpt lat="47.14366" lon="7.03166">
        <ele>884.55</ele>
        <time>2014-06-13T08:20:07Z</time>
      </trkpt>
      <trkpt lat="47.14362" lon="7.03176">
        <ele>890.32</ele>
        <time>2014-06-13T08:20:19Z</time>
      </trkpt>
      <trkpt lat="47.1436" lon="7.03185">
        <ele>907.62</ele>
        <time>2014-06-13T08:20:33Z</time>
      </trkpt>
      <trkpt lat="47.14355" lon="7.03199">
        <ele>910.51</ele>
        <time>2014-06-13T08:20:51Z</time>
      </trkpt>
      <trkpt lat="47.14346" lon="7.03214">
        <ele>912.43</ele>
        <time>2014-06-13T08:21:04Z</time>
      </trkpt>
      <trkpt lat="47.1434" lon="7.03224">
        <ele>918.68</ele>
        <time>2014-06-13T08:21:18Z</time>
      </trkpt>
      <trkpt lat="47.1433" lon="7.0324">
        <ele>923.96</ele>
        <time>2014-06-13T08:21:33Z</time>
      </trkpt>
      <trkpt lat="47.14319" lon="7.03242">
        <ele>927.81</ele>
        <time>2014-06-13T08:21:46Z</time>
      </trkpt>
      <trkpt lat="47.14302" lon="7.03248">
        <ele>935.02</ele>
        <time>2014-06-13T08:21:59Z</time>
      </trkpt>
      <trkpt lat="47.14288" lon="7.03253">
        <ele>934.54</ele>
        <time>2014-06-13T08:22:14Z</time>
      </trkpt>
      <trkpt lat="47.14272" lon="7.03262">
        <ele>932.14</ele>
        <time>2014-06-13T08:22:29Z</time>
      </trkpt>
      <trkpt lat="47.14255" lon="7.03271">
        <ele>935.02</ele>
        <time>2014-06-13T08:22:45Z</time>
      </trkpt>
      <trkpt lat="47.14241" lon="7.03278">
        <ele>937.9</ele>
        <time>2014-06-13T08:23:00Z</time>
      </trkpt>
      <trkpt lat="47.1423" lon="7.03281">
        <ele>942.23</ele>
        <time>2014-06-13T08:23:14Z</time>
      </trkpt>
      <trkpt lat="47.14215" lon="7.03277">
        <ele>948</ele>
        <time>2014-06-13T08:23:28Z</time>
      </trkpt>
      <trkpt lat="47.14214" lon="7.03277">
        <ele>948.48</ele>
        <time>2014-06-13T08:23:29Z</time>
      </trkpt>
      <trkpt lat="47.14198" lon="7.03275">
        <ele>954.73</ele>
        <time>2014-06-13T08:23:42Z</time>
      </trkpt>
      <trkpt lat="47.1419" lon="7.03278">
        <ele>956.65</ele>
        <time>2014-06-13T08:23:56Z</time>
      </trkpt>
      <trkpt lat="47.14187" lon="7.03278">
        <ele>959.53</ele>
        <time>2014-06-13T08:24:10Z</time>
      </trkpt>
      <trkpt lat="47.14181" lon="7.03279">
        <ele>961.94</ele>
        <time>2014-06-13T08:24:23Z</time>
      </trkpt>
      <trkpt lat="47.14163" lon="7.03287">
        <ele>961.46</ele>
        <time>2014-06-13T08:24:38Z</time>
      </trkpt>
      <trkpt lat="47.14154" lon="7.03291">
        <ele>960.49</ele>
        <time>2014-06-13T08:24:53Z</time>
      </trkpt>
      <trkpt lat="47.14137" lon="7.03294">
        <ele>959.53</ele>
        <time>2014-06-13T08:25:11Z</time>
      </trkpt>
      <trkpt lat="47.14134" lon="7.03295">
        <ele>958.09</ele>
        <time>2014-06-13T08:25:28Z</time>
      </trkpt>
      <trkpt lat="47.14128" lon="7.03298">
        <ele>958.09</ele>
        <time>2014-06-13T08:25:42Z</time>
      </trkpt>
      <trkpt lat="47.14135" lon="7.03301">
        <ele>965.78</ele>
        <time>2014-06-13T08:25:58Z</time>
      </trkpt>
      <trkpt lat="47.14131" lon="7.03308">
        <ele>969.63</ele>
        <time>2014-06-13T08:26:10Z</time>
      </trkpt>
      <trkpt lat="47.14127" lon="7.03311">
        <ele>975.88</ele>
        <time>2014-06-13T08:26:21Z</time>
      </trkpt>
      <trkpt lat="47.14135" lon="7.03323">
        <ele>991.26</ele>
        <time>2014-06-13T08:26:38Z</time>
      </trkpt>
      <trkpt lat="47.14134" lon="7.03333">
        <ele>1000.87</ele>
        <time>2014-06-13T08:26:51Z</time>
      </trkpt>
      <trkpt lat="47.14132" lon="7.03341">
        <ele>1012.89</ele>
        <time>2014-06-13T08:27:05Z</time>
      </trkpt>
      <trkpt lat="47.14123" lon="7.0335">
        <ele>1021.54</ele>
        <time>2014-06-13T08:27:18Z</time>
      </trkpt>
      <trkpt lat="47.14129" lon="7.03361">
        <ele>1031.63</ele>
        <time>2014-06-13T08:27:29Z</time>
      </trkpt>
      <trkpt lat="47.14125" lon="7.03362">
        <ele>1036.92</ele>
        <time>2014-06-13T08:27:45Z</time>
      </trkpt>
      <trkpt lat="47.14118" lon="7.03368">
        <ele>1038.36</ele>
        <time>2014-06-13T08:27:59Z</time>
      </trkpt>
      <trkpt lat="47.14113" lon="7.03376">
        <ele>1039.8</ele>
        <time>2014-06-13T08:28:10Z</time>
      </trkpt>
      <trkpt lat="47.14108" lon="7.03384">
        <ele>1039.32</ele>
        <time>2014-06-13T08:28:22Z</time>
      </trkpt>
      <trkpt lat="47.14104" lon="7.03398">
        <ele>1035.96</ele>
        <time>2014-06-13T08:28:36Z</time>
      </trkpt>
      <trkpt lat="47.14097" lon="7.0341">
        <ele>1034.52</ele>
        <time>2014-06-13T08:28:49Z</time>
      </trkpt>
      <trkpt lat="47.14089" lon="7.03415">
        <ele>1034.04</ele>
        <time>2014-06-13T08:29:06Z</time>
      </trkpt>
      <trkpt lat="47.14083" lon="7.03422">
        <ele>1035.96</ele>
        <time>2014-06-13T08:29:20Z</time>
      </trkpt>
      <trkpt lat="47.14071" lon="7.03424">
        <ele>1038.84</ele>
        <time>2014-06-13T08:29:32Z</time>
      </trkpt>
      <trkpt lat="47.14064" lon="7.03428">
        <ele>1042.21</ele>
        <time>2014-06-13T08:29:46Z</time>
      </trkpt>
      <trkpt lat="47.14053" lon="7.03436">
        <ele>1044.61</ele>
        <time>2014-06-13T08:30:01Z</time>
      </trkpt>
      <trkpt lat="47.14043" lon="7.03443">
        <ele>1046.05</ele>
        <time>2014-06-13T08:30:15Z</time>
      </trkpt>
      <trkpt lat="47.14029" lon="7.0345">
        <ele>1047.49</ele>
        <time>2014-06-13T08:30:29Z</time>
      </trkpt>
      <trkpt lat="47.14013" lon="7.03457">
        <ele>1048.45</ele>
        <time>2014-06-13T08:30:45Z</time>
      </trkpt>
      <trkpt lat="47.14004" lon="7.03464">
        <ele>1048.45</ele>
        <time>2014-06-13T08:30:58Z</time>
      </trkpt>
      <trkpt lat="47.13992" lon="7.03468">
        <ele>1049.9</ele>
        <time>2014-06-13T08:31:11Z</time>
      </trkpt>
      <trkpt lat="47.13982" lon="7.03472">
        <ele>1053.26</ele>
        <time>2014-06-13T08:31:24Z</time>
      </trkpt>
      <trkpt lat="47.13974" lon="7.03473">
        <ele>1056.15</ele>
        <time>2014-06-13T08:31:38Z</time>
      </trkpt>
      <trkpt lat="47.13965" lon="7.03475">
        <ele>1059.51</ele>
        <time>2014-06-13T08:31:52Z</time>
      </trkpt>
      <trkpt lat="47.13954" lon="7.0348">
        <ele>1063.84</ele>
        <time>2014-06-13T08:32:08Z</time>
      </trkpt>
      <trkpt lat="47.13943" lon="7.03483">
        <ele>1069.12</ele>
        <time>2014-06-13T08:32:24Z</time>
      </trkpt>
      <trkpt lat="47.1393" lon="7.03489">
        <ele>1074.41</ele>
        <time>2014-06-13T08:32:39Z</time>
      </trkpt>
      <trkpt lat="47.13927" lon="7.03492">
        <ele>1076.81</ele>
        <time>2014-06-13T08:32:50Z</time>
      </trkpt>
      <trkpt lat="47.1392" lon="7.03501">
        <ele>1078.74</ele>
        <time>2014-06-13T08:33:02Z</time>
      </trkpt>
      <trkpt lat="47.13912" lon="7.03506">
        <ele>1079.7</ele>
        <time>2014-06-13T08:33:16Z</time>
      </trkpt>
      <trkpt lat="47.139" lon="7.03503">
        <ele>1088.35</ele>
        <time>2014-06-13T08:33:34Z</time>
      </trkpt>
      <trkpt lat="47.13887" lon="7.03497">
        <ele>1096.52</ele>
        <time>2014-06-13T08:33:48Z</time>
      </trkpt>
      <trkpt lat="47.13871" lon="7.03498">
        <ele>1108.06</ele>
        <time>2014-06-13T08:34:03Z</time>
      </trkpt>
      <trkpt lat="47.1386" lon="7.03499">
        <ele>1116.71</ele>
        <time>2014-06-13T08:34:13Z</time>
      </trkpt>
      <trkpt lat="47.13863" lon="7.03502">
        <ele>1122.96</ele>
        <time>2014-06-13T08:34:25Z</time>
      </trkpt>
      <trkpt lat="47.13855" lon="7.03505">
        <ele>1129.69</ele>
        <time>2014-06-13T08:34:40Z</time>
      </trkpt>
      <trkpt lat="47.13854" lon="7.03505">
        <ele>1134.97</ele>
        <time>2014-06-13T08:34:57Z</time>
      </trkpt>
      <trkpt lat="47.13841" lon="7.0351">
        <ele>1139.3</ele>
        <time>2014-06-13T08:35:11Z</time>
      </trkpt>
      <trkpt lat="47.13835" lon="7.03517">
        <ele>1144.59</ele>
        <time>2014-06-13T08:35:25Z</time>
      </trkpt>
      <trkpt lat="47.13833" lon="7.03524">
        <ele>1148.43</ele>
        <time>2014-06-13T08:35:34Z</time>
      </trkpt>
      <trkpt lat="47.1383" lon="7.03529">
        <ele>1152.28</ele>
        <time>2014-06-13T08:35:46Z</time>
      </trkpt>
      <trkpt lat="47.13831" lon="7.03539">
        <ele>1157.56</ele>
        <time>2014-06-13T08:36:01Z</time>
      </trkpt>
      <trkpt lat="47.13831" lon="7.03537">
        <ele>1161.41</ele>
        <time>2014-06-13T08:36:13Z</time>
      </trkpt>
      <trkpt lat="47.13827" lon="7.03541">
        <ele>1165.26</ele>
        <time>2014-06-13T08:36:25Z</time>
      </trkpt>
      <trkpt lat="47.13826" lon="7.03548">
        <ele>1169.58</ele>
        <time>2014-06-13T08:36:37Z</time>
      </trkpt>
      <trkpt lat="47.13823" lon="7.03552">
        <ele>1174.39</ele>
        <time>2014-06-13T08:36:48Z</time>
      </trkpt>
      <trkpt lat="47.13827" lon="7.03557">
        <ele>1180.64</ele>
        <time>2014-06-13T08:36:58Z</time>
      </trkpt>
      <trkpt lat="47.13827" lon="7.03563">
        <ele>1185.92</ele>
        <time>2014-06-13T08:37:09Z</time>
      </trkpt>
      <trkpt lat="47.13817" lon="7.03574">
        <ele>1190.73</ele>
        <time>2014-06-13T08:37:23Z</time>
      </trkpt>
      <trkpt lat="47.13809" lon="7.03579">
        <ele>1193.13</ele>
        <time>2014-06-13T08:37:39Z</time>
      </trkpt>
      <trkpt lat="47.13801" lon="7.0358">
        <ele>1195.54</ele>
        <time>2014-06-13T08:37:57Z</time>
      </trkpt>
      <trkpt lat="47.13798" lon="7.03579">
        <ele>1198.9</ele>
        <time>2014-06-13T08:38:21Z</time>
      </trkpt>
      <trkpt lat="47.138" lon="7.03596">
        <ele>1200.34</ele>
        <time>2014-06-13T08:38:45Z</time>
      </trkpt>
      <trkpt lat="47.13798" lon="7.03603">
        <ele>1201.3</ele>
        <time>2014-06-13T08:38:59Z</time>
      </trkpt>
      <trkpt lat="47.13801" lon="7.03595">
        <ele>1201.3</ele>
        <time>2014-06-13T08:39:16Z</time>
      </trkpt>
      <trkpt lat="47.13792" lon="7.03581">
        <ele>1186.88</ele>
        <time>2014-06-13T08:39:43Z</time>
      </trkpt>
      <trkpt lat="47.13776" lon="7.03578">
        <ele>1186.88</ele>
        <time>2014-06-13T08:40:00Z</time>
      </trkpt>
      <trkpt lat="47.13776" lon="7.03575">
        <ele>1185.44</ele>
        <time>2014-06-13T08:40:17Z</time>
      </trkpt>
      <trkpt lat="47.13775" lon="7.03571">
        <ele>1185.44</ele>
        <time>2014-06-13T08:40:37Z</time>
      </trkpt>
      <trkpt lat="47.13776" lon="7.03574">
        <ele>1185.44</ele>
        <time>2014-06-13T08:40:59Z</time>
      </trkpt>
      <trkpt lat="47.13771" lon="7.03574">
        <ele>1185.44</ele>
        <time>2014-06-13T08:41:21Z</time>
      </trkpt>
      <trkpt lat="47.13762" lon="7.03583">
        <ele>1188.33</ele>
        <time>2014-06-13T08:41:48Z</time>
      </trkpt>
      <trkpt lat="47.13765" lon="7.03579">
        <ele>1146.03</ele>
        <time>2014-06-13T08:42:16Z</time>
      </trkpt>
      <trkpt lat="47.13774" lon="7.03595">
        <ele>1108.54</ele>
        <time>2014-06-13T08:42:37Z</time>
      </trkpt>
      <trkpt lat="47.13776" lon="7.03604">
        <ele>1087.39</ele>
        <time>2014-06-13T08:42:52Z</time>
      </trkpt>
      <trkpt lat="47.13773" lon="7.03608">
        <ele>1088.83</ele>
        <time>2014-06-13T08:43:06Z</time>
      </trkpt>
      <trkpt lat="47.13769" lon="7.03607">
        <ele>1091.23</ele>
        <time>2014-06-13T08:43:16Z</time>
      </trkpt>
      <trkpt lat="47.13769" lon="7.03602">
        <ele>1096.52</ele>
        <time>2014-06-13T08:43:28Z</time>
      </trkpt>
      <trkpt lat="47.13772" lon="7.03594">
        <ele>1101.81</ele>
        <time>2014-06-13T08:43:40Z</time>
      </trkpt>
      <trkpt lat="47.13769" lon="7.03584">
        <ele>1097.96</ele>
        <time>2014-06-13T08:43:52Z</time>
      </trkpt>
      <trkpt lat="47.1377" lon="7.03585">
        <ele>1097</ele>
        <time>2014-06-13T08:44:03Z</time>
      </trkpt>
      <trkpt lat="47.1377" lon="7.0359">
        <ele>1096.04</ele>
        <time>2014-06-13T08:44:16Z</time>
      </trkpt>
      <trkpt lat="47.13767" lon="7.03597">
        <ele>1096.52</ele>
        <time>2014-06-13T08:44:31Z</time>
      </trkpt>
      <trkpt lat="47.1376" lon="7.03605">
        <ele>1097</ele>
        <time>2014-06-13T08:44:47Z</time>
      </trkpt>
      <trkpt lat="47.13761" lon="7.03606">
        <ele>1098.92</ele>
        <time>2014-06-13T08:45:02Z</time>
      </trkpt>
      <trkpt lat="47.13762" lon="7.036">
        <ele>1097.96</ele>
        <time>2014-06-13T08:45:18Z</time>
      </trkpt>
      <trkpt lat="47.1376" lon="7.03605">
        <ele>1100.37</ele>
        <time>2014-06-13T08:45:34Z</time>
      </trkpt>
      <trkpt lat="47.13758" lon="7.03595">
        <ele>1101.81</ele>
        <time>2014-06-13T08:45:46Z</time>
      </trkpt>
      <trkpt lat="47.13763" lon="7.03583">
        <ele>1106.13</ele>
        <time>2014-06-13T08:46:01Z</time>
      </trkpt>
      <trkpt lat="47.13766" lon="7.03583">
        <ele>1109.02</ele>
        <time>2014-06-13T08:46:13Z</time>
      </trkpt>
      <trkpt lat="47.13774" lon="7.03585">
        <ele>1115.27</ele>
        <time>2014-06-13T08:46:27Z</time>
      </trkpt>
      <trkpt lat="47.1378" lon="7.03604">
        <ele>1120.07</ele>
        <time>2014-06-13T08:46:42Z</time>
      </trkpt>
      <trkpt lat="47.13781" lon="7.03624">
        <ele>1124.4</ele>
        <time>2014-06-13T08:46:55Z</time>
      </trkpt>
      <trkpt lat="47.1378" lon="7.03632">
        <ele>1130.17</ele>
        <time>2014-06-13T08:47:10Z</time>
      </trkpt>
      <trkpt lat="47.13777" lon="7.03636">
        <ele>1131.13</ele>
        <time>2014-06-13T08:47:21Z</time>
      </trkpt>
      <trkpt lat="47.13769" lon="7.03633">
        <ele>1133.53</ele>
        <time>2014-06-13T08:47:33Z</time>
      </trkpt>
      <trkpt lat="47.13759" lon="7.03624">
        <ele>1135.45</ele>
        <time>2014-06-13T08:47:44Z</time>
      </trkpt>
      <trkpt lat="47.13757" lon="7.03623">
        <ele>1135.94</ele>
        <time>2014-06-13T08:47:47Z</time>
      </trkpt>
      <trkpt lat="47.13748" lon="7.03612">
        <ele>1134.97</ele>
        <time>2014-06-13T08:48:03Z</time>
      </trkpt>
      <trkpt lat="47.13741" lon="7.03606">
        <ele>1134.49</ele>
        <time>2014-06-13T08:48:14Z</time>
      </trkpt>
      <trkpt lat="47.13734" lon="7.03608">
        <ele>1133.53</ele>
        <time>2014-06-13T08:48:24Z</time>
      </trkpt>
      <trkpt lat="47.13727" lon="7.03607">
        <ele>1134.97</ele>
        <time>2014-06-13T08:48:39Z</time>
      </trkpt>
      <trkpt lat="47.13725" lon="7.03608">
        <ele>1138.82</ele>
        <time>2014-06-13T08:48:52Z</time>
      </trkpt>
      <trkpt lat="47.13722" lon="7.03611">
        <ele>1139.78</ele>
        <time>2014-06-13T08:48:59Z</time>
      </trkpt>
      <trkpt lat="47.13716" lon="7.03614">
        <ele>1142.18</ele>
        <time>2014-06-13T08:49:11Z</time>
      </trkpt>
      <trkpt lat="47.13715" lon="7.03616">
        <ele>1144.11</ele>
        <time>2014-06-13T08:49:23Z</time>
      </trkpt>
      <trkpt lat="47.13719" lon="7.03621">
        <ele>1147.95</ele>
        <time>2014-06-13T08:49:34Z</time>
      </trkpt>
      <trkpt lat="47.13725" lon="7.03626">
        <ele>1151.32</ele>
        <time>2014-06-13T08:49:46Z</time>
      </trkpt>
      <trkpt lat="47.13722" lon="7.03628">
        <ele>1151.8</ele>
        <time>2014-06-13T08:49:57Z</time>
      </trkpt>
      <trkpt lat="47.13718" lon="7.03631">
        <ele>1153.24</ele>
        <time>2014-06-13T08:50:08Z</time>
      </trkpt>
      <trkpt lat="47.13711" lon="7.03624">
        <ele>1151.8</ele>
        <time>2014-06-13T08:50:20Z</time>
      </trkpt>
      <trkpt lat="47.13701" lon="7.03619">
        <ele>1152.28</ele>
        <time>2014-06-13T08:50:32Z</time>
      </trkpt>
      <trkpt lat="47.13693" lon="7.03617">
        <ele>1155.64</ele>
        <time>2014-06-13T08:50:46Z</time>
      </trkpt>
      <trkpt lat="47.13686" lon="7.0362">
        <ele>1158.05</ele>
        <time>2014-06-13T08:50:58Z</time>
      </trkpt>
      <trkpt lat="47.13677" lon="7.03624">
        <ele>1161.89</ele>
        <time>2014-06-13T08:51:10Z</time>
      </trkpt>
      <trkpt lat="47.13665" lon="7.03629">
        <ele>1163.33</ele>
        <time>2014-06-13T08:51:22Z</time>
      </trkpt>
      <trkpt lat="47.13658" lon="7.03635">
        <ele>1162.85</ele>
        <time>2014-06-13T08:51:34Z</time>
      </trkpt>
      <trkpt lat="47.13652" lon="7.03641">
        <ele>1164.29</ele>
        <time>2014-06-13T08:51:46Z</time>
      </trkpt>
      <trkpt lat="47.13645" lon="7.03641">
        <ele>1164.29</ele>
        <time>2014-06-13T08:52:00Z</time>
      </trkpt>
      <trkpt lat="47.13636" lon="7.03629">
        <ele>1163.33</ele>
        <time>2014-06-13T08:52:14Z</time>
      </trkpt>
      <trkpt lat="47.13633" lon="7.03618">
        <ele>1162.85</ele>
        <time>2014-06-13T08:52:21Z</time>
      </trkpt>
      <trkpt lat="47.13627" lon="7.03604">
        <ele>1165.26</ele>
        <time>2014-06-13T08:52:35Z</time>
      </trkpt>
      <trkpt lat="47.13633" lon="7.036">
        <ele>1165.74</ele>
        <time>2014-06-13T08:52:46Z</time>
      </trkpt>
      <trkpt lat="47.13655" lon="7.03598">
        <ele>1179.19</ele>
        <time>2014-06-13T08:52:58Z</time>
      </trkpt>
      <trkpt lat="47.1367" lon="7.0361">
        <ele>1183.52</ele>
        <time>2014-06-13T08:53:10Z</time>
      </trkpt>
      <trkpt lat="47.13676" lon="7.03611">
        <ele>1189.77</ele>
        <time>2014-06-13T08:53:21Z</time>
      </trkpt>
      <trkpt lat="47.13674" lon="7.03613">
        <ele>1192.65</ele>
        <time>2014-06-13T08:53:31Z</time>
      </trkpt>
      <trkpt lat="47.13677" lon="7.03643">
        <ele>1195.54</ele>
        <time>2014-06-13T08:53:46Z</time>
      </trkpt>
      <trkpt lat="47.13673" lon="7.03655">
        <ele>1197.46</ele>
        <time>2014-06-13T08:53:58Z</time>
      </trkpt>
      <trkpt lat="47.13671" lon="7.03666">
        <ele>1201.3</ele>
        <time>2014-06-13T08:54:10Z</time>
      </trkpt>
      <trkpt lat="47.13667" lon="7.03672">
        <ele>1204.67</ele>
        <time>2014-06-13T08:54:22Z</time>
      </trkpt>
      <trkpt lat="47.13661" lon="7.03679">
        <ele>1209.48</ele>
        <time>2014-06-13T08:54:38Z</time>
      </trkpt>
      <trkpt lat="47.1366" lon="7.03684">
        <ele>1214.76</ele>
        <time>2014-06-13T08:54:57Z</time>
      </trkpt>
      <trkpt lat="47.13666" lon="7.03687">
        <ele>1218.13</ele>
        <time>2014-06-13T08:55:11Z</time>
      </trkpt>
      <trkpt lat="47.13672" lon="7.03682">
        <ele>1222.93</ele>
        <time>2014-06-13T08:55:26Z</time>
      </trkpt>
      <trkpt lat="47.13668" lon="7.03684">
        <ele>1223.9</ele>
        <time>2014-06-13T08:55:38Z</time>
      </trkpt>
      <trkpt lat="47.13664" lon="7.0369">
        <ele>1225.34</ele>
        <time>2014-06-13T08:55:49Z</time>
      </trkpt>
      <trkpt lat="47.1366" lon="7.03692">
        <ele>1226.78</ele>
        <time>2014-06-13T08:56:10Z</time>
      </trkpt>
      <trkpt lat="47.13664" lon="7.03689">
        <ele>1231.11</ele>
        <time>2014-06-13T08:56:33Z</time>
      </trkpt>
      <trkpt lat="47.13662" lon="7.03689">
        <ele>1232.07</ele>
        <time>2014-06-13T08:56:42Z</time>
      </trkpt>
      <trkpt lat="47.13656" lon="7.03698">
        <ele>1232.07</ele>
        <time>2014-06-13T08:56:53Z</time>
      </trkpt>
      <trkpt lat="47.13645" lon="7.0369">
        <ele>1230.62</ele>
        <time>2014-06-13T08:57:06Z</time>
      </trkpt>
      <trkpt lat="47.13639" lon="7.03686">
        <ele>1232.07</ele>
        <time>2014-06-13T08:57:19Z</time>
      </trkpt>
      <trkpt lat="47.1364" lon="7.0369">
        <ele>1234.95</ele>
        <time>2014-06-13T08:57:32Z</time>
      </trkpt>
      <trkpt lat="47.13637" lon="7.03699">
        <ele>1236.87</ele>
        <time>2014-06-13T08:57:46Z</time>
      </trkpt>
      <trkpt lat="47.13641" lon="7.03702">
        <ele>1241.2</ele>
        <time>2014-06-13T08:58:01Z</time>
      </trkpt>
      <trkpt lat="47.13645" lon="7.03703">
        <ele>1242.16</ele>
        <time>2014-06-13T08:58:14Z</time>
      </trkpt>
      <trkpt lat="47.13647" lon="7.03709">
        <ele>1243.6</ele>
        <time>2014-06-13T08:58:25Z</time>
      </trkpt>
      <trkpt lat="47.13642" lon="7.03716">
        <ele>1245.53</ele>
        <time>2014-06-13T08:58:40Z</time>
      </trkpt>
      <trkpt lat="47.13635" lon="7.03718">
        <ele>1246.01</ele>
        <time>2014-06-13T08:58:53Z</time>
      </trkpt>
      <trkpt lat="47.13632" lon="7.03726">
        <ele>1244.56</ele>
        <time>2014-06-13T08:59:06Z</time>
      </trkpt>
      <trkpt lat="47.13633" lon="7.03737">
        <ele>1247.45</ele>
        <time>2014-06-13T08:59:19Z</time>
      </trkpt>
      <trkpt lat="47.13625" lon="7.0375">
        <ele>1247.45</ele>
        <time>2014-06-13T08:59:32Z</time>
      </trkpt>
      <trkpt lat="47.13621" lon="7.03759">
        <ele>1247.93</ele>
        <time>2014-06-13T08:59:45Z</time>
      </trkpt>
      <trkpt lat="47.13618" lon="7.03768">
        <ele>1248.41</ele>
        <time>2014-06-13T08:59:57Z</time>
      </trkpt>
      <trkpt lat="47.13614" lon="7.0378">
        <ele>1251.29</ele>
        <time>2014-06-13T09:00:11Z</time>
      </trkpt>
      <trkpt lat="47.1361" lon="7.03785">
        <ele>1261.39</ele>
        <time>2014-06-13T09:00:28Z</time>
      </trkpt>
      <trkpt lat="47.13606" lon="7.0379">
        <ele>1265.71</ele>
        <time>2014-06-13T09:00:40Z</time>
      </trkpt>
      <trkpt lat="47.13598" lon="7.03798">
        <ele>1265.23</ele>
        <time>2014-06-13T09:00:53Z</time>
      </trkpt>
      <trkpt lat="47.13588" lon="7.03807">
        <ele>1263.31</ele>
        <time>2014-06-13T09:01:06Z</time>
      </trkpt>
      <trkpt lat="47.13583" lon="7.03817">
        <ele>1263.79</ele>
        <time>2014-06-13T09:01:18Z</time>
      </trkpt>
      <trkpt lat="47.13581" lon="7.03834">
        <ele>1262.35</ele>
        <time>2014-06-13T09:01:33Z</time>
      </trkpt>
      <trkpt lat="47.13581" lon="7.03841">
        <ele>1261.87</ele>
        <time>2014-06-13T09:01:50Z</time>
      </trkpt>
      <trkpt lat="47.13576" lon="7.03838">
        <ele>1259.94</ele>
        <time>2014-06-13T09:02:08Z</time>
      </trkpt>
      <trkpt lat="47.13579" lon="7.0384">
        <ele>1258.98</ele>
        <time>2014-06-13T09:02:34Z</time>
      </trkpt>
      <trkpt lat="47.13582" lon="7.03839">
        <ele>1261.39</ele>
        <time>2014-06-13T09:02:54Z</time>
      </trkpt>
      <trkpt lat="47.13584" lon="7.03835">
        <ele>1259.94</ele>
        <time>2014-06-13T09:03:10Z</time>
      </trkpt>
      <trkpt lat="47.13586" lon="7.03833">
        <ele>1263.31</ele>
        <time>2014-06-13T09:03:26Z</time>
      </trkpt>
      <trkpt lat="47.13585" lon="7.03836">
        <ele>1264.75</ele>
        <time>2014-06-13T09:03:53Z</time>
      </trkpt>
      <trkpt lat="47.13585" lon="7.03833">
        <ele>1266.19</ele>
        <time>2014-06-13T09:04:13Z</time>
      </trkpt>
      <trkpt lat="47.13587" lon="7.03836">
        <ele>1268.6</ele>
        <time>2014-06-13T09:04:27Z</time>
      </trkpt>
      <trkpt lat="47.13597" lon="7.03825">
        <ele>1273.88</ele>
        <time>2014-06-13T09:04:43Z</time>
      </trkpt>
      <trkpt lat="47.13605" lon="7.03823">
        <ele>1275.33</ele>
        <time>2014-06-13T09:04:56Z</time>
      </trkpt>
      <trkpt lat="47.13611" lon="7.03821">
        <ele>1273.4</ele>
        <time>2014-06-13T09:05:09Z</time>
      </trkpt>
      <trkpt lat="47.13615" lon="7.03818">
        <ele>1271.96</ele>
        <time>2014-06-13T09:05:20Z</time>
      </trkpt>
      <trkpt lat="47.13621" lon="7.03816">
        <ele>1271.48</ele>
        <time>2014-06-13T09:05:34Z</time>
      </trkpt>
      <trkpt lat="47.1363" lon="7.03809">
        <ele>1275.33</ele>
        <time>2014-06-13T09:05:48Z</time>
      </trkpt>
      <trkpt lat="47.13641" lon="7.038">
        <ele>1278.21</ele>
        <time>2014-06-13T09:06:00Z</time>
      </trkpt>
      <trkpt lat="47.13652" lon="7.03795">
        <ele>1281.09</ele>
        <time>2014-06-13T09:06:12Z</time>
      </trkpt>
      <trkpt lat="47.13661" lon="7.03785">
        <ele>1286.86</ele>
        <time>2014-06-13T09:06:30Z</time>
      </trkpt>
      <trkpt lat="47.13672" lon="7.0378">
        <ele>1288.3</ele>
        <time>2014-06-13T09:06:46Z</time>
      </trkpt>
      <trkpt lat="47.13683" lon="7.03778">
        <ele>1288.78</ele>
        <time>2014-06-13T09:07:00Z</time>
      </trkpt>
      <trkpt lat="47.13685" lon="7.03778">
        <ele>1287.82</ele>
        <time>2014-06-13T09:07:04Z</time>
      </trkpt>
      <trkpt lat="47.13697" lon="7.03775">
        <ele>1288.3</ele>
        <time>2014-06-13T09:07:17Z</time>
      </trkpt>
      <trkpt lat="47.13707" lon="7.03777">
        <ele>1295.03</ele>
        <time>2014-06-13T09:07:31Z</time>
      </trkpt>
      <trkpt lat="47.13717" lon="7.03784">
        <ele>1296.96</ele>
        <time>2014-06-13T09:07:44Z</time>
      </trkpt>
      <trkpt lat="47.13724" lon="7.03785">
        <ele>1298.88</ele>
        <time>2014-06-13T09:07:54Z</time>
      </trkpt>
      <trkpt lat="47.13731" lon="7.03787">
        <ele>1301.76</ele>
        <time>2014-06-13T09:08:06Z</time>
      </trkpt>
      <trkpt lat="47.13739" lon="7.03793">
        <ele>1304.65</ele>
        <time>2014-06-13T09:08:20Z</time>
      </trkpt>
      <trkpt lat="47.13746" lon="7.038">
        <ele>1308.01</ele>
        <time>2014-06-13T09:08:35Z</time>
      </trkpt>
      <trkpt lat="47.13756" lon="7.03806">
        <ele>1311.86</ele>
        <time>2014-06-13T09:08:48Z</time>
      </trkpt>
      <trkpt lat="47.13765" lon="7.03809">
        <ele>1314.26</ele>
        <time>2014-06-13T09:09:02Z</time>
      </trkpt>
      <trkpt lat="47.13774" lon="7.0381">
        <ele>1317.14</ele>
        <time>2014-06-13T09:09:18Z</time>
      </trkpt>
      <trkpt lat="47.13782" lon="7.0381">
        <ele>1322.91</ele>
        <time>2014-06-13T09:09:34Z</time>
      </trkpt>
      <trkpt lat="47.1379" lon="7.03804">
        <ele>1328.68</ele>
        <time>2014-06-13T09:09:49Z</time>
      </trkpt>
      <trkpt lat="47.13801" lon="7.038">
        <ele>1332.04</ele>
        <time>2014-06-13T09:10:02Z</time>
      </trkpt>
      <trkpt lat="47.13805" lon="7.03793">
        <ele>1333.01</ele>
        <time>2014-06-13T09:10:13Z</time>
      </trkpt>
      <trkpt lat="47.13812" lon="7.03788">
        <ele>1335.89</ele>
        <time>2014-06-13T09:10:24Z</time>
      </trkpt>
      <trkpt lat="47.1382" lon="7.03792">
        <ele>1340.22</ele>
        <time>2014-06-13T09:10:36Z</time>
      </trkpt>
      <trkpt lat="47.13831" lon="7.0379">
        <ele>1341.66</ele>
        <time>2014-06-13T09:10:53Z</time>
      </trkpt>
      <trkpt lat="47.1384" lon="7.03789">
        <ele>1341.66</ele>
        <time>2014-06-13T09:11:07Z</time>
      </trkpt>
      <trkpt lat="47.1385" lon="7.03788">
        <ele>1343.1</ele>
        <time>2014-06-13T09:11:23Z</time>
      </trkpt>
      <trkpt lat="47.1386" lon="7.03789">
        <ele>1343.1</ele>
        <time>2014-06-13T09:11:37Z</time>
      </trkpt>
      <trkpt lat="47.13868" lon="7.03793">
        <ele>1345.02</ele>
        <time>2014-06-13T09:11:50Z</time>
      </trkpt>
      <trkpt lat="47.13874" lon="7.03803">
        <ele>1346.94</ele>
        <time>2014-06-13T09:12:03Z</time>
      </trkpt>
      <trkpt lat="47.1388" lon="7.03812">
        <ele>1349.83</ele>
        <time>2014-06-13T09:12:18Z</time>
      </trkpt>
      <trkpt lat="47.13888" lon="7.03818">
        <ele>1352.23</ele>
        <time>2014-06-13T09:12:35Z</time>
      </trkpt>
      <trkpt lat="47.13884" lon="7.03824">
        <ele>1355.12</ele>
        <time>2014-06-13T09:12:51Z</time>
      </trkpt>
      <trkpt lat="47.13878" lon="7.0383">
        <ele>1358.96</ele>
        <time>2014-06-13T09:13:06Z</time>
      </trkpt>
      <trkpt lat="47.13877" lon="7.03833">
        <ele>1360.88</ele>
        <time>2014-06-13T09:13:22Z</time>
      </trkpt>
      <trkpt lat="47.13876" lon="7.03834">
        <ele>1362.81</ele>
        <time>2014-06-13T09:13:39Z</time>
      </trkpt>
      <trkpt lat="47.13874" lon="7.03837">
        <ele>1363.29</ele>
        <time>2014-06-13T09:14:14Z</time>
      </trkpt>
      <trkpt lat="47.1388" lon="7.03836">
        <ele>1365.21</ele>
        <time>2014-06-13T09:14:48Z</time>
      </trkpt>
      <trkpt lat="47.13879" lon="7.03837">
        <ele>1362.33</ele>
        <time>2014-06-13T09:15:19Z</time>
      </trkpt>
      <trkpt lat="47.13883" lon="7.0383">
        <ele>1364.25</ele>
        <time>2014-06-13T09:15:33Z</time>
      </trkpt>
      <trkpt lat="47.13894" lon="7.03835">
        <ele>1363.77</ele>
        <time>2014-06-13T09:15:45Z</time>
      </trkpt>
      <trkpt lat="47.13904" lon="7.03842">
        <ele>1362.81</ele>
        <time>2014-06-13T09:15:55Z</time>
      </trkpt>
      <trkpt lat="47.1392" lon="7.03848">
        <ele>1365.21</ele>
        <time>2014-06-13T09:16:11Z</time>
      </trkpt>
      <trkpt lat="47.13926" lon="7.0385">
        <ele>1365.69</ele>
        <time>2014-06-13T09:16:16Z</time>
      </trkpt>
      <trkpt lat="47.13935" lon="7.03871">
        <ele>1366.65</ele>
        <time>2014-06-13T09:16:29Z</time>
      </trkpt>
      <trkpt lat="47.13936" lon="7.03874">
        <ele>1366.65</ele>
        <time>2014-06-13T09:16:31Z</time>
      </trkpt>
      <trkpt lat="47.1394" lon="7.03881">
        <ele>1367.13</ele>
        <time>2014-06-13T09:16:37Z</time>
      </trkpt>
      <trkpt lat="47.13946" lon="7.03903">
        <ele>1367.13</ele>
        <time>2014-06-13T09:16:54Z</time>
      </trkpt>
      <trkpt lat="47.13923" lon="7.03946">
        <ele>1342.62</ele>
        <time>2014-06-13T09:18:05Z</time>
      </trkpt>
      <trkpt lat="47.13987" lon="7.04008">
        <ele>1364.73</ele>
        <time>2014-06-13T09:18:20Z</time>
      </trkpt>
      <trkpt lat="47.14002" lon="7.04034">
        <ele>1366.65</ele>
        <time>2014-06-13T09:18:36Z</time>
      </trkpt>
      <trkpt lat="47.14014" lon="7.04053">
        <ele>1368.57</ele>
        <time>2014-06-13T09:18:47Z</time>
      </trkpt>
      <trkpt lat="47.14022" lon="7.04071">
        <ele>1369.05</ele>
        <time>2014-06-13T09:18:59Z</time>
      </trkpt>
      <trkpt lat="47.14026" lon="7.04088">
        <ele>1367.13</ele>
        <time>2014-06-13T09:19:12Z</time>
      </trkpt>
      <trkpt lat="47.14035" lon="7.0411">
        <ele>1364.73</ele>
        <time>2014-06-13T09:19:25Z</time>
      </trkpt>
      <trkpt lat="47.14044" lon="7.04129">
        <ele>1364.25</ele>
        <time>2014-06-13T09:19:39Z</time>
      </trkpt>
      <trkpt lat="47.14053" lon="7.04147">
        <ele>1365.21</ele>
        <time>2014-06-13T09:19:52Z</time>
      </trkpt>
      <trkpt lat="47.14066" lon="7.04167">
        <ele>1369.54</ele>
        <time>2014-06-13T09:20:06Z</time>
      </trkpt>
      <trkpt lat="47.14076" lon="7.04186">
        <ele>1371.94</ele>
        <time>2014-06-13T09:20:18Z</time>
      </trkpt>
      <trkpt lat="47.14085" lon="7.04202">
        <ele>1372.42</ele>
        <time>2014-06-13T09:20:30Z</time>
      </trkpt>
      <trkpt lat="47.14096" lon="7.04222">
        <ele>1372.9</ele>
        <time>2014-06-13T09:20:43Z</time>
      </trkpt>
      <trkpt lat="47.14111" lon="7.04246">
        <ele>1373.86</ele>
        <time>2014-06-13T09:20:59Z</time>
      </trkpt>
      <trkpt lat="47.14124" lon="7.04259">
        <ele>1372.9</ele>
        <time>2014-06-13T09:21:12Z</time>
      </trkpt>
      <trkpt lat="47.14138" lon="7.04275">
        <ele>1372.42</ele>
        <time>2014-06-13T09:21:26Z</time>
      </trkpt>
      <trkpt lat="47.14145" lon="7.04284">
        <ele>1371.46</ele>
        <time>2014-06-13T09:21:34Z</time>
      </trkpt>
      <trkpt lat="47.14157" lon="7.04297">
        <ele>1370.5</ele>
        <time>2014-06-13T09:21:47Z</time>
      </trkpt>
      <trkpt lat="47.14169" lon="7.04313">
        <ele>1370.98</ele>
        <time>2014-06-13T09:22:01Z</time>
      </trkpt>
      <trkpt lat="47.1418" lon="7.04329">
        <ele>1370.98</ele>
        <time>2014-06-13T09:22:13Z</time>
      </trkpt>
      <trkpt lat="47.14193" lon="7.04347">
        <ele>1369.54</ele>
        <time>2014-06-13T09:22:27Z</time>
      </trkpt>
      <trkpt lat="47.14204" lon="7.04364">
        <ele>1368.09</ele>
        <time>2014-06-13T09:22:41Z</time>
      </trkpt>
      <trkpt lat="47.14204" lon="7.04367">
        <ele>1367.13</ele>
        <time>2014-06-13T09:23:16Z</time>
      </trkpt>
      <trkpt lat="47.14214" lon="7.04382">
        <ele>1366.17</ele>
        <time>2014-06-13T09:23:28Z</time>
      </trkpt>
      <trkpt lat="47.14226" lon="7.04406">
        <ele>1364.25</ele>
        <time>2014-06-13T09:23:44Z</time>
      </trkpt>
      <trkpt lat="47.14234" lon="7.04431">
        <ele>1363.77</ele>
        <time>2014-06-13T09:23:58Z</time>
      </trkpt>
      <trkpt lat="47.14239" lon="7.04452">
        <ele>1364.25</ele>
        <time>2014-06-13T09:24:10Z</time>
      </trkpt>
      <trkpt lat="47.14239" lon="7.04468">
        <ele>1365.21</ele>
        <time>2014-06-13T09:24:18Z</time>
      </trkpt>
      <trkpt lat="47.1424" lon="7.04471">
        <ele>1365.21</ele>
        <time>2014-06-13T09:24:21Z</time>
      </trkpt>
      <trkpt lat="47.14243" lon="7.04474">
        <ele>1364.73</ele>
        <time>2014-06-13T09:24:24Z</time>
      </trkpt>
      <trkpt lat="47.14248" lon="7.04482">
        <ele>1365.21</ele>
        <time>2014-06-13T09:24:31Z</time>
      </trkpt>
      <trkpt lat="47.14258" lon="7.04502">
        <ele>1365.69</ele>
        <time>2014-06-13T09:24:44Z</time>
      </trkpt>
      <trkpt lat="47.14261" lon="7.04535">
        <ele>1362.33</ele>
        <time>2014-06-13T09:25:01Z</time>
      </trkpt>
      <trkpt lat="47.14262" lon="7.04563">
        <ele>1361.36</ele>
        <time>2014-06-13T09:25:15Z</time>
      </trkpt>
      <trkpt lat="47.14267" lon="7.04587">
        <ele>1358.96</ele>
        <time>2014-06-13T09:25:28Z</time>
      </trkpt>
      <trkpt lat="47.14272" lon="7.04611">
        <ele>1357.04</ele>
        <time>2014-06-13T09:25:42Z</time>
      </trkpt>
      <trkpt lat="47.14284" lon="7.04637">
        <ele>1357.52</ele>
        <time>2014-06-13T09:25:58Z</time>
      </trkpt>
      <trkpt lat="47.14292" lon="7.04661">
        <ele>1356.56</ele>
        <time>2014-06-13T09:26:12Z</time>
      </trkpt>
      <trkpt lat="47.14302" lon="7.04687">
        <ele>1356.56</ele>
        <time>2014-06-13T09:26:27Z</time>
      </trkpt>
      <trkpt lat="47.14311" lon="7.04713">
        <ele>1356.56</ele>
        <time>2014-06-13T09:26:42Z</time>
      </trkpt>
      <trkpt lat="47.14319" lon="7.04732">
        <ele>1356.08</ele>
        <time>2014-06-13T09:26:54Z</time>
      </trkpt>
      <trkpt lat="47.1433" lon="7.04755">
        <ele>1356.56</ele>
        <time>2014-06-13T09:27:08Z</time>
      </trkpt>
      <trkpt lat="47.14347" lon="7.04774">
        <ele>1358</ele>
        <time>2014-06-13T09:27:23Z</time>
      </trkpt>
      <trkpt lat="47.1436" lon="7.048">
        <ele>1357.52</ele>
        <time>2014-06-13T09:27:39Z</time>
      </trkpt>
      <trkpt lat="47.14372" lon="7.04826">
        <ele>1356.56</ele>
        <time>2014-06-13T09:27:55Z</time>
      </trkpt>
      <trkpt lat="47.14381" lon="7.04851">
        <ele>1356.08</ele>
        <time>2014-06-13T09:28:09Z</time>
      </trkpt>
      <trkpt lat="47.1439" lon="7.0488">
        <ele>1355.12</ele>
        <time>2014-06-13T09:28:25Z</time>
      </trkpt>
      <trkpt lat="47.14398" lon="7.04909">
        <ele>1355.12</ele>
        <time>2014-06-13T09:28:41Z</time>
      </trkpt>
      <trkpt lat="47.14409" lon="7.04931">
        <ele>1354.63</ele>
        <time>2014-06-13T09:28:56Z</time>
      </trkpt>
      <trkpt lat="47.14422" lon="7.04954">
        <ele>1353.19</ele>
        <time>2014-06-13T09:29:11Z</time>
      </trkpt>
      <trkpt lat="47.14434" lon="7.04981">
        <ele>1353.67</ele>
        <time>2014-06-13T09:29:27Z</time>
      </trkpt>
      <trkpt lat="47.14442" lon="7.05009">
        <ele>1353.67</ele>
        <time>2014-06-13T09:29:43Z</time>
      </trkpt>
      <trkpt lat="47.14448" lon="7.05031">
        <ele>1354.15</ele>
        <time>2014-06-13T09:29:56Z</time>
      </trkpt>
      <trkpt lat="47.14457" lon="7.05052">
        <ele>1355.6</ele>
        <time>2014-06-13T09:30:10Z</time>
      </trkpt>
      <trkpt lat="47.14468" lon="7.05072">
        <ele>1357.04</ele>
        <time>2014-06-13T09:30:24Z</time>
      </trkpt>
      <trkpt lat="47.14478" lon="7.05092">
        <ele>1358.96</ele>
        <time>2014-06-13T09:30:38Z</time>
      </trkpt>
      <trkpt lat="47.14485" lon="7.05107">
        <ele>1358.96</ele>
        <time>2014-06-13T09:30:51Z</time>
      </trkpt>
      <trkpt lat="47.14487" lon="7.05115">
        <ele>1358.48</ele>
        <time>2014-06-13T09:31:03Z</time>
      </trkpt>
      <trkpt lat="47.14489" lon="7.05122">
        <ele>1359.44</ele>
        <time>2014-06-13T09:31:10Z</time>
      </trkpt>
      <trkpt lat="47.14495" lon="7.05146">
        <ele>1359.44</ele>
        <time>2014-06-13T09:31:26Z</time>
      </trkpt>
      <trkpt lat="47.14498" lon="7.0516">
        <ele>1359.44</ele>
        <time>2014-06-13T09:31:33Z</time>
      </trkpt>
      <trkpt lat="47.14503" lon="7.05174">
        <ele>1361.84</ele>
        <time>2014-06-13T09:31:46Z</time>
      </trkpt>
      <trkpt lat="47.14504" lon="7.05178">
        <ele>1363.29</ele>
        <time>2014-06-13T09:31:53Z</time>
      </trkpt>
      <trkpt lat="47.14506" lon="7.05182">
        <ele>1364.73</ele>
        <time>2014-06-13T09:31:57Z</time>
      </trkpt>
      <trkpt lat="47.14509" lon="7.05204">
        <ele>1365.69</ele>
        <time>2014-06-13T09:32:09Z</time>
      </trkpt>
      <trkpt lat="47.14509" lon="7.05214">
        <ele>1366.17</ele>
        <time>2014-06-13T09:32:22Z</time>
      </trkpt>
      <trkpt lat="47.14509" lon="7.05217">
        <ele>1365.69</ele>
        <time>2014-06-13T09:32:30Z</time>
      </trkpt>
      <trkpt lat="47.1451" lon="7.05226">
        <ele>1366.17</ele>
        <time>2014-06-13T09:32:36Z</time>
      </trkpt>
      <trkpt lat="47.14511" lon="7.05232">
        <ele>1366.65</ele>
        <time>2014-06-13T09:32:40Z</time>
      </trkpt>
      <trkpt lat="47.14517" lon="7.05258">
        <ele>1368.09</ele>
        <time>2014-06-13T09:32:55Z</time>
      </trkpt>
      <trkpt lat="47.14521" lon="7.05281">
        <ele>1368.09</ele>
        <time>2014-06-13T09:33:07Z</time>
      </trkpt>
      <trkpt lat="47.14527" lon="7.05308">
        <ele>1368.09</ele>
        <time>2014-06-13T09:33:22Z</time>
      </trkpt>
      <trkpt lat="47.14532" lon="7.0533">
        <ele>1367.61</ele>
        <time>2014-06-13T09:33:36Z</time>
      </trkpt>
      <trkpt lat="47.14537" lon="7.05351">
        <ele>1368.09</ele>
        <time>2014-06-13T09:33:49Z</time>
      </trkpt>
      <trkpt lat="47.14543" lon="7.05372">
        <ele>1368.57</ele>
        <time>2014-06-13T09:34:02Z</time>
      </trkpt>
      <trkpt lat="47.14547" lon="7.05393">
        <ele>1368.57</ele>
        <time>2014-06-13T09:34:15Z</time>
      </trkpt>
      <trkpt lat="47.14551" lon="7.05405">
        <ele>1370.5</ele>
        <time>2014-06-13T09:34:23Z</time>
      </trkpt>
      <trkpt lat="47.14557" lon="7.05429">
        <ele>1371.46</ele>
        <time>2014-06-13T09:34:38Z</time>
      </trkpt>
      <trkpt lat="47.14563" lon="7.05452">
        <ele>1371.94</ele>
        <time>2014-06-13T09:34:52Z</time>
      </trkpt>
      <trkpt lat="47.14569" lon="7.05475">
        <ele>1373.86</ele>
        <time>2014-06-13T09:35:05Z</time>
      </trkpt>
      <trkpt lat="47.14578" lon="7.05498">
        <ele>1376.26</ele>
        <time>2014-06-13T09:35:19Z</time>
      </trkpt>
      <trkpt lat="47.14585" lon="7.05521">
        <ele>1377.71</ele>
        <time>2014-06-13T09:35:33Z</time>
      </trkpt>
      <trkpt lat="47.14592" lon="7.05541">
        <ele>1377.23</ele>
        <time>2014-06-13T09:35:46Z</time>
      </trkpt>
      <trkpt lat="47.146" lon="7.05566">
        <ele>1376.75</ele>
        <time>2014-06-13T09:36:00Z</time>
      </trkpt>
      <trkpt lat="47.14601" lon="7.05569">
        <ele>1376.75</ele>
        <time>2014-06-13T09:36:02Z</time>
      </trkpt>
      <trkpt lat="47.14597" lon="7.05592">
        <ele>1376.75</ele>
        <time>2014-06-13T09:36:14Z</time>
      </trkpt>
      <trkpt lat="47.14594" lon="7.05602">
        <ele>1377.23</ele>
        <time>2014-06-13T09:36:21Z</time>
      </trkpt>
      <trkpt lat="47.14587" lon="7.0562">
        <ele>1378.19</ele>
        <time>2014-06-13T09:36:33Z</time>
      </trkpt>
      <trkpt lat="47.14586" lon="7.05628">
        <ele>1378.19</ele>
        <time>2014-06-13T09:36:38Z</time>
      </trkpt>
      <trkpt lat="47.14584" lon="7.05636">
        <ele>1378.19</ele>
        <time>2014-06-13T09:36:44Z</time>
      </trkpt>
      <trkpt lat="47.14582" lon="7.05651">
        <ele>1378.67</ele>
        <time>2014-06-13T09:36:53Z</time>
      </trkpt>
      <trkpt lat="47.14578" lon="7.05657">
        <ele>1378.67</ele>
        <time>2014-06-13T09:36:58Z</time>
      </trkpt>
      <trkpt lat="47.14574" lon="7.05675">
        <ele>1379.63</ele>
        <time>2014-06-13T09:37:10Z</time>
      </trkpt>
      <trkpt lat="47.1457" lon="7.05684">
        <ele>1380.11</ele>
        <time>2014-06-13T09:37:17Z</time>
      </trkpt>
      <trkpt lat="47.14568" lon="7.05687">
        <ele>1380.59</ele>
        <time>2014-06-13T09:37:21Z</time>
      </trkpt>
      <trkpt lat="47.14564" lon="7.05706">
        <ele>1382.03</ele>
        <time>2014-06-13T09:37:33Z</time>
      </trkpt>
      <trkpt lat="47.14563" lon="7.05725">
        <ele>1382.99</ele>
        <time>2014-06-13T09:37:45Z</time>
      </trkpt>
      <trkpt lat="47.14564" lon="7.05731">
        <ele>1382.51</ele>
        <time>2014-06-13T09:37:49Z</time>
      </trkpt>
      <trkpt lat="47.14562" lon="7.0575">
        <ele>1382.99</ele>
        <time>2014-06-13T09:38:01Z</time>
      </trkpt>
      <trkpt lat="47.14561" lon="7.05753">
        <ele>1382.99</ele>
        <time>2014-06-13T09:38:03Z</time>
      </trkpt>
      <trkpt lat="47.14561" lon="7.0577">
        <ele>1385.4</ele>
        <time>2014-06-13T09:38:15Z</time>
      </trkpt>
      <trkpt lat="47.14561" lon="7.05787">
        <ele>1387.32</ele>
        <time>2014-06-13T09:38:26Z</time>
      </trkpt>
      <trkpt lat="47.14558" lon="7.05802">
        <ele>1390.2</ele>
        <time>2014-06-13T09:38:38Z</time>
      </trkpt>
      <trkpt lat="47.14558" lon="7.05805">
        <ele>1390.68</ele>
        <time>2014-06-13T09:38:40Z</time>
      </trkpt>
      <trkpt lat="47.14554" lon="7.05816">
        <ele>1393.09</ele>
        <time>2014-06-13T09:38:52Z</time>
      </trkpt>
      <trkpt lat="47.14553" lon="7.05828">
        <ele>1395.01</ele>
        <time>2014-06-13T09:39:02Z</time>
      </trkpt>
      <trkpt lat="47.14553" lon="7.05833">
        <ele>1395.97</ele>
        <time>2014-06-13T09:39:06Z</time>
      </trkpt>
      <trkpt lat="47.1455" lon="7.05845">
        <ele>1396.93</ele>
        <time>2014-06-13T09:39:18Z</time>
      </trkpt>
      <trkpt lat="47.1455" lon="7.05849">
        <ele>1396.93</ele>
        <time>2014-06-13T09:39:22Z</time>
      </trkpt>
      <trkpt lat="47.14552" lon="7.05853">
        <ele>1396.93</ele>
        <time>2014-06-13T09:39:25Z</time>
      </trkpt>
      <trkpt lat="47.14552" lon="7.05867">
        <ele>1399.34</ele>
        <time>2014-06-13T09:39:37Z</time>
      </trkpt>
      <trkpt lat="47.1455" lon="7.05877">
        <ele>1401.74</ele>
        <time>2014-06-13T09:39:47Z</time>
      </trkpt>
      <trkpt lat="47.14549" lon="7.05881">
        <ele>1402.7</ele>
        <time>2014-06-13T09:39:51Z</time>
      </trkpt>
      <trkpt lat="47.14547" lon="7.05893">
        <ele>1405.1</ele>
        <time>2014-06-13T09:40:04Z</time>
      </trkpt>
      <trkpt lat="47.14548" lon="7.05901">
        <ele>1405.58</ele>
        <time>2014-06-13T09:40:12Z</time>
      </trkpt>
      <trkpt lat="47.14547" lon="7.05914">
        <ele>1407.03</ele>
        <time>2014-06-13T09:40:21Z</time>
      </trkpt>
      <trkpt lat="47.14547" lon="7.05928">
        <ele>1408.95</ele>
        <time>2014-06-13T09:40:33Z</time>
      </trkpt>
      <trkpt lat="47.14548" lon="7.05944">
        <ele>1409.91</ele>
        <time>2014-06-13T09:40:44Z</time>
      </trkpt>
      <trkpt lat="47.14546" lon="7.05956">
        <ele>1412.31</ele>
        <time>2014-06-13T09:40:55Z</time>
      </trkpt>
      <trkpt lat="47.14545" lon="7.05965">
        <ele>1414.24</ele>
        <time>2014-06-13T09:41:05Z</time>
      </trkpt>
      <trkpt lat="47.14545" lon="7.05979">
        <ele>1416.64</ele>
        <time>2014-06-13T09:41:16Z</time>
      </trkpt>
      <trkpt lat="47.14544" lon="7.05989">
        <ele>1418.08</ele>
        <time>2014-06-13T09:41:26Z</time>
      </trkpt>
      <trkpt lat="47.14543" lon="7.06001">
        <ele>1419.52</ele>
        <time>2014-06-13T09:41:39Z</time>
      </trkpt>
      <trkpt lat="47.14543" lon="7.06016">
        <ele>1421.45</ele>
        <time>2014-06-13T09:41:51Z</time>
      </trkpt>
      <trkpt lat="47.14541" lon="7.06027">
        <ele>1423.37</ele>
        <time>2014-06-13T09:42:01Z</time>
      </trkpt>
      <trkpt lat="47.14541" lon="7.06038">
        <ele>1424.81</ele>
        <time>2014-06-13T09:42:13Z</time>
      </trkpt>
      <trkpt lat="47.14539" lon="7.06046">
        <ele>1427.7</ele>
        <time>2014-06-13T09:42:23Z</time>
      </trkpt>
      <trkpt lat="47.14538" lon="7.06055">
        <ele>1431.06</ele>
        <time>2014-06-13T09:42:35Z</time>
      </trkpt>
      <trkpt lat="47.14538" lon="7.06064">
        <ele>1432.5</ele>
        <time>2014-06-13T09:42:48Z</time>
      </trkpt>
      <trkpt lat="47.1454" lon="7.06071">
        <ele>1436.35</ele>
        <time>2014-06-13T09:42:58Z</time>
      </trkpt>
      <trkpt lat="47.14539" lon="7.06078">
        <ele>1440.19</ele>
        <time>2014-06-13T09:43:08Z</time>
      </trkpt>
      <trkpt lat="47.14539" lon="7.06085">
        <ele>1445.96</ele>
        <time>2014-06-13T09:43:20Z</time>
      </trkpt>
      <trkpt lat="47.14537" lon="7.06092">
        <ele>1448.84</ele>
        <time>2014-06-13T09:43:32Z</time>
      </trkpt>
      <trkpt lat="47.14534" lon="7.06101">
        <ele>1449.81</ele>
        <time>2014-06-13T09:43:44Z</time>
      </trkpt>
      <trkpt lat="47.14533" lon="7.06111">
        <ele>1451.25</ele>
        <time>2014-06-13T09:43:56Z</time>
      </trkpt>
      <trkpt lat="47.14524" lon="7.06121">
        <ele>1450.29</ele>
        <time>2014-06-13T09:44:09Z</time>
      </trkpt>
      <trkpt lat="47.1452" lon="7.06128">
        <ele>1451.73</ele>
        <time>2014-06-13T09:44:21Z</time>
      </trkpt>
      <trkpt lat="47.14518" lon="7.06133">
        <ele>1452.69</ele>
        <time>2014-06-13T09:44:32Z</time>
      </trkpt>
      <trkpt lat="47.14515" lon="7.06141">
        <ele>1454.61</ele>
        <time>2014-06-13T09:44:44Z</time>
      </trkpt>
      <trkpt lat="47.14514" lon="7.06148">
        <ele>1454.61</ele>
        <time>2014-06-13T09:44:58Z</time>
      </trkpt>
      <trkpt lat="47.14512" lon="7.06151">
        <ele>1457.02</ele>
        <time>2014-06-13T09:45:09Z</time>
      </trkpt>
      <trkpt lat="47.14507" lon="7.06154">
        <ele>1457.5</ele>
        <time>2014-06-13T09:45:24Z</time>
      </trkpt>
      <trkpt lat="47.14507" lon="7.06161">
        <ele>1462.3</ele>
        <time>2014-06-13T09:45:37Z</time>
      </trkpt>
      <trkpt lat="47.14502" lon="7.06158">
        <ele>1463.74</ele>
        <time>2014-06-13T09:45:49Z</time>
      </trkpt>
      <trkpt lat="47.145" lon="7.06163">
        <ele>1463.74</ele>
        <time>2014-06-13T09:46:02Z</time>
      </trkpt>
      <trkpt lat="47.145" lon="7.06169">
        <ele>1467.59</ele>
        <time>2014-06-13T09:46:14Z</time>
      </trkpt>
      <trkpt lat="47.14497" lon="7.06178">
        <ele>1471.92</ele>
        <time>2014-06-13T09:46:26Z</time>
      </trkpt>
      <trkpt lat="47.14495" lon="7.06188">
        <ele>1475.28</ele>
        <time>2014-06-13T09:46:39Z</time>
      </trkpt>
      <trkpt lat="47.14493" lon="7.062">
        <ele>1475.76</ele>
        <time>2014-06-13T09:46:52Z</time>
      </trkpt>
      <trkpt lat="47.1449" lon="7.0621">
        <ele>1474.8</ele>
        <time>2014-06-13T09:47:05Z</time>
      </trkpt>
      <trkpt lat="47.14489" lon="7.06218">
        <ele>1476.24</ele>
        <time>2014-06-13T09:47:18Z</time>
      </trkpt>
      <trkpt lat="47.14489" lon="7.06228">
        <ele>1481.05</ele>
        <time>2014-06-13T09:47:30Z</time>
      </trkpt>
      <trkpt lat="47.1449" lon="7.06236">
        <ele>1484.89</ele>
        <time>2014-06-13T09:47:42Z</time>
      </trkpt>
      <trkpt lat="47.14489" lon="7.06246">
        <ele>1491.14</ele>
        <time>2014-06-13T09:47:55Z</time>
      </trkpt>
      <trkpt lat="47.14485" lon="7.06256">
        <ele>1492.58</ele>
        <time>2014-06-13T09:48:09Z</time>
      </trkpt>
      <trkpt lat="47.1448" lon="7.06264">
        <ele>1491.14</ele>
        <time>2014-06-13T09:48:20Z</time>
      </trkpt>
      <trkpt lat="47.14474" lon="7.06271">
        <ele>1490.18</ele>
        <time>2014-06-13T09:48:35Z</time>
      </trkpt>
      <trkpt lat="47.14468" lon="7.06269">
        <ele>1490.18</ele>
        <time>2014-06-13T09:48:50Z</time>
      </trkpt>
      <trkpt lat="47.14465" lon="7.06272">
        <ele>1491.62</ele>
        <time>2014-06-13T09:49:01Z</time>
      </trkpt>
      <trkpt lat="47.14465" lon="7.06278">
        <ele>1493.55</ele>
        <time>2014-06-13T09:49:13Z</time>
      </trkpt>
      <trkpt lat="47.14463" lon="7.06284">
        <ele>1496.43</ele>
        <time>2014-06-13T09:49:26Z</time>
      </trkpt>
      <trkpt lat="47.14455" lon="7.06284">
        <ele>1498.35</ele>
        <time>2014-06-13T09:49:40Z</time>
      </trkpt>
      <trkpt lat="47.14447" lon="7.06281">
        <ele>1497.87</ele>
        <time>2014-06-13T09:49:51Z</time>
      </trkpt>
      <trkpt lat="47.14441" lon="7.06273">
        <ele>1498.83</ele>
        <time>2014-06-13T09:50:05Z</time>
      </trkpt>
      <trkpt lat="47.14434" lon="7.06263">
        <ele>1500.27</ele>
        <time>2014-06-13T09:50:17Z</time>
      </trkpt>
      <trkpt lat="47.14432" lon="7.06261">
        <ele>1501.24</ele>
        <time>2014-06-13T09:50:21Z</time>
      </trkpt>
      <trkpt lat="47.14428" lon="7.06253">
        <ele>1502.68</ele>
        <time>2014-06-13T09:50:32Z</time>
      </trkpt>
      <trkpt lat="47.14423" lon="7.06247">
        <ele>1503.64</ele>
        <time>2014-06-13T09:50:43Z</time>
      </trkpt>
      <trkpt lat="47.14419" lon="7.0624">
        <ele>1505.08</ele>
        <time>2014-06-13T09:50:52Z</time>
      </trkpt>
      <trkpt lat="47.14416" lon="7.06236">
        <ele>1506.52</ele>
        <time>2014-06-13T09:50:57Z</time>
      </trkpt>
      <trkpt lat="47.14411" lon="7.06226">
        <ele>1508.93</ele>
        <time>2014-06-13T09:51:09Z</time>
      </trkpt>
      <trkpt lat="47.14407" lon="7.06218">
        <ele>1510.85</ele>
        <time>2014-06-13T09:51:19Z</time>
      </trkpt>
      <trkpt lat="47.14401" lon="7.0621">
        <ele>1512.77</ele>
        <time>2014-06-13T09:51:30Z</time>
      </trkpt>
      <trkpt lat="47.14396" lon="7.06207">
        <ele>1513.73</ele>
        <time>2014-06-13T09:51:39Z</time>
      </trkpt>
      <trkpt lat="47.14388" lon="7.06202">
        <ele>1514.21</ele>
        <time>2014-06-13T09:51:51Z</time>
      </trkpt>
      <trkpt lat="47.14388" lon="7.06205">
        <ele>1512.29</ele>
        <time>2014-06-13T09:52:08Z</time>
      </trkpt>
      <trkpt lat="47.14388" lon="7.06206">
        <ele>1511.81</ele>
        <time>2014-06-13T09:52:21Z</time>
      </trkpt>
      <trkpt lat="47.14387" lon="7.06216">
        <ele>1511.81</ele>
        <time>2014-06-13T09:52:32Z</time>
      </trkpt>
      <trkpt lat="47.14387" lon="7.0622">
        <ele>1511.33</ele>
        <time>2014-06-13T09:52:36Z</time>
      </trkpt>
      <trkpt lat="47.14388" lon="7.06229">
        <ele>1508.93</ele>
        <time>2014-06-13T09:52:50Z</time>
      </trkpt>
      <trkpt lat="47.14392" lon="7.0623">
        <ele>1507.48</ele>
        <time>2014-06-13T09:53:11Z</time>
      </trkpt>
      <trkpt lat="47.1439" lon="7.06234">
        <ele>1507</ele>
        <time>2014-06-13T09:53:37Z</time>
      </trkpt>
      <trkpt lat="47.14388" lon="7.06246">
        <ele>1507</ele>
        <time>2014-06-13T09:53:51Z</time>
      </trkpt>
      <trkpt lat="47.14385" lon="7.0625">
        <ele>1506.52</ele>
        <time>2014-06-13T09:53:55Z</time>
      </trkpt>
      <trkpt lat="47.14384" lon="7.06251">
        <ele>1505.56</ele>
        <time>2014-06-13T09:53:57Z</time>
      </trkpt>
      <trkpt lat="47.14377" lon="7.06256">
        <ele>1503.16</ele>
        <time>2014-06-13T09:54:07Z</time>
      </trkpt>
      <trkpt lat="47.14375" lon="7.06259">
        <ele>1502.2</ele>
        <time>2014-06-13T09:54:11Z</time>
      </trkpt>
      <trkpt lat="47.14374" lon="7.06273">
        <ele>1500.76</ele>
        <time>2014-06-13T09:54:21Z</time>
      </trkpt>
      <trkpt lat="47.14375" lon="7.06288">
        <ele>1500.27</ele>
        <time>2014-06-13T09:54:32Z</time>
      </trkpt>
      <trkpt lat="47.14375" lon="7.0629">
        <ele>1500.76</ele>
        <time>2014-06-13T09:54:33Z</time>
      </trkpt>
      <trkpt lat="47.14374" lon="7.06293">
        <ele>1501.24</ele>
        <time>2014-06-13T09:54:36Z</time>
      </trkpt>
      <trkpt lat="47.14371" lon="7.06307">
        <ele>1498.83</ele>
        <time>2014-06-13T09:54:49Z</time>
      </trkpt>
      <trkpt lat="47.14369" lon="7.06325">
        <ele>1496.91</ele>
        <time>2014-06-13T09:55:02Z</time>
      </trkpt>
      <trkpt lat="47.14366" lon="7.06346">
        <ele>1494.99</ele>
        <time>2014-06-13T09:55:17Z</time>
      </trkpt>
      <trkpt lat="47.14365" lon="7.06355">
        <ele>1494.51</ele>
        <time>2014-06-13T09:55:23Z</time>
      </trkpt>
      <trkpt lat="47.14364" lon="7.06364">
        <ele>1493.55</ele>
        <time>2014-06-13T09:55:29Z</time>
      </trkpt>
      <trkpt lat="47.14357" lon="7.06387">
        <ele>1485.85</ele>
        <time>2014-06-13T09:55:47Z</time>
      </trkpt>
      <trkpt lat="47.14359" lon="7.06407">
        <ele>1482.97</ele>
        <time>2014-06-13T09:56:01Z</time>
      </trkpt>
      <trkpt lat="47.14355" lon="7.06427">
        <ele>1481.53</ele>
        <time>2014-06-13T09:56:14Z</time>
      </trkpt>
      <trkpt lat="47.14353" lon="7.06441">
        <ele>1479.13</ele>
        <time>2014-06-13T09:56:24Z</time>
      </trkpt>
      <trkpt lat="47.14349" lon="7.06454">
        <ele>1477.68</ele>
        <time>2014-06-13T09:56:33Z</time>
      </trkpt>
      <trkpt lat="47.14348" lon="7.06463">
        <ele>1476.72</ele>
        <time>2014-06-13T09:56:40Z</time>
      </trkpt>
      <trkpt lat="47.14345" lon="7.0647">
        <ele>1475.76</ele>
        <time>2014-06-13T09:56:46Z</time>
      </trkpt>
      <trkpt lat="47.14343" lon="7.06485">
        <ele>1473.84</ele>
        <time>2014-06-13T09:56:59Z</time>
      </trkpt>
      <trkpt lat="47.14343" lon="7.06486">
        <ele>1473.84</ele>
        <time>2014-06-13T09:57:00Z</time>
      </trkpt>
      <trkpt lat="47.14337" lon="7.06494">
        <ele>1471.44</ele>
        <time>2014-06-13T09:57:11Z</time>
      </trkpt>
      <trkpt lat="47.1433" lon="7.06505">
        <ele>1470.47</ele>
        <time>2014-06-13T09:57:20Z</time>
      </trkpt>
      <trkpt lat="47.14329" lon="7.06514">
        <ele>1469.99</ele>
        <time>2014-06-13T09:57:25Z</time>
      </trkpt>
      <trkpt lat="47.14327" lon="7.06525">
        <ele>1468.55</ele>
        <time>2014-06-13T09:57:36Z</time>
      </trkpt>
      <trkpt lat="47.14326" lon="7.06527">
        <ele>1467.59</ele>
        <time>2014-06-13T09:57:50Z</time>
      </trkpt>
      <trkpt lat="47.14324" lon="7.06529">
        <ele>1465.67</ele>
        <time>2014-06-13T09:57:59Z</time>
      </trkpt>
      <trkpt lat="47.14328" lon="7.06546">
        <ele>1466.63</ele>
        <time>2014-06-13T09:58:12Z</time>
      </trkpt>
      <trkpt lat="47.14331" lon="7.06564">
        <ele>1467.11</ele>
        <time>2014-06-13T09:58:24Z</time>
      </trkpt>
      <trkpt lat="47.14336" lon="7.06586">
        <ele>1467.59</ele>
        <time>2014-06-13T09:58:37Z</time>
      </trkpt>
      <trkpt lat="47.14337" lon="7.06589">
        <ele>1468.07</ele>
        <time>2014-06-13T09:58:39Z</time>
      </trkpt>
      <trkpt lat="47.14338" lon="7.06598">
        <ele>1467.59</ele>
        <time>2014-06-13T09:58:45Z</time>
      </trkpt>
      <trkpt lat="47.14327" lon="7.06618">
        <ele>1465.67</ele>
        <time>2014-06-13T09:59:00Z</time>
      </trkpt>
      <trkpt lat="47.1432" lon="7.06645">
        <ele>1462.78</ele>
        <time>2014-06-13T09:59:17Z</time>
      </trkpt>
      <trkpt lat="47.14319" lon="7.06646">
        <ele>1463.26</ele>
        <time>2014-06-13T09:59:19Z</time>
      </trkpt>
      <trkpt lat="47.14314" lon="7.06646">
        <ele>1463.26</ele>
        <time>2014-06-13T09:59:24Z</time>
      </trkpt>
      <trkpt lat="47.14301" lon="7.06653">
        <ele>1463.26</ele>
        <time>2014-06-13T09:59:38Z</time>
      </trkpt>
      <trkpt lat="47.1429" lon="7.0666">
        <ele>1463.74</ele>
        <time>2014-06-13T09:59:49Z</time>
      </trkpt>
      <trkpt lat="47.14289" lon="7.0666">
        <ele>1463.74</ele>
        <time>2014-06-13T09:59:50Z</time>
      </trkpt>
      <trkpt lat="47.14278" lon="7.0666">
        <ele>1463.74</ele>
        <time>2014-06-13T10:00:02Z</time>
      </trkpt>
      <trkpt lat="47.14274" lon="7.0666">
        <ele>1465.19</ele>
        <time>2014-06-13T10:00:06Z</time>
      </trkpt>
      <trkpt lat="47.14263" lon="7.06657">
        <ele>1466.63</ele>
        <time>2014-06-13T10:00:18Z</time>
      </trkpt>
      <trkpt lat="47.14262" lon="7.06657">
        <ele>1466.63</ele>
        <time>2014-06-13T10:00:19Z</time>
      </trkpt>
      <trkpt lat="47.14255" lon="7.06647">
        <ele>1468.55</ele>
        <time>2014-06-13T10:00:31Z</time>
      </trkpt>
      <trkpt lat="47.14248" lon="7.06637">
        <ele>1470.47</ele>
        <time>2014-06-13T10:00:41Z</time>
      </trkpt>
      <trkpt lat="47.14242" lon="7.06628">
        <ele>1472.4</ele>
        <time>2014-06-13T10:00:50Z</time>
      </trkpt>
      <trkpt lat="47.14234" lon="7.0662">
        <ele>1472.88</ele>
        <time>2014-06-13T10:01:00Z</time>
      </trkpt>
      <trkpt lat="47.14233" lon="7.06619">
        <ele>1472.88</ele>
        <time>2014-06-13T10:01:02Z</time>
      </trkpt>
      <trkpt lat="47.14224" lon="7.0661">
        <ele>1472.88</ele>
        <time>2014-06-13T10:01:14Z</time>
      </trkpt>
      <trkpt lat="47.14218" lon="7.06605">
        <ele>1474.32</ele>
        <time>2014-06-13T10:01:22Z</time>
      </trkpt>
      <trkpt lat="47.14206" lon="7.06595">
        <ele>1479.61</ele>
        <time>2014-06-13T10:01:37Z</time>
      </trkpt>
      <trkpt lat="47.14198" lon="7.06592">
        <ele>1481.05</ele>
        <time>2014-06-13T10:01:51Z</time>
      </trkpt>
      <trkpt lat="47.14192" lon="7.06594">
        <ele>1482.01</ele>
        <time>2014-06-13T10:02:00Z</time>
      </trkpt>
      <trkpt lat="47.14179" lon="7.06593">
        <ele>1482.97</ele>
        <time>2014-06-13T10:02:12Z</time>
      </trkpt>
      <trkpt lat="47.1417" lon="7.06592">
        <ele>1485.85</ele>
        <time>2014-06-13T10:02:22Z</time>
      </trkpt>
      <trkpt lat="47.14169" lon="7.06592">
        <ele>1486.34</ele>
        <time>2014-06-13T10:02:24Z</time>
      </trkpt>
      <trkpt lat="47.14162" lon="7.06589">
        <ele>1487.78</ele>
        <time>2014-06-13T10:02:35Z</time>
      </trkpt>
      <trkpt lat="47.14161" lon="7.06588">
        <ele>1488.26</ele>
        <time>2014-06-13T10:02:37Z</time>
      </trkpt>
      <trkpt lat="47.14155" lon="7.06582">
        <ele>1489.7</ele>
        <time>2014-06-13T10:02:47Z</time>
      </trkpt>
      <trkpt lat="47.14153" lon="7.06581">
        <ele>1489.22</ele>
        <time>2014-06-13T10:02:50Z</time>
      </trkpt>
      <trkpt lat="47.14148" lon="7.06581">
        <ele>1489.7</ele>
        <time>2014-06-13T10:02:58Z</time>
      </trkpt>
      <trkpt lat="47.14147" lon="7.0658">
        <ele>1490.18</ele>
        <time>2014-06-13T10:03:00Z</time>
      </trkpt>
      <trkpt lat="47.14139" lon="7.06569">
        <ele>1491.14</ele>
        <time>2014-06-13T10:03:13Z</time>
      </trkpt>
      <trkpt lat="47.14133" lon="7.06562">
        <ele>1492.58</ele>
        <time>2014-06-13T10:03:23Z</time>
      </trkpt>
      <trkpt lat="47.14131" lon="7.06559">
        <ele>1493.55</ele>
        <time>2014-06-13T10:03:27Z</time>
      </trkpt>
      <trkpt lat="47.14123" lon="7.06555">
        <ele>1495.47</ele>
        <time>2014-06-13T10:03:39Z</time>
      </trkpt>
      <trkpt lat="47.14116" lon="7.06553">
        <ele>1497.87</ele>
        <time>2014-06-13T10:03:51Z</time>
      </trkpt>
      <trkpt lat="47.14112" lon="7.06549">
        <ele>1499.79</ele>
        <time>2014-06-13T10:04:01Z</time>
      </trkpt>
      <trkpt lat="47.14107" lon="7.06551">
        <ele>1501.72</ele>
        <time>2014-06-13T10:04:12Z</time>
      </trkpt>
      <trkpt lat="47.14104" lon="7.0655">
        <ele>1503.16</ele>
        <time>2014-06-13T10:04:20Z</time>
      </trkpt>
      <trkpt lat="47.14101" lon="7.06548">
        <ele>1503.16</ele>
        <time>2014-06-13T10:04:26Z</time>
      </trkpt>
      <trkpt lat="47.14092" lon="7.06548">
        <ele>1506.04</ele>
        <time>2014-06-13T10:04:38Z</time>
      </trkpt>
      <trkpt lat="47.14087" lon="7.06549">
        <ele>1507.48</ele>
        <time>2014-06-13T10:04:44Z</time>
      </trkpt>
      <trkpt lat="47.14085" lon="7.06548">
        <ele>1508.45</ele>
        <time>2014-06-13T10:04:48Z</time>
      </trkpt>
      <trkpt lat="47.14076" lon="7.06552">
        <ele>1512.29</ele>
        <time>2014-06-13T10:05:00Z</time>
      </trkpt>
      <trkpt lat="47.14073" lon="7.06551">
        <ele>1513.25</ele>
        <time>2014-06-13T10:05:03Z</time>
      </trkpt>
      <trkpt lat="47.14065" lon="7.06547">
        <ele>1514.69</ele>
        <time>2014-06-13T10:05:15Z</time>
      </trkpt>
      <trkpt lat="47.14057" lon="7.06543">
        <ele>1515.18</ele>
        <time>2014-06-13T10:05:25Z</time>
      </trkpt>
      <trkpt lat="47.1405" lon="7.06537">
        <ele>1515.66</ele>
        <time>2014-06-13T10:05:35Z</time>
      </trkpt>
      <trkpt lat="47.14043" lon="7.06529">
        <ele>1518.06</ele>
        <time>2014-06-13T10:05:45Z</time>
      </trkpt>
      <trkpt lat="47.14035" lon="7.0652">
        <ele>1519.02</ele>
        <time>2014-06-13T10:05:57Z</time>
      </trkpt>
      <trkpt lat="47.14028" lon="7.0651">
        <ele>1518.06</ele>
        <time>2014-06-13T10:06:07Z</time>
      </trkpt>
      <trkpt lat="47.14021" lon="7.06499">
        <ele>1519.02</ele>
        <time>2014-06-13T10:06:18Z</time>
      </trkpt>
      <trkpt lat="47.14014" lon="7.06488">
        <ele>1520.46</ele>
        <time>2014-06-13T10:06:30Z</time>
      </trkpt>
      <trkpt lat="47.14009" lon="7.06475">
        <ele>1522.87</ele>
        <time>2014-06-13T10:06:41Z</time>
      </trkpt>
      <trkpt lat="47.14002" lon="7.06465">
        <ele>1524.31</ele>
        <time>2014-06-13T10:06:51Z</time>
      </trkpt>
      <trkpt lat="47.14002" lon="7.06464">
        <ele>1524.31</ele>
        <time>2014-06-13T10:06:52Z</time>
      </trkpt>
      <trkpt lat="47.14001" lon="7.06462">
        <ele>1524.79</ele>
        <time>2014-06-13T10:06:54Z</time>
      </trkpt>
      <trkpt lat="47.13992" lon="7.06454">
        <ele>1526.23</ele>
        <time>2014-06-13T10:07:06Z</time>
      </trkpt>
      <trkpt lat="47.13984" lon="7.06446">
        <ele>1528.15</ele>
        <time>2014-06-13T10:07:17Z</time>
      </trkpt>
      <trkpt lat="47.13976" lon="7.06437">
        <ele>1529.59</ele>
        <time>2014-06-13T10:07:27Z</time>
      </trkpt>
      <trkpt lat="47.13968" lon="7.06428">
        <ele>1531.52</ele>
        <time>2014-06-13T10:07:38Z</time>
      </trkpt>
      <trkpt lat="47.13961" lon="7.0642">
        <ele>1532</ele>
        <time>2014-06-13T10:07:48Z</time>
      </trkpt>
      <trkpt lat="47.13954" lon="7.06411">
        <ele>1532.96</ele>
        <time>2014-06-13T10:07:58Z</time>
      </trkpt>
      <trkpt lat="47.13954" lon="7.06411">
        <ele>1532.96</ele>
        <time>2014-06-13T10:07:59Z</time>
      </trkpt>
      <trkpt lat="47.13942" lon="7.06398">
        <ele>1534.88</ele>
        <time>2014-06-13T10:08:14Z</time>
      </trkpt>
      <trkpt lat="47.13941" lon="7.06397">
        <ele>1534.88</ele>
        <time>2014-06-13T10:08:16Z</time>
      </trkpt>
      <trkpt lat="47.1393" lon="7.06384">
        <ele>1536.32</ele>
        <time>2014-06-13T10:08:31Z</time>
      </trkpt>
      <trkpt lat="47.13922" lon="7.06376">
        <ele>1536.8</ele>
        <time>2014-06-13T10:08:41Z</time>
      </trkpt>
      <trkpt lat="47.13914" lon="7.06368">
        <ele>1537.29</ele>
        <time>2014-06-13T10:08:53Z</time>
      </trkpt>
      <trkpt lat="47.13905" lon="7.06361">
        <ele>1538.25</ele>
        <time>2014-06-13T10:09:04Z</time>
      </trkpt>
      <trkpt lat="47.13897" lon="7.06354">
        <ele>1538.73</ele>
        <time>2014-06-13T10:09:14Z</time>
      </trkpt>
      <trkpt lat="47.13888" lon="7.06346">
        <ele>1540.17</ele>
        <time>2014-06-13T10:09:24Z</time>
      </trkpt>
      <trkpt lat="47.1388" lon="7.06339">
        <ele>1541.13</ele>
        <time>2014-06-13T10:09:34Z</time>
      </trkpt>
      <trkpt lat="47.1387" lon="7.0633">
        <ele>1541.13</ele>
        <time>2014-06-13T10:09:45Z</time>
      </trkpt>
      <trkpt lat="47.1386" lon="7.06322">
        <ele>1542.57</ele>
        <time>2014-06-13T10:09:57Z</time>
      </trkpt>
      <trkpt lat="47.1385" lon="7.06315">
        <ele>1546.42</ele>
        <time>2014-06-13T10:10:09Z</time>
      </trkpt>
      <trkpt lat="47.1384" lon="7.06306">
        <ele>1549.3</ele>
        <time>2014-06-13T10:10:20Z</time>
      </trkpt>
      <trkpt lat="47.1383" lon="7.06295">
        <ele>1550.74</ele>
        <time>2014-06-13T10:10:32Z</time>
      </trkpt>
      <trkpt lat="47.13821" lon="7.0628">
        <ele>1552.19</ele>
        <time>2014-06-13T10:10:45Z</time>
      </trkpt>
      <trkpt lat="47.13813" lon="7.06268">
        <ele>1552.19</ele>
        <time>2014-06-13T10:10:55Z</time>
      </trkpt>
      <trkpt lat="47.1381" lon="7.06263">
        <ele>1551.71</ele>
        <time>2014-06-13T10:10:58Z</time>
      </trkpt>
      <trkpt lat="47.13806" lon="7.06258">
        <ele>1551.71</ele>
        <time>2014-06-13T10:11:03Z</time>
      </trkpt>
      <trkpt lat="47.13797" lon="7.06246">
        <ele>1553.15</ele>
        <time>2014-06-13T10:11:15Z</time>
      </trkpt>
      <trkpt lat="47.1379" lon="7.06232">
        <ele>1554.11</ele>
        <time>2014-06-13T10:11:26Z</time>
      </trkpt>
      <trkpt lat="47.13782" lon="7.06218">
        <ele>1554.59</ele>
        <time>2014-06-13T10:11:37Z</time>
      </trkpt>
      <trkpt lat="47.13775" lon="7.06205">
        <ele>1555.07</ele>
        <time>2014-06-13T10:11:47Z</time>
      </trkpt>
      <trkpt lat="47.13766" lon="7.0619">
        <ele>1555.07</ele>
        <time>2014-06-13T10:11:59Z</time>
      </trkpt>
      <trkpt lat="47.13759" lon="7.06176">
        <ele>1555.07</ele>
        <time>2014-06-13T10:12:10Z</time>
      </trkpt>
      <trkpt lat="47.13748" lon="7.06165">
        <ele>1556.03</ele>
        <time>2014-06-13T10:12:22Z</time>
      </trkpt>
      <trkpt lat="47.13745" lon="7.06164">
        <ele>1556.99</ele>
        <time>2014-06-13T10:12:25Z</time>
      </trkpt>
      <trkpt lat="47.13737" lon="7.06159">
        <ele>1557.95</ele>
        <time>2014-06-13T10:12:34Z</time>
      </trkpt>
      <trkpt lat="47.13723" lon="7.06159">
        <ele>1558.43</ele>
        <time>2014-06-13T10:12:47Z</time>
      </trkpt>
      <trkpt lat="47.13714" lon="7.06152">
        <ele>1557.95</ele>
        <time>2014-06-13T10:12:55Z</time>
      </trkpt>
      <trkpt lat="47.13711" lon="7.0615">
        <ele>1558.43</ele>
        <time>2014-06-13T10:12:59Z</time>
      </trkpt>
      <trkpt lat="47.13702" lon="7.06139">
        <ele>1557.95</ele>
        <time>2014-06-13T10:13:08Z</time>
      </trkpt>
      <trkpt lat="47.13689" lon="7.06121">
        <ele>1556.03</ele>
        <time>2014-06-13T10:13:23Z</time>
      </trkpt>
      <trkpt lat="47.13677" lon="7.06102">
        <ele>1553.63</ele>
        <time>2014-06-13T10:13:37Z</time>
      </trkpt>
      <trkpt lat="47.13665" lon="7.06086">
        <ele>1553.63</ele>
        <time>2014-06-13T10:13:52Z</time>
      </trkpt>
      <trkpt lat="47.13648" lon="7.06079">
        <ele>1550.74</ele>
        <time>2014-06-13T10:14:06Z</time>
      </trkpt>
      <trkpt lat="47.13631" lon="7.06081">
        <ele>1548.34</ele>
        <time>2014-06-13T10:14:19Z</time>
      </trkpt>
      <trkpt lat="47.13616" lon="7.06088">
        <ele>1545.94</ele>
        <time>2014-06-13T10:14:32Z</time>
      </trkpt>
      <trkpt lat="47.13596" lon="7.06099">
        <ele>1545.46</ele>
        <time>2014-06-13T10:14:47Z</time>
      </trkpt>
      <trkpt lat="47.13571" lon="7.06112">
        <ele>1542.57</ele>
        <time>2014-06-13T10:15:07Z</time>
      </trkpt>
      <trkpt lat="47.13556" lon="7.06114">
        <ele>1541.13</ele>
        <time>2014-06-13T10:15:20Z</time>
      </trkpt>
      <trkpt lat="47.13545" lon="7.061">
        <ele>1540.17</ele>
        <time>2014-06-13T10:15:34Z</time>
      </trkpt>
      <trkpt lat="47.13537" lon="7.06102">
        <ele>1539.21</ele>
        <time>2014-06-13T10:15:41Z</time>
      </trkpt>
      <trkpt lat="47.13524" lon="7.06103">
        <ele>1538.25</ele>
        <time>2014-06-13T10:15:55Z</time>
      </trkpt>
      <trkpt lat="47.13513" lon="7.06105">
        <ele>1538.25</ele>
        <time>2014-06-13T10:16:05Z</time>
      </trkpt>
      <trkpt lat="47.13502" lon="7.06108">
        <ele>1538.25</ele>
        <time>2014-06-13T10:16:17Z</time>
      </trkpt>
      <trkpt lat="47.13491" lon="7.06111">
        <ele>1538.73</ele>
        <time>2014-06-13T10:16:28Z</time>
      </trkpt>
      <trkpt lat="47.13487" lon="7.0611">
        <ele>1539.21</ele>
        <time>2014-06-13T10:16:32Z</time>
      </trkpt>
      <trkpt lat="47.13478" lon="7.06115">
        <ele>1540.17</ele>
        <time>2014-06-13T10:16:43Z</time>
      </trkpt>
      <trkpt lat="47.13475" lon="7.06117">
        <ele>1540.65</ele>
        <time>2014-06-13T10:16:46Z</time>
      </trkpt>
      <trkpt lat="47.13466" lon="7.06118">
        <ele>1543.53</ele>
        <time>2014-06-13T10:16:57Z</time>
      </trkpt>
      <trkpt lat="47.1346" lon="7.06119">
        <ele>1546.9</ele>
        <time>2014-06-13T10:17:07Z</time>
      </trkpt>
      <trkpt lat="47.13455" lon="7.06117">
        <ele>1548.82</ele>
        <time>2014-06-13T10:17:17Z</time>
      </trkpt>
      <trkpt lat="47.13452" lon="7.06116">
        <ele>1550.26</ele>
        <time>2014-06-13T10:17:28Z</time>
      </trkpt>
      <trkpt lat="47.13447" lon="7.06121">
        <ele>1553.15</ele>
        <time>2014-06-13T10:17:38Z</time>
      </trkpt>
      <trkpt lat="47.13446" lon="7.0612">
        <ele>1553.63</ele>
        <time>2014-06-13T10:17:40Z</time>
      </trkpt>
      <trkpt lat="47.13444" lon="7.06118">
        <ele>1554.59</ele>
        <time>2014-06-13T10:17:45Z</time>
      </trkpt>
      <trkpt lat="47.13442" lon="7.06118">
        <ele>1555.07</ele>
        <time>2014-06-13T10:17:48Z</time>
      </trkpt>
      <trkpt lat="47.13435" lon="7.06113">
        <ele>1557.95</ele>
        <time>2014-06-13T10:18:00Z</time>
      </trkpt>
      <trkpt lat="47.13431" lon="7.06119">
        <ele>1559.4</ele>
        <time>2014-06-13T10:18:14Z</time>
      </trkpt>
      <trkpt lat="47.13426" lon="7.06117">
        <ele>1560.84</ele>
        <time>2014-06-13T10:18:25Z</time>
      </trkpt>
      <trkpt lat="47.13422" lon="7.06113">
        <ele>1562.28</ele>
        <time>2014-06-13T10:18:34Z</time>
      </trkpt>
      <trkpt lat="47.13419" lon="7.06115">
        <ele>1563.24</ele>
        <time>2014-06-13T10:18:44Z</time>
      </trkpt>
      <trkpt lat="47.13414" lon="7.06116">
        <ele>1565.16</ele>
        <time>2014-06-13T10:18:57Z</time>
      </trkpt>
      <trkpt lat="47.13409" lon="7.06113">
        <ele>1566.61</ele>
        <time>2014-06-13T10:19:08Z</time>
      </trkpt>
      <trkpt lat="47.13404" lon="7.06111">
        <ele>1569.49</ele>
        <time>2014-06-13T10:19:20Z</time>
      </trkpt>
      <trkpt lat="47.13401" lon="7.0611">
        <ele>1570.45</ele>
        <time>2014-06-13T10:19:34Z</time>
      </trkpt>
      <trkpt lat="47.134" lon="7.06118">
        <ele>1570.45</ele>
        <time>2014-06-13T10:19:48Z</time>
      </trkpt>
      <trkpt lat="47.13395" lon="7.06115">
        <ele>1573.33</ele>
        <time>2014-06-13T10:20:01Z</time>
      </trkpt>
      <trkpt lat="47.13391" lon="7.06113">
        <ele>1576.22</ele>
        <time>2014-06-13T10:20:11Z</time>
      </trkpt>
      <trkpt lat="47.13387" lon="7.06114">
        <ele>1576.22</ele>
        <time>2014-06-13T10:20:20Z</time>
      </trkpt>
      <trkpt lat="47.13383" lon="7.0612">
        <ele>1579.1</ele>
        <time>2014-06-13T10:20:32Z</time>
      </trkpt>
      <trkpt lat="47.13377" lon="7.06123">
        <ele>1584.87</ele>
        <time>2014-06-13T10:20:48Z</time>
      </trkpt>
      <trkpt lat="47.13375" lon="7.06128">
        <ele>1585.83</ele>
        <time>2014-06-13T10:20:57Z</time>
      </trkpt>
      <trkpt lat="47.13373" lon="7.06131">
        <ele>1589.68</ele>
        <time>2014-06-13T10:21:10Z</time>
      </trkpt>
      <trkpt lat="47.1337" lon="7.06132">
        <ele>1592.08</ele>
        <time>2014-06-13T10:21:22Z</time>
      </trkpt>
      <trkpt lat="47.13366" lon="7.06132">
        <ele>1593.04</ele>
        <time>2014-06-13T10:21:37Z</time>
      </trkpt>
      <trkpt lat="47.13363" lon="7.06137">
        <ele>1595.93</ele>
        <time>2014-06-13T10:21:48Z</time>
      </trkpt>
      <trkpt lat="47.13362" lon="7.06141">
        <ele>1597.85</ele>
        <time>2014-06-13T10:21:54Z</time>
      </trkpt>
      <trkpt lat="47.13364" lon="7.06158">
        <ele>1598.81</ele>
        <time>2014-06-13T10:22:06Z</time>
      </trkpt>
      <trkpt lat="47.13364" lon="7.06177">
        <ele>1596.89</ele>
        <time>2014-06-13T10:22:20Z</time>
      </trkpt>
      <trkpt lat="47.13359" lon="7.06194">
        <ele>1596.41</ele>
        <time>2014-06-13T10:22:34Z</time>
      </trkpt>
      <trkpt lat="47.13353" lon="7.06196">
        <ele>1598.33</ele>
        <time>2014-06-13T10:22:46Z</time>
      </trkpt>
      <trkpt lat="47.1335" lon="7.06197">
        <ele>1598.33</ele>
        <time>2014-06-13T10:22:58Z</time>
      </trkpt>
      <trkpt lat="47.13352" lon="7.06205">
        <ele>1598.33</ele>
        <time>2014-06-13T10:23:08Z</time>
      </trkpt>
      <trkpt lat="47.1335" lon="7.06221">
        <ele>1599.77</ele>
        <time>2014-06-13T10:23:23Z</time>
      </trkpt>
      <trkpt lat="47.13349" lon="7.06223">
        <ele>1599.77</ele>
        <time>2014-06-13T10:23:37Z</time>
      </trkpt>
      <trkpt lat="47.13349" lon="7.06224">
        <ele>1600.25</ele>
        <time>2014-06-13T10:24:00Z</time>
      </trkpt>
      <trkpt lat="47.13347" lon="7.06223">
        <ele>1598.81</ele>
        <time>2014-06-13T10:24:16Z</time>
      </trkpt>
      <trkpt lat="47.13346" lon="7.06223">
        <ele>1596.89</ele>
        <time>2014-06-13T10:24:36Z</time>
      </trkpt>
      <trkpt lat="47.13347" lon="7.06222">
        <ele>1595.93</ele>
        <time>2014-06-13T10:25:19Z</time>
      </trkpt>
      <trkpt lat="47.13346" lon="7.06222">
        <ele>1594.48</ele>
        <time>2014-06-13T10:25:46Z</time>
      </trkpt>
      <trkpt lat="47.13346" lon="7.06223">
        <ele>1594</ele>
        <time>2014-06-13T10:26:20Z</time>
      </trkpt>
      <trkpt lat="47.13346" lon="7.06222">
        <ele>1594.48</ele>
        <time>2014-06-13T10:26:50Z</time>
      </trkpt>
      <trkpt lat="47.13346" lon="7.06221">
        <ele>1594.96</ele>
        <time>2014-06-13T10:27:18Z</time>
      </trkpt>
      <trkpt lat="47.13346" lon="7.06221">
        <ele>1595.45</ele>
        <time>2014-06-13T10:27:59Z</time>
      </trkpt>
      <trkpt lat="47.13347" lon="7.06222">
        <ele>1595.93</ele>
        <time>2014-06-13T10:28:28Z</time>
      </trkpt>
      <trkpt lat="47.13345" lon="7.06223">
        <ele>1595.45</ele>
        <time>2014-06-13T10:28:57Z</time>
      </trkpt>
      <trkpt lat="47.13347" lon="7.06224">
        <ele>1594.96</ele>
        <time>2014-06-13T10:29:31Z</time>
      </trkpt>
      <trkpt lat="47.13348" lon="7.06222">
        <ele>1592.08</ele>
        <time>2014-06-13T10:30:10Z</time>
      </trkpt>
      <trkpt lat="47.13346" lon="7.06223">
        <ele>1590.64</ele>
        <time>2014-06-13T10:30:51Z</time>
      </trkpt>
      <trkpt lat="47.13345" lon="7.06224">
        <ele>1590.64</ele>
        <time>2014-06-13T10:31:34Z</time>
      </trkpt>
      <trkpt lat="47.13345" lon="7.06222">
        <ele>1588.72</ele>
        <time>2014-06-13T10:32:17Z</time>
      </trkpt>
      <trkpt lat="47.13345" lon="7.06223">
        <ele>1591.12</ele>
        <time>2014-06-13T10:33:01Z</time>
      </trkpt>
      <trkpt lat="47.13345" lon="7.06223">
        <ele>1594.48</ele>
        <time>2014-06-13T10:33:43Z</time>
      </trkpt>
      <trkpt lat="47.13345" lon="7.06222">
        <ele>1594</ele>
        <time>2014-06-13T10:34:31Z</time>
      </trkpt>
      <trkpt lat="47.13345" lon="7.06222">
        <ele>1593.04</ele>
        <time>2014-06-13T10:35:18Z</time>
      </trkpt>
      <trkpt lat="47.13345" lon="7.06223">
        <ele>1594.48</ele>
        <time>2014-06-13T10:36:04Z</time>
      </trkpt>
      <trkpt lat="47.13345" lon="7.06224">
        <ele>1595.93</ele>
        <time>2014-06-13T10:36:44Z</time>
      </trkpt>
      <trkpt lat="47.13346" lon="7.06222">
        <ele>1594.96</ele>
        <time>2014-06-13T10:37:26Z</time>
      </trkpt>
      <trkpt lat="47.13346" lon="7.06223">
        <ele>1594.96</ele>
        <time>2014-06-13T10:38:08Z</time>
      </trkpt>
      <trkpt lat="47.13345" lon="7.06224">
        <ele>1595.45</ele>
        <time>2014-06-13T10:38:44Z</time>
      </trkpt>
      <trkpt lat="47.13346" lon="7.06224">
        <ele>1595.45</ele>
        <time>2014-06-13T10:39:20Z</time>
      </trkpt>
      <trkpt lat="47.13345" lon="7.06225">
        <ele>1595.93</ele>
        <time>2014-06-13T10:40:00Z</time>
      </trkpt>
      <trkpt lat="47.13346" lon="7.06225">
        <ele>1597.37</ele>
        <time>2014-06-13T10:40:41Z</time>
      </trkpt>
      <trkpt lat="47.13346" lon="7.06224">
        <ele>1597.37</ele>
        <time>2014-06-13T10:41:17Z</time>
      </trkpt>
      <trkpt lat="47.13347" lon="7.06224">
        <ele>1597.37</ele>
        <time>2014-06-13T10:41:54Z</time>
      </trkpt>
      <trkpt lat="47.13347" lon="7.06226">
        <ele>1598.33</ele>
        <time>2014-06-13T10:42:27Z</time>
      </trkpt>
      <trkpt lat="47.13346" lon="7.06225">
        <ele>1596.41</ele>
        <time>2014-06-13T10:42:58Z</time>
      </trkpt>
      <trkpt lat="47.13345" lon="7.06223">
        <ele>1595.93</ele>
        <time>2014-06-13T10:43:35Z</time>
      </trkpt>
      <trkpt lat="47.13346" lon="7.06223">
        <ele>1594</ele>
        <time>2014-06-13T10:44:12Z</time>
      </trkpt>
      <trkpt lat="47.13346" lon="7.06224">
        <ele>1593.04</ele>
        <time>2014-06-13T10:44:46Z</time>
      </trkpt>
      <trkpt lat="47.13346" lon="7.06224">
        <ele>1592.56</ele>
        <time>2014-06-13T10:45:17Z</time>
      </trkpt>
      <trkpt lat="47.13345" lon="7.06225">
        <ele>1593.52</ele>
        <time>2014-06-13T10:45:53Z</time>
      </trkpt>
      <trkpt lat="47.13346" lon="7.06225">
        <ele>1594</ele>
        <time>2014-06-13T10:46:24Z</time>
      </trkpt>
      <trkpt lat="47.13346" lon="7.06225">
        <ele>1592.56</ele>
        <time>2014-06-13T10:46:59Z</time>
      </trkpt>
      <trkpt lat="47.13345" lon="7.06225">
        <ele>1593.04</ele>
        <time>2014-06-13T10:47:29Z</time>
      </trkpt>
      <trkpt lat="47.13346" lon="7.06225">
        <ele>1591.12</ele>
        <time>2014-06-13T10:48:01Z</time>
      </trkpt>
      <trkpt lat="47.13346" lon="7.06224">
        <ele>1589.68</ele>
        <time>2014-06-13T10:48:34Z</time>
      </trkpt>
      <trkpt lat="47.13345" lon="7.06225">
        <ele>1589.68</ele>
        <time>2014-06-13T10:49:08Z</time>
      </trkpt>
      <trkpt lat="47.13345" lon="7.06224">
        <ele>1589.68</ele>
        <time>2014-06-13T10:49:46Z</time>
      </trkpt>
      <trkpt lat="47.13346" lon="7.06223">
        <ele>1589.2</ele>
        <time>2014-06-13T10:50:18Z</time>
      </trkpt>
      <trkpt lat="47.13347" lon="7.06222">
        <ele>1590.16</ele>
        <time>2014-06-13T10:50:48Z</time>
      </trkpt>
      <trkpt lat="47.13347" lon="7.06224">
        <ele>1592.08</ele>
        <time>2014-06-13T10:51:28Z</time>
      </trkpt>
      <trkpt lat="47.13351" lon="7.06233">
        <ele>1596.89</ele>
        <time>2014-06-13T10:51:37Z</time>
      </trkpt>
      <trkpt lat="47.13355" lon="7.0625">
        <ele>1596.41</ele>
        <time>2014-06-13T10:51:48Z</time>
      </trkpt>
      <trkpt lat="47.13361" lon="7.06265">
        <ele>1596.41</ele>
        <time>2014-06-13T10:51:59Z</time>
      </trkpt>
      <trkpt lat="47.13363" lon="7.06271">
        <ele>1596.89</ele>
        <time>2014-06-13T10:52:04Z</time>
      </trkpt>
      <trkpt lat="47.13364" lon="7.06273">
        <ele>1597.37</ele>
        <time>2014-06-13T10:52:05Z</time>
      </trkpt>
      <trkpt lat="47.13366" lon="7.06278">
        <ele>1597.85</ele>
        <time>2014-06-13T10:52:09Z</time>
      </trkpt>
      <trkpt lat="47.13366" lon="7.06279">
        <ele>1597.85</ele>
        <time>2014-06-13T10:52:10Z</time>
      </trkpt>
      <trkpt lat="47.13367" lon="7.06283">
        <ele>1596.89</ele>
        <time>2014-06-13T10:52:13Z</time>
      </trkpt>
      <trkpt lat="47.13372" lon="7.0629">
        <ele>1595.45</ele>
        <time>2014-06-13T10:52:21Z</time>
      </trkpt>
      <trkpt lat="47.13375" lon="7.06291">
        <ele>1594.48</ele>
        <time>2014-06-13T10:52:24Z</time>
      </trkpt>
      <trkpt lat="47.13376" lon="7.06291">
        <ele>1594.48</ele>
        <time>2014-06-13T10:52:25Z</time>
      </trkpt>
      <trkpt lat="47.13377" lon="7.06292">
        <ele>1594</ele>
        <time>2014-06-13T10:52:26Z</time>
      </trkpt>
      <trkpt lat="47.13387" lon="7.06312">
        <ele>1590.64</ele>
        <time>2014-06-13T10:52:41Z</time>
      </trkpt>
      <trkpt lat="47.13388" lon="7.06327">
        <ele>1588.24</ele>
        <time>2014-06-13T10:52:51Z</time>
      </trkpt>
      <trkpt lat="47.13388" lon="7.06329">
        <ele>1588.24</ele>
        <time>2014-06-13T10:52:52Z</time>
      </trkpt>
      <trkpt lat="47.13388" lon="7.06331">
        <ele>1587.75</ele>
        <time>2014-06-13T10:52:53Z</time>
      </trkpt>
      <trkpt lat="47.13388" lon="7.06333">
        <ele>1587.75</ele>
        <time>2014-06-13T10:52:54Z</time>
      </trkpt>
      <trkpt lat="47.13389" lon="7.06335">
        <ele>1587.75</ele>
        <time>2014-06-13T10:52:55Z</time>
      </trkpt>
      <trkpt lat="47.13392" lon="7.06342">
        <ele>1586.79</ele>
        <time>2014-06-13T10:53:00Z</time>
      </trkpt>
      <trkpt lat="47.13393" lon="7.06343">
        <ele>1586.31</ele>
        <time>2014-06-13T10:53:01Z</time>
      </trkpt>
      <trkpt lat="47.13397" lon="7.06346">
        <ele>1584.39</ele>
        <time>2014-06-13T10:53:13Z</time>
      </trkpt>
      <trkpt lat="47.13398" lon="7.06346">
        <ele>1582.95</ele>
        <time>2014-06-13T10:53:27Z</time>
      </trkpt>
      <trkpt lat="47.13398" lon="7.06346">
        <ele>1581.99</ele>
        <time>2014-06-13T10:53:39Z</time>
      </trkpt>
      <trkpt lat="47.13401" lon="7.06347">
        <ele>1579.58</ele>
        <time>2014-06-13T10:53:55Z</time>
      </trkpt>
      <trkpt lat="47.134" lon="7.06348">
        <ele>1579.1</ele>
        <time>2014-06-13T10:54:14Z</time>
      </trkpt>
      <trkpt lat="47.134" lon="7.06347">
        <ele>1576.7</ele>
        <time>2014-06-13T10:54:47Z</time>
      </trkpt>
      <trkpt lat="47.13399" lon="7.06347">
        <ele>1574.78</ele>
        <time>2014-06-13T10:55:17Z</time>
      </trkpt>
      <trkpt lat="47.13401" lon="7.06347">
        <ele>1574.78</ele>
        <time>2014-06-13T10:55:47Z</time>
      </trkpt>
      <trkpt lat="47.134" lon="7.06348">
        <ele>1578.14</ele>
        <time>2014-06-13T10:56:12Z</time>
      </trkpt>
      <trkpt lat="47.1339" lon="7.06345">
        <ele>1579.58</ele>
        <time>2014-06-13T10:56:21Z</time>
      </trkpt>
      <trkpt lat="47.13387" lon="7.06342">
        <ele>1579.1</ele>
        <time>2014-06-13T10:56:25Z</time>
      </trkpt>
      <trkpt lat="47.13381" lon="7.06339">
        <ele>1578.14</ele>
        <time>2014-06-13T10:56:31Z</time>
      </trkpt>
      <trkpt lat="47.13378" lon="7.06334">
        <ele>1576.22</ele>
        <time>2014-06-13T10:56:44Z</time>
      </trkpt>
      <trkpt lat="47.13375" lon="7.06326">
        <ele>1575.26</ele>
        <time>2014-06-13T10:57:10Z</time>
      </trkpt>
      <trkpt lat="47.13367" lon="7.06312">
        <ele>1577.66</ele>
        <time>2014-06-13T10:57:23Z</time>
      </trkpt>
      <trkpt lat="47.13362" lon="7.06304">
        <ele>1579.1</ele>
        <time>2014-06-13T10:57:34Z</time>
      </trkpt>
      <trkpt lat="47.13358" lon="7.06299">
        <ele>1582.47</ele>
        <time>2014-06-13T10:57:42Z</time>
      </trkpt>
      <trkpt lat="47.13357" lon="7.06296">
        <ele>1584.39</ele>
        <time>2014-06-13T10:57:45Z</time>
      </trkpt>
      <trkpt lat="47.13351" lon="7.06284">
        <ele>1588.24</ele>
        <time>2014-06-13T10:57:57Z</time>
      </trkpt>
      <trkpt lat="47.1335" lon="7.06279">
        <ele>1589.2</ele>
        <time>2014-06-13T10:58:01Z</time>
      </trkpt>
      <trkpt lat="47.13344" lon="7.06263">
        <ele>1590.64</ele>
        <time>2014-06-13T10:58:12Z</time>
      </trkpt>
      <trkpt lat="47.13343" lon="7.0625">
        <ele>1592.08</ele>
        <time>2014-06-13T10:58:23Z</time>
      </trkpt>
      <trkpt lat="47.13342" lon="7.06246">
        <ele>1592.56</ele>
        <time>2014-06-13T10:58:26Z</time>
      </trkpt>
      <trkpt lat="47.13342" lon="7.06235">
        <ele>1594.96</ele>
        <time>2014-06-13T10:58:38Z</time>
      </trkpt>
      <trkpt lat="47.13344" lon="7.06231">
        <ele>1596.41</ele>
        <time>2014-06-13T10:58:49Z</time>
      </trkpt>
      <trkpt lat="47.13345" lon="7.06228">
        <ele>1597.37</ele>
        <time>2014-06-13T10:59:00Z</time>
      </trkpt>
      <trkpt lat="47.13346" lon="7.06229">
        <ele>1596.89</ele>
        <time>2014-06-13T10:59:28Z</time>
      </trkpt>
      <trkpt lat="47.13346" lon="7.06227">
        <ele>1597.37</ele>
        <time>2014-06-13T10:59:43Z</time>
      </trkpt>
      <trkpt lat="47.13348" lon="7.06223">
        <ele>1600.73</ele>
        <time>2014-06-13T11:00:06Z</time>
      </trkpt>
      <trkpt lat="47.13351" lon="7.06225">
        <ele>1600.73</ele>
        <time>2014-06-13T11:00:14Z</time>
      </trkpt>
      <trkpt lat="47.13354" lon="7.06228">
        <ele>1603.14</ele>
        <time>2014-06-13T11:00:25Z</time>
      </trkpt>
      <trkpt lat="47.13356" lon="7.06228">
        <ele>1603.62</ele>
        <time>2014-06-13T11:00:41Z</time>
      </trkpt>
      <trkpt lat="47.13355" lon="7.06228">
        <ele>1603.62</ele>
        <time>2014-06-13T11:01:01Z</time>
      </trkpt>
      <trkpt lat="47.13352" lon="7.06226">
        <ele>1603.14</ele>
        <time>2014-06-13T11:01:09Z</time>
      </trkpt>
      <trkpt lat="47.13348" lon="7.06227">
        <ele>1602.66</ele>
        <time>2014-06-13T11:01:22Z</time>
      </trkpt>
      <trkpt lat="47.13348" lon="7.06227">
        <ele>1601.69</ele>
        <time>2014-06-13T11:01:50Z</time>
      </trkpt>
      <trkpt lat="47.13348" lon="7.06227">
        <ele>1600.25</ele>
        <time>2014-06-13T11:02:09Z</time>
      </trkpt>
      <trkpt lat="47.1335" lon="7.06221">
        <ele>1600.25</ele>
        <time>2014-06-13T11:02:24Z</time>
      </trkpt>
      <trkpt lat="47.13352" lon="7.06211">
        <ele>1599.29</ele>
        <time>2014-06-13T11:02:35Z</time>
      </trkpt>
      <trkpt lat="47.13351" lon="7.0621">
        <ele>1599.29</ele>
        <time>2014-06-13T11:02:45Z</time>
      </trkpt>
      <trkpt lat="47.1335" lon="7.06205">
        <ele>1598.33</ele>
        <time>2014-06-13T11:02:59Z</time>
      </trkpt>
      <trkpt lat="47.13348" lon="7.06199">
        <ele>1599.77</ele>
        <time>2014-06-13T11:03:09Z</time>
      </trkpt>
      <trkpt lat="47.1335" lon="7.06192">
        <ele>1600.25</ele>
        <time>2014-06-13T11:03:15Z</time>
      </trkpt>
      <trkpt lat="47.1335" lon="7.06189">
        <ele>1600.73</ele>
        <time>2014-06-13T11:03:19Z</time>
      </trkpt>
      <trkpt lat="47.13345" lon="7.06183">
        <ele>1602.17</ele>
        <time>2014-06-13T11:03:33Z</time>
      </trkpt>
      <trkpt lat="47.13344" lon="7.06178">
        <ele>1601.69</ele>
        <time>2014-06-13T11:03:47Z</time>
      </trkpt>
      <trkpt lat="47.13344" lon="7.06176">
        <ele>1601.69</ele>
        <time>2014-06-13T11:03:49Z</time>
      </trkpt>
      <trkpt lat="47.13342" lon="7.06165">
        <ele>1602.66</ele>
        <time>2014-06-13T11:04:01Z</time>
      </trkpt>
      <trkpt lat="47.13342" lon="7.06153">
        <ele>1603.14</ele>
        <time>2014-06-13T11:04:13Z</time>
      </trkpt>
      <trkpt lat="47.13339" lon="7.06138">
        <ele>1604.1</ele>
        <time>2014-06-13T11:04:24Z</time>
      </trkpt>
      <trkpt lat="47.13336" lon="7.06124">
        <ele>1606.02</ele>
        <time>2014-06-13T11:04:35Z</time>
      </trkpt>
      <trkpt lat="47.13332" lon="7.06104">
        <ele>1606.5</ele>
        <time>2014-06-13T11:04:47Z</time>
      </trkpt>
      <trkpt lat="47.13331" lon="7.06093">
        <ele>1606.5</ele>
        <time>2014-06-13T11:04:53Z</time>
      </trkpt>
      <trkpt lat="47.13331" lon="7.06082">
        <ele>1604.1</ele>
        <time>2014-06-13T11:05:10Z</time>
      </trkpt>
      <trkpt lat="47.13329" lon="7.06077">
        <ele>1606.5</ele>
        <time>2014-06-13T11:05:46Z</time>
      </trkpt>
      <trkpt lat="47.13329" lon="7.06076">
        <ele>1606.5</ele>
        <time>2014-06-13T11:05:47Z</time>
      </trkpt>
      <trkpt lat="47.13326" lon="7.06057">
        <ele>1606.5</ele>
        <time>2014-06-13T11:06:00Z</time>
      </trkpt>
      <trkpt lat="47.13326" lon="7.06048">
        <ele>1600.73</ele>
        <time>2014-06-13T11:06:11Z</time>
      </trkpt>
      <trkpt lat="47.13325" lon="7.06047">
        <ele>1599.77</ele>
        <time>2014-06-13T11:06:14Z</time>
      </trkpt>
      <trkpt lat="47.13321" lon="7.06046">
        <ele>1594.96</ele>
        <time>2014-06-13T11:06:26Z</time>
      </trkpt>
      <trkpt lat="47.1332" lon="7.06041">
        <ele>1593.52</ele>
        <time>2014-06-13T11:06:34Z</time>
      </trkpt>
      <trkpt lat="47.13313" lon="7.06031">
        <ele>1596.41</ele>
        <time>2014-06-13T11:06:39Z</time>
      </trkpt>
      <trkpt lat="47.13309" lon="7.06018">
        <ele>1604.58</ele>
        <time>2014-06-13T11:06:46Z</time>
      </trkpt>
      <trkpt lat="47.13309" lon="7.06008">
        <ele>1606.98</ele>
        <time>2014-06-13T11:06:53Z</time>
      </trkpt>
      <trkpt lat="47.13309" lon="7.06006">
        <ele>1606.98</ele>
        <time>2014-06-13T11:06:54Z</time>
      </trkpt>
      <trkpt lat="47.13306" lon="7.05984">
        <ele>1607.94</ele>
        <time>2014-06-13T11:07:06Z</time>
      </trkpt>
      <trkpt lat="47.13299" lon="7.05965">
        <ele>1608.9</ele>
        <time>2014-06-13T11:07:17Z</time>
      </trkpt>
      <trkpt lat="47.13301" lon="7.05941">
        <ele>1611.31</ele>
        <time>2014-06-13T11:07:30Z</time>
      </trkpt>
      <trkpt lat="47.13301" lon="7.05938">
        <ele>1611.79</ele>
        <time>2014-06-13T11:07:32Z</time>
      </trkpt>
      <trkpt lat="47.133" lon="7.05937">
        <ele>1611.79</ele>
        <time>2014-06-13T11:07:33Z</time>
      </trkpt>
      <trkpt lat="47.133" lon="7.05936">
        <ele>1611.79</ele>
        <time>2014-06-13T11:07:34Z</time>
      </trkpt>
      <trkpt lat="47.133" lon="7.05935">
        <ele>1611.79</ele>
        <time>2014-06-13T11:07:50Z</time>
      </trkpt>
      <trkpt lat="47.13298" lon="7.05909">
        <ele>1609.38</ele>
        <time>2014-06-13T11:08:03Z</time>
      </trkpt>
      <trkpt lat="47.13293" lon="7.05884">
        <ele>1605.06</ele>
        <time>2014-06-13T11:08:18Z</time>
      </trkpt>
      <trkpt lat="47.13286" lon="7.05846">
        <ele>1602.17</ele>
        <time>2014-06-13T11:08:36Z</time>
      </trkpt>
      <trkpt lat="47.1328" lon="7.05809">
        <ele>1601.21</ele>
        <time>2014-06-13T11:08:55Z</time>
      </trkpt>
      <trkpt lat="47.13273" lon="7.05771">
        <ele>1599.77</ele>
        <time>2014-06-13T11:09:13Z</time>
      </trkpt>
      <trkpt lat="47.13262" lon="7.05741">
        <ele>1600.25</ele>
        <time>2014-06-13T11:09:30Z</time>
      </trkpt>
      <trkpt lat="47.13259" lon="7.05715">
        <ele>1602.17</ele>
        <time>2014-06-13T11:09:43Z</time>
      </trkpt>
      <trkpt lat="47.13258" lon="7.05708">
        <ele>1603.14</ele>
        <time>2014-06-13T11:09:48Z</time>
      </trkpt>
      <trkpt lat="47.13258" lon="7.05706">
        <ele>1603.14</ele>
        <time>2014-06-13T11:09:49Z</time>
      </trkpt>
      <trkpt lat="47.13257" lon="7.05705">
        <ele>1603.14</ele>
        <time>2014-06-13T11:09:50Z</time>
      </trkpt>
      <trkpt lat="47.13257" lon="7.05703">
        <ele>1603.62</ele>
        <time>2014-06-13T11:09:51Z</time>
      </trkpt>
      <trkpt lat="47.13253" lon="7.05677">
        <ele>1604.58</ele>
        <time>2014-06-13T11:10:06Z</time>
      </trkpt>
      <trkpt lat="47.13252" lon="7.05669">
        <ele>1605.06</ele>
        <time>2014-06-13T11:10:11Z</time>
      </trkpt>
      <trkpt lat="47.13251" lon="7.05667">
        <ele>1605.06</ele>
        <time>2014-06-13T11:10:12Z</time>
      </trkpt>
      <trkpt lat="47.13251" lon="7.05665">
        <ele>1605.06</ele>
        <time>2014-06-13T11:10:13Z</time>
      </trkpt>
      <trkpt lat="47.13244" lon="7.05637">
        <ele>1606.5</ele>
        <time>2014-06-13T11:10:28Z</time>
      </trkpt>
      <trkpt lat="47.13233" lon="7.05608">
        <ele>1604.1</ele>
        <time>2014-06-13T11:10:45Z</time>
      </trkpt>
      <trkpt lat="47.13227" lon="7.05575">
        <ele>1606.98</ele>
        <time>2014-06-13T11:11:02Z</time>
      </trkpt>
      <trkpt lat="47.13223" lon="7.05549">
        <ele>1606.5</ele>
        <time>2014-06-13T11:11:16Z</time>
      </trkpt>
      <trkpt lat="47.13218" lon="7.05528">
        <ele>1607.46</ele>
        <time>2014-06-13T11:11:29Z</time>
      </trkpt>
      <trkpt lat="47.13217" lon="7.05527">
        <ele>1607.94</ele>
        <time>2014-06-13T11:11:31Z</time>
      </trkpt>
      <trkpt lat="47.1321" lon="7.05506">
        <ele>1607.94</ele>
        <time>2014-06-13T11:11:45Z</time>
      </trkpt>
      <trkpt lat="47.1321" lon="7.05504">
        <ele>1607.94</ele>
        <time>2014-06-13T11:11:46Z</time>
      </trkpt>
      <trkpt lat="47.13212" lon="7.05497">
        <ele>1606.5</ele>
        <time>2014-06-13T11:11:51Z</time>
      </trkpt>
      <trkpt lat="47.13209" lon="7.05471">
        <ele>1602.66</ele>
        <time>2014-06-13T11:12:05Z</time>
      </trkpt>
      <trkpt lat="47.13204" lon="7.05446">
        <ele>1601.69</ele>
        <time>2014-06-13T11:12:18Z</time>
      </trkpt>
      <trkpt lat="47.13204" lon="7.05445">
        <ele>1601.69</ele>
        <time>2014-06-13T11:12:19Z</time>
      </trkpt>
      <trkpt lat="47.13195" lon="7.05422">
        <ele>1600.73</ele>
        <time>2014-06-13T11:12:34Z</time>
      </trkpt>
      <trkpt lat="47.13183" lon="7.05396">
        <ele>1597.37</ele>
        <time>2014-06-13T11:12:51Z</time>
      </trkpt>
      <trkpt lat="47.13171" lon="7.05365">
        <ele>1594.96</ele>
        <time>2014-06-13T11:13:09Z</time>
      </trkpt>
      <trkpt lat="47.13161" lon="7.05334">
        <ele>1591.6</ele>
        <time>2014-06-13T11:13:27Z</time>
      </trkpt>
      <trkpt lat="47.13151" lon="7.05304">
        <ele>1590.16</ele>
        <time>2014-06-13T11:13:44Z</time>
      </trkpt>
      <trkpt lat="47.13141" lon="7.0528">
        <ele>1589.2</ele>
        <time>2014-06-13T11:13:59Z</time>
      </trkpt>
      <trkpt lat="47.13128" lon="7.05254">
        <ele>1587.75</ele>
        <time>2014-06-13T11:14:16Z</time>
      </trkpt>
      <trkpt lat="47.13115" lon="7.05227">
        <ele>1585.35</ele>
        <time>2014-06-13T11:14:33Z</time>
      </trkpt>
      <trkpt lat="47.13105" lon="7.05197">
        <ele>1582.95</ele>
        <time>2014-06-13T11:14:51Z</time>
      </trkpt>
      <trkpt lat="47.13096" lon="7.05169">
        <ele>1580.06</ele>
        <time>2014-06-13T11:15:07Z</time>
      </trkpt>
      <trkpt lat="47.1309" lon="7.05155">
        <ele>1580.06</ele>
        <time>2014-06-13T11:15:19Z</time>
      </trkpt>
      <trkpt lat="47.13084" lon="7.05148">
        <ele>1581.03</ele>
        <time>2014-06-13T11:15:28Z</time>
      </trkpt>
      <trkpt lat="47.13078" lon="7.05135">
        <ele>1581.03</ele>
        <time>2014-06-13T11:15:38Z</time>
      </trkpt>
      <trkpt lat="47.13074" lon="7.0512">
        <ele>1581.99</ele>
        <time>2014-06-13T11:15:49Z</time>
      </trkpt>
      <trkpt lat="47.13067" lon="7.05106">
        <ele>1582.95</ele>
        <time>2014-06-13T11:16:00Z</time>
      </trkpt>
      <trkpt lat="47.13065" lon="7.05101">
        <ele>1583.43</ele>
        <time>2014-06-13T11:16:04Z</time>
      </trkpt>
      <trkpt lat="47.13055" lon="7.05087">
        <ele>1582.95</ele>
        <time>2014-06-13T11:16:18Z</time>
      </trkpt>
      <trkpt lat="47.13052" lon="7.05082">
        <ele>1582.95</ele>
        <time>2014-06-13T11:16:23Z</time>
      </trkpt>
      <trkpt lat="47.1304" lon="7.05063">
        <ele>1583.43</ele>
        <time>2014-06-13T11:16:38Z</time>
      </trkpt>
      <trkpt lat="47.13033" lon="7.05046">
        <ele>1583.43</ele>
        <time>2014-06-13T11:16:50Z</time>
      </trkpt>
      <trkpt lat="47.13022" lon="7.0503">
        <ele>1581.99</ele>
        <time>2014-06-13T11:17:02Z</time>
      </trkpt>
      <trkpt lat="47.13015" lon="7.05025">
        <ele>1580.54</ele>
        <time>2014-06-13T11:17:09Z</time>
      </trkpt>
      <trkpt lat="47.13009" lon="7.0501">
        <ele>1579.58</ele>
        <time>2014-06-13T11:17:21Z</time>
      </trkpt>
      <trkpt lat="47.13008" lon="7.05009">
        <ele>1579.58</ele>
        <time>2014-06-13T11:17:23Z</time>
      </trkpt>
      <trkpt lat="47.13005" lon="7.05003">
        <ele>1579.58</ele>
        <time>2014-06-13T11:17:27Z</time>
      </trkpt>
      <trkpt lat="47.12996" lon="7.0498">
        <ele>1579.58</ele>
        <time>2014-06-13T11:17:42Z</time>
      </trkpt>
      <trkpt lat="47.12994" lon="7.04975">
        <ele>1579.58</ele>
        <time>2014-06-13T11:17:46Z</time>
      </trkpt>
      <trkpt lat="47.12994" lon="7.04962">
        <ele>1579.58</ele>
        <time>2014-06-13T11:17:56Z</time>
      </trkpt>
      <trkpt lat="47.12986" lon="7.04947">
        <ele>1579.1</ele>
        <time>2014-06-13T11:18:09Z</time>
      </trkpt>
      <trkpt lat="47.12986" lon="7.04948">
        <ele>1578.14</ele>
        <time>2014-06-13T11:18:27Z</time>
      </trkpt>
      <trkpt lat="47.12985" lon="7.04948">
        <ele>1575.26</ele>
        <time>2014-06-13T11:19:06Z</time>
      </trkpt>
      <trkpt lat="47.12984" lon="7.04948">
        <ele>1574.78</ele>
        <time>2014-06-13T11:19:32Z</time>
      </trkpt>
      <trkpt lat="47.12981" lon="7.04949">
        <ele>1574.78</ele>
        <time>2014-06-13T11:19:36Z</time>
      </trkpt>
      <trkpt lat="47.1297" lon="7.04935">
        <ele>1573.82</ele>
        <time>2014-06-13T11:19:49Z</time>
      </trkpt>
      <trkpt lat="47.12959" lon="7.04917">
        <ele>1574.3</ele>
        <time>2014-06-13T11:20:02Z</time>
      </trkpt>
      <trkpt lat="47.12947" lon="7.04894">
        <ele>1573.33</ele>
        <time>2014-06-13T11:20:17Z</time>
      </trkpt>
      <trkpt lat="47.12934" lon="7.04874">
        <ele>1573.33</ele>
        <time>2014-06-13T11:20:31Z</time>
      </trkpt>
      <trkpt lat="47.12924" lon="7.04856">
        <ele>1572.37</ele>
        <time>2014-06-13T11:20:43Z</time>
      </trkpt>
      <trkpt lat="47.12915" lon="7.04838">
        <ele>1572.37</ele>
        <time>2014-06-13T11:20:56Z</time>
      </trkpt>
      <trkpt lat="47.12908" lon="7.04827">
        <ele>1571.89</ele>
        <time>2014-06-13T11:21:04Z</time>
      </trkpt>
      <trkpt lat="47.12906" lon="7.0482">
        <ele>1571.41</ele>
        <time>2014-06-13T11:21:10Z</time>
      </trkpt>
      <trkpt lat="47.12894" lon="7.048">
        <ele>1569.97</ele>
        <time>2014-06-13T11:21:26Z</time>
      </trkpt>
      <trkpt lat="47.12893" lon="7.04799">
        <ele>1569.01</ele>
        <time>2014-06-13T11:21:28Z</time>
      </trkpt>
      <trkpt lat="47.12891" lon="7.04793">
        <ele>1568.05</ele>
        <time>2014-06-13T11:21:36Z</time>
      </trkpt>
      <trkpt lat="47.12887" lon="7.04792">
        <ele>1567.09</ele>
        <time>2014-06-13T11:21:40Z</time>
      </trkpt>
      <trkpt lat="47.12884" lon="7.04789">
        <ele>1566.12</ele>
        <time>2014-06-13T11:21:44Z</time>
      </trkpt>
      <trkpt lat="47.12873" lon="7.0477">
        <ele>1562.76</ele>
        <time>2014-06-13T11:21:58Z</time>
      </trkpt>
      <trkpt lat="47.12863" lon="7.04748">
        <ele>1562.76</ele>
        <time>2014-06-13T11:22:11Z</time>
      </trkpt>
      <trkpt lat="47.12852" lon="7.04727">
        <ele>1560.84</ele>
        <time>2014-06-13T11:22:26Z</time>
      </trkpt>
      <trkpt lat="47.12842" lon="7.04706">
        <ele>1559.88</ele>
        <time>2014-06-13T11:22:39Z</time>
      </trkpt>
      <trkpt lat="47.1283" lon="7.04689">
        <ele>1558.92</ele>
        <time>2014-06-13T11:22:53Z</time>
      </trkpt>
      <trkpt lat="47.12822" lon="7.04677">
        <ele>1557.95</ele>
        <time>2014-06-13T11:23:02Z</time>
      </trkpt>
      <trkpt lat="47.12813" lon="7.0467">
        <ele>1556.51</ele>
        <time>2014-06-13T11:23:11Z</time>
      </trkpt>
      <trkpt lat="47.12807" lon="7.0466">
        <ele>1556.03</ele>
        <time>2014-06-13T11:23:18Z</time>
      </trkpt>
      <trkpt lat="47.12793" lon="7.04647">
        <ele>1554.59</ele>
        <time>2014-06-13T11:23:31Z</time>
      </trkpt>
      <trkpt lat="47.1278" lon="7.04624">
        <ele>1554.59</ele>
        <time>2014-06-13T11:23:46Z</time>
      </trkpt>
      <trkpt lat="47.12772" lon="7.046">
        <ele>1554.11</ele>
        <time>2014-06-13T11:24:01Z</time>
      </trkpt>
      <trkpt lat="47.12757" lon="7.04578">
        <ele>1555.55</ele>
        <time>2014-06-13T11:24:17Z</time>
      </trkpt>
      <trkpt lat="47.12742" lon="7.04561">
        <ele>1554.11</ele>
        <time>2014-06-13T11:24:33Z</time>
      </trkpt>
      <trkpt lat="47.12726" lon="7.04548">
        <ele>1554.11</ele>
        <time>2014-06-13T11:24:47Z</time>
      </trkpt>
      <trkpt lat="47.12717" lon="7.04525">
        <ele>1553.63</ele>
        <time>2014-06-13T11:25:01Z</time>
      </trkpt>
      <trkpt lat="47.1271" lon="7.04496">
        <ele>1551.22</ele>
        <time>2014-06-13T11:25:17Z</time>
      </trkpt>
      <trkpt lat="47.12708" lon="7.04493">
        <ele>1550.26</ele>
        <time>2014-06-13T11:25:19Z</time>
      </trkpt>
      <trkpt lat="47.12701" lon="7.04472">
        <ele>1548.34</ele>
        <time>2014-06-13T11:25:32Z</time>
      </trkpt>
      <trkpt lat="47.12695" lon="7.04453">
        <ele>1547.86</ele>
        <time>2014-06-13T11:25:45Z</time>
      </trkpt>
      <trkpt lat="47.12687" lon="7.04434">
        <ele>1548.82</ele>
        <time>2014-06-13T11:25:58Z</time>
      </trkpt>
      <trkpt lat="47.12681" lon="7.04419">
        <ele>1551.22</ele>
        <time>2014-06-13T11:26:09Z</time>
      </trkpt>
      <trkpt lat="47.12671" lon="7.04411">
        <ele>1554.11</ele>
        <time>2014-06-13T11:26:20Z</time>
      </trkpt>
      <trkpt lat="47.1267" lon="7.04409">
        <ele>1554.11</ele>
        <time>2014-06-13T11:26:22Z</time>
      </trkpt>
      <trkpt lat="47.12668" lon="7.04404">
        <ele>1555.07</ele>
        <time>2014-06-13T11:26:26Z</time>
      </trkpt>
      <trkpt lat="47.12664" lon="7.044">
        <ele>1555.55</ele>
        <time>2014-06-13T11:26:34Z</time>
      </trkpt>
      <trkpt lat="47.12657" lon="7.04394">
        <ele>1556.03</ele>
        <time>2014-06-13T11:26:45Z</time>
      </trkpt>
      <trkpt lat="47.1265" lon="7.0438">
        <ele>1557.47</ele>
        <time>2014-06-13T11:26:57Z</time>
      </trkpt>
      <trkpt lat="47.12646" lon="7.04374">
        <ele>1558.43</ele>
        <time>2014-06-13T11:27:03Z</time>
      </trkpt>
      <trkpt lat="47.12641" lon="7.04362">
        <ele>1560.36</ele>
        <time>2014-06-13T11:27:14Z</time>
      </trkpt>
      <trkpt lat="47.12635" lon="7.0435">
        <ele>1560.84</ele>
        <time>2014-06-13T11:27:23Z</time>
      </trkpt>
      <trkpt lat="47.1263" lon="7.04341">
        <ele>1560.84</ele>
        <time>2014-06-13T11:27:30Z</time>
      </trkpt>
      <trkpt lat="47.12627" lon="7.04336">
        <ele>1560.36</ele>
        <time>2014-06-13T11:27:34Z</time>
      </trkpt>
      <trkpt lat="47.12616" lon="7.04318">
        <ele>1559.4</ele>
        <time>2014-06-13T11:27:48Z</time>
      </trkpt>
      <trkpt lat="47.12605" lon="7.04298">
        <ele>1558.92</ele>
        <time>2014-06-13T11:28:02Z</time>
      </trkpt>
      <trkpt lat="47.12598" lon="7.04283">
        <ele>1558.92</ele>
        <time>2014-06-13T11:28:14Z</time>
      </trkpt>
      <trkpt lat="47.12594" lon="7.04271">
        <ele>1558.43</ele>
        <time>2014-06-13T11:28:21Z</time>
      </trkpt>
      <trkpt lat="47.12588" lon="7.04253">
        <ele>1557.95</ele>
        <time>2014-06-13T11:28:33Z</time>
      </trkpt>
      <trkpt lat="47.12588" lon="7.04252">
        <ele>1557.95</ele>
        <time>2014-06-13T11:28:34Z</time>
      </trkpt>
      <trkpt lat="47.12577" lon="7.04233">
        <ele>1556.03</ele>
        <time>2014-06-13T11:28:47Z</time>
      </trkpt>
      <trkpt lat="47.12575" lon="7.04229">
        <ele>1555.55</ele>
        <time>2014-06-13T11:28:51Z</time>
      </trkpt>
      <trkpt lat="47.1257" lon="7.0422">
        <ele>1556.03</ele>
        <time>2014-06-13T11:28:58Z</time>
      </trkpt>
      <trkpt lat="47.12564" lon="7.04212">
        <ele>1556.03</ele>
        <time>2014-06-13T11:29:05Z</time>
      </trkpt>
      <trkpt lat="47.12555" lon="7.04194">
        <ele>1555.55</ele>
        <time>2014-06-13T11:29:18Z</time>
      </trkpt>
      <trkpt lat="47.12549" lon="7.04177">
        <ele>1555.07</ele>
        <time>2014-06-13T11:29:30Z</time>
      </trkpt>
      <trkpt lat="47.12541" lon="7.04163">
        <ele>1554.59</ele>
        <time>2014-06-13T11:29:42Z</time>
      </trkpt>
      <trkpt lat="47.12535" lon="7.04151">
        <ele>1554.11</ele>
        <time>2014-06-13T11:29:51Z</time>
      </trkpt>
      <trkpt lat="47.12524" lon="7.04135">
        <ele>1551.71</ele>
        <time>2014-06-13T11:30:04Z</time>
      </trkpt>
      <trkpt lat="47.12515" lon="7.04116">
        <ele>1549.78</ele>
        <time>2014-06-13T11:30:17Z</time>
      </trkpt>
      <trkpt lat="47.12507" lon="7.04097">
        <ele>1549.78</ele>
        <time>2014-06-13T11:30:29Z</time>
      </trkpt>
      <trkpt lat="47.12497" lon="7.04082">
        <ele>1548.82</ele>
        <time>2014-06-13T11:30:41Z</time>
      </trkpt>
      <trkpt lat="47.12487" lon="7.04056">
        <ele>1546.9</ele>
        <time>2014-06-13T11:30:57Z</time>
      </trkpt>
      <trkpt lat="47.12477" lon="7.04036">
        <ele>1546.9</ele>
        <time>2014-06-13T11:31:11Z</time>
      </trkpt>
      <trkpt lat="47.12477" lon="7.04035">
        <ele>1546.9</ele>
        <time>2014-06-13T11:31:12Z</time>
      </trkpt>
      <trkpt lat="47.12474" lon="7.04032">
        <ele>1546.9</ele>
        <time>2014-06-13T11:31:16Z</time>
      </trkpt>
      <trkpt lat="47.12466" lon="7.04019">
        <ele>1547.86</ele>
        <time>2014-06-13T11:31:28Z</time>
      </trkpt>
      <trkpt lat="47.12463" lon="7.04015">
        <ele>1547.86</ele>
        <time>2014-06-13T11:31:32Z</time>
      </trkpt>
      <trkpt lat="47.12462" lon="7.04">
        <ele>1547.86</ele>
        <time>2014-06-13T11:31:45Z</time>
      </trkpt>
      <trkpt lat="47.1246" lon="7.03999">
        <ele>1547.86</ele>
        <time>2014-06-13T11:31:47Z</time>
      </trkpt>
      <trkpt lat="47.12456" lon="7.03988">
        <ele>1547.86</ele>
        <time>2014-06-13T11:31:54Z</time>
      </trkpt>
      <trkpt lat="47.12456" lon="7.03982">
        <ele>1545.94</ele>
        <time>2014-06-13T11:32:12Z</time>
      </trkpt>
      <trkpt lat="47.12456" lon="7.03984">
        <ele>1544.98</ele>
        <time>2014-06-13T11:32:32Z</time>
      </trkpt>
      <trkpt lat="47.12453" lon="7.03978">
        <ele>1544.5</ele>
        <time>2014-06-13T11:32:43Z</time>
      </trkpt>
      <trkpt lat="47.12446" lon="7.03966">
        <ele>1544.5</ele>
        <time>2014-06-13T11:32:53Z</time>
      </trkpt>
      <trkpt lat="47.12442" lon="7.03961">
        <ele>1543.53</ele>
        <time>2014-06-13T11:33:09Z</time>
      </trkpt>
      <trkpt lat="47.12437" lon="7.03951">
        <ele>1542.09</ele>
        <time>2014-06-13T11:33:22Z</time>
      </trkpt>
      <trkpt lat="47.1243" lon="7.03937">
        <ele>1541.61</ele>
        <time>2014-06-13T11:33:33Z</time>
      </trkpt>
      <trkpt lat="47.12421" lon="7.03922">
        <ele>1539.21</ele>
        <time>2014-06-13T11:33:46Z</time>
      </trkpt>
      <trkpt lat="47.12408" lon="7.03903">
        <ele>1537.29</ele>
        <time>2014-06-13T11:33:59Z</time>
      </trkpt>
      <trkpt lat="47.12408" lon="7.03901">
        <ele>1537.29</ele>
        <time>2014-06-13T11:34:01Z</time>
      </trkpt>
      <trkpt lat="47.12403" lon="7.03892">
        <ele>1537.29</ele>
        <time>2014-06-13T11:34:07Z</time>
      </trkpt>
      <trkpt lat="47.124" lon="7.03885">
        <ele>1537.77</ele>
        <time>2014-06-13T11:34:13Z</time>
      </trkpt>
      <trkpt lat="47.12395" lon="7.03877">
        <ele>1538.25</ele>
        <time>2014-06-13T11:34:20Z</time>
      </trkpt>
      <trkpt lat="47.12391" lon="7.03865">
        <ele>1539.21</ele>
        <time>2014-06-13T11:34:29Z</time>
      </trkpt>
      <trkpt lat="47.12381" lon="7.03851">
        <ele>1541.61</ele>
        <time>2014-06-13T11:34:41Z</time>
      </trkpt>
      <trkpt lat="47.12379" lon="7.03845">
        <ele>1542.57</ele>
        <time>2014-06-13T11:34:45Z</time>
      </trkpt>
      <trkpt lat="47.12368" lon="7.03826">
        <ele>1544.01</ele>
        <time>2014-06-13T11:34:59Z</time>
      </trkpt>
      <trkpt lat="47.12361" lon="7.03814">
        <ele>1544.01</ele>
        <time>2014-06-13T11:35:08Z</time>
      </trkpt>
      <trkpt lat="47.12358" lon="7.03803">
        <ele>1544.5</ele>
        <time>2014-06-13T11:35:15Z</time>
      </trkpt>
      <trkpt lat="47.12354" lon="7.03792">
        <ele>1544.98</ele>
        <time>2014-06-13T11:35:22Z</time>
      </trkpt>
      <trkpt lat="47.12346" lon="7.03786">
        <ele>1544.5</ele>
        <time>2014-06-13T11:35:29Z</time>
      </trkpt>
      <trkpt lat="47.12338" lon="7.0377">
        <ele>1544.5</ele>
        <time>2014-06-13T11:35:42Z</time>
      </trkpt>
      <trkpt lat="47.12331" lon="7.0376">
        <ele>1544.98</ele>
        <time>2014-06-13T11:35:52Z</time>
      </trkpt>
      <trkpt lat="47.12322" lon="7.03748">
        <ele>1545.46</ele>
        <time>2014-06-13T11:36:03Z</time>
      </trkpt>
      <trkpt lat="47.12316" lon="7.03736">
        <ele>1546.9</ele>
        <time>2014-06-13T11:36:13Z</time>
      </trkpt>
      <trkpt lat="47.1231" lon="7.03726">
        <ele>1547.38</ele>
        <time>2014-06-13T11:36:23Z</time>
      </trkpt>
      <trkpt lat="47.12302" lon="7.03714">
        <ele>1546.9</ele>
        <time>2014-06-13T11:36:33Z</time>
      </trkpt>
      <trkpt lat="47.12295" lon="7.03706">
        <ele>1546.42</ele>
        <time>2014-06-13T11:36:41Z</time>
      </trkpt>
      <trkpt lat="47.12287" lon="7.03695">
        <ele>1546.42</ele>
        <time>2014-06-13T11:36:49Z</time>
      </trkpt>
      <trkpt lat="47.12284" lon="7.03685">
        <ele>1547.86</ele>
        <time>2014-06-13T11:36:56Z</time>
      </trkpt>
      <trkpt lat="47.12273" lon="7.03667">
        <ele>1550.74</ele>
        <time>2014-06-13T11:37:12Z</time>
      </trkpt>
      <trkpt lat="47.12266" lon="7.03655">
        <ele>1551.71</ele>
        <time>2014-06-13T11:37:24Z</time>
      </trkpt>
      <trkpt lat="47.12264" lon="7.0365">
        <ele>1552.19</ele>
        <time>2014-06-13T11:37:29Z</time>
      </trkpt>
      <trkpt lat="47.1225" lon="7.03639">
        <ele>1549.3</ele>
        <time>2014-06-13T11:37:43Z</time>
      </trkpt>
      <trkpt lat="47.12241" lon="7.03626">
        <ele>1548.34</ele>
        <time>2014-06-13T11:37:55Z</time>
      </trkpt>
      <trkpt lat="47.1223" lon="7.03613">
        <ele>1547.86</ele>
        <time>2014-06-13T11:38:07Z</time>
      </trkpt>
      <trkpt lat="47.12214" lon="7.03601">
        <ele>1547.86</ele>
        <time>2014-06-13T11:38:22Z</time>
      </trkpt>
      <trkpt lat="47.122" lon="7.03588">
        <ele>1547.86</ele>
        <time>2014-06-13T11:38:35Z</time>
      </trkpt>
      <trkpt lat="47.12195" lon="7.03585">
        <ele>1547.86</ele>
        <time>2014-06-13T11:38:39Z</time>
      </trkpt>
      <trkpt lat="47.12188" lon="7.03571">
        <ele>1549.3</ele>
        <time>2014-06-13T11:38:50Z</time>
      </trkpt>
      <trkpt lat="47.12183" lon="7.03557">
        <ele>1551.22</ele>
        <time>2014-06-13T11:39:02Z</time>
      </trkpt>
      <trkpt lat="47.12177" lon="7.03549">
        <ele>1551.22</ele>
        <time>2014-06-13T11:39:11Z</time>
      </trkpt>
      <trkpt lat="47.12176" lon="7.03545">
        <ele>1551.22</ele>
        <time>2014-06-13T11:39:14Z</time>
      </trkpt>
      <trkpt lat="47.12166" lon="7.03539">
        <ele>1548.82</ele>
        <time>2014-06-13T11:39:28Z</time>
      </trkpt>
      <trkpt lat="47.12166" lon="7.03541">
        <ele>1550.26</ele>
        <time>2014-06-13T11:40:06Z</time>
      </trkpt>
      <trkpt lat="47.12164" lon="7.03542">
        <ele>1550.26</ele>
        <time>2014-06-13T11:40:19Z</time>
      </trkpt>
      <trkpt lat="47.12151" lon="7.03539">
        <ele>1546.42</ele>
        <time>2014-06-13T11:40:32Z</time>
      </trkpt>
      <trkpt lat="47.12147" lon="7.03533">
        <ele>1544.98</ele>
        <time>2014-06-13T11:40:36Z</time>
      </trkpt>
      <trkpt lat="47.12141" lon="7.03509">
        <ele>1541.13</ele>
        <time>2014-06-13T11:40:51Z</time>
      </trkpt>
      <trkpt lat="47.1213" lon="7.03494">
        <ele>1536.8</ele>
        <time>2014-06-13T11:41:04Z</time>
      </trkpt>
      <trkpt lat="47.12117" lon="7.03485">
        <ele>1533.44</ele>
        <time>2014-06-13T11:41:17Z</time>
      </trkpt>
      <trkpt lat="47.12102" lon="7.03467">
        <ele>1530.08</ele>
        <time>2014-06-13T11:41:31Z</time>
      </trkpt>
      <trkpt lat="47.12088" lon="7.03448">
        <ele>1527.67</ele>
        <time>2014-06-13T11:41:46Z</time>
      </trkpt>
      <trkpt lat="47.12078" lon="7.03432">
        <ele>1526.71</ele>
        <time>2014-06-13T11:41:58Z</time>
      </trkpt>
      <trkpt lat="47.12073" lon="7.03412">
        <ele>1524.79</ele>
        <time>2014-06-13T11:42:12Z</time>
      </trkpt>
      <trkpt lat="47.12069" lon="7.03402">
        <ele>1523.83</ele>
        <time>2014-06-13T11:42:22Z</time>
      </trkpt>
      <trkpt lat="47.12066" lon="7.03395">
        <ele>1522.39</ele>
        <time>2014-06-13T11:42:28Z</time>
      </trkpt>
      <trkpt lat="47.12058" lon="7.03374">
        <ele>1518.54</ele>
        <time>2014-06-13T11:42:43Z</time>
      </trkpt>
      <trkpt lat="47.12052" lon="7.03364">
        <ele>1517.1</ele>
        <time>2014-06-13T11:42:51Z</time>
      </trkpt>
      <trkpt lat="47.12048" lon="7.0336">
        <ele>1516.14</ele>
        <time>2014-06-13T11:42:56Z</time>
      </trkpt>
      <trkpt lat="47.12032" lon="7.03341">
        <ele>1514.21</ele>
        <time>2014-06-13T11:43:11Z</time>
      </trkpt>
      <trkpt lat="47.12018" lon="7.03321">
        <ele>1512.77</ele>
        <time>2014-06-13T11:43:26Z</time>
      </trkpt>
      <trkpt lat="47.12003" lon="7.03307">
        <ele>1512.29</ele>
        <time>2014-06-13T11:43:40Z</time>
      </trkpt>
      <trkpt lat="47.11989" lon="7.03294">
        <ele>1510.85</ele>
        <time>2014-06-13T11:43:53Z</time>
      </trkpt>
      <trkpt lat="47.11975" lon="7.03278">
        <ele>1508.93</ele>
        <time>2014-06-13T11:44:08Z</time>
      </trkpt>
      <trkpt lat="47.1196" lon="7.03261">
        <ele>1507.48</ele>
        <time>2014-06-13T11:44:22Z</time>
      </trkpt>
      <trkpt lat="47.11953" lon="7.0324">
        <ele>1506.04</ele>
        <time>2014-06-13T11:44:36Z</time>
      </trkpt>
      <trkpt lat="47.11953" lon="7.03225">
        <ele>1505.08</ele>
        <time>2014-06-13T11:44:44Z</time>
      </trkpt>
      <trkpt lat="47.11971" lon="7.03217">
        <ele>1505.08</ele>
        <time>2014-06-13T11:44:59Z</time>
      </trkpt>
      <trkpt lat="47.11987" lon="7.03225">
        <ele>1503.64</ele>
        <time>2014-06-13T11:45:14Z</time>
      </trkpt>
      <trkpt lat="47.12001" lon="7.03234">
        <ele>1499.31</ele>
        <time>2014-06-13T11:45:27Z</time>
      </trkpt>
      <trkpt lat="47.1202" lon="7.03248">
        <ele>1499.31</ele>
        <time>2014-06-13T11:45:44Z</time>
      </trkpt>
      <trkpt lat="47.12035" lon="7.03259">
        <ele>1498.35</ele>
        <time>2014-06-13T11:45:57Z</time>
      </trkpt>
      <trkpt lat="47.12049" lon="7.03271">
        <ele>1498.83</ele>
        <time>2014-06-13T11:46:11Z</time>
      </trkpt>
      <trkpt lat="47.12066" lon="7.03275">
        <ele>1497.87</ele>
        <time>2014-06-13T11:46:25Z</time>
      </trkpt>
      <trkpt lat="47.12081" lon="7.03284">
        <ele>1497.87</ele>
        <time>2014-06-13T11:46:38Z</time>
      </trkpt>
      <trkpt lat="47.12087" lon="7.03283">
        <ele>1496.91</ele>
        <time>2014-06-13T11:46:50Z</time>
      </trkpt>
      <trkpt lat="47.12085" lon="7.03273">
        <ele>1494.99</ele>
        <time>2014-06-13T11:47:00Z</time>
      </trkpt>
      <trkpt lat="47.12083" lon="7.03262">
        <ele>1494.03</ele>
        <time>2014-06-13T11:47:11Z</time>
      </trkpt>
      <trkpt lat="47.12095" lon="7.03269">
        <ele>1492.58</ele>
        <time>2014-06-13T11:47:24Z</time>
      </trkpt>
      <trkpt lat="47.12103" lon="7.03273">
        <ele>1490.18</ele>
        <time>2014-06-13T11:47:34Z</time>
      </trkpt>
      <trkpt lat="47.12117" lon="7.03282">
        <ele>1485.85</ele>
        <time>2014-06-13T11:47:49Z</time>
      </trkpt>
      <trkpt lat="47.12126" lon="7.03291">
        <ele>1483.93</ele>
        <time>2014-06-13T11:47:59Z</time>
      </trkpt>
      <trkpt lat="47.12139" lon="7.03297">
        <ele>1481.05</ele>
        <time>2014-06-13T11:48:14Z</time>
      </trkpt>
      <trkpt lat="47.12144" lon="7.03301">
        <ele>1481.05</ele>
        <time>2014-06-13T11:48:36Z</time>
      </trkpt>
      <trkpt lat="47.12153" lon="7.03307">
        <ele>1481.05</ele>
        <time>2014-06-13T11:49:04Z</time>
      </trkpt>
      <trkpt lat="47.12167" lon="7.03318">
        <ele>1479.13</ele>
        <time>2014-06-13T11:49:18Z</time>
      </trkpt>
      <trkpt lat="47.12183" lon="7.03329">
        <ele>1478.16</ele>
        <time>2014-06-13T11:49:33Z</time>
      </trkpt>
      <trkpt lat="47.12193" lon="7.03337">
        <ele>1476.24</ele>
        <time>2014-06-13T11:49:44Z</time>
      </trkpt>
      <trkpt lat="47.12198" lon="7.0334">
        <ele>1475.28</ele>
        <time>2014-06-13T11:49:48Z</time>
      </trkpt>
      <trkpt lat="47.12218" lon="7.03353">
        <ele>1472.4</ele>
        <time>2014-06-13T11:50:07Z</time>
      </trkpt>
      <trkpt lat="47.12231" lon="7.03361">
        <ele>1471.92</ele>
        <time>2014-06-13T11:50:20Z</time>
      </trkpt>
      <trkpt lat="47.12244" lon="7.0337">
        <ele>1471.44</ele>
        <time>2014-06-13T11:50:31Z</time>
      </trkpt>
      <trkpt lat="47.12256" lon="7.03379">
        <ele>1471.44</ele>
        <time>2014-06-13T11:50:43Z</time>
      </trkpt>
      <trkpt lat="47.1227" lon="7.03388">
        <ele>1470.47</ele>
        <time>2014-06-13T11:50:56Z</time>
      </trkpt>
      <trkpt lat="47.12283" lon="7.03397">
        <ele>1468.07</ele>
        <time>2014-06-13T11:51:09Z</time>
      </trkpt>
      <trkpt lat="47.12295" lon="7.03404">
        <ele>1465.19</ele>
        <time>2014-06-13T11:51:22Z</time>
      </trkpt>
      <trkpt lat="47.12308" lon="7.03414">
        <ele>1463.26</ele>
        <time>2014-06-13T11:51:35Z</time>
      </trkpt>
      <trkpt lat="47.1232" lon="7.03423">
        <ele>1459.42</ele>
        <time>2014-06-13T11:51:49Z</time>
      </trkpt>
      <trkpt lat="47.12324" lon="7.03425">
        <ele>1458.46</ele>
        <time>2014-06-13T11:51:53Z</time>
      </trkpt>
      <trkpt lat="47.12336" lon="7.03431">
        <ele>1454.61</ele>
        <time>2014-06-13T11:52:06Z</time>
      </trkpt>
      <trkpt lat="47.12349" lon="7.03436">
        <ele>1451.73</ele>
        <time>2014-06-13T11:52:19Z</time>
      </trkpt>
      <trkpt lat="47.12361" lon="7.03441">
        <ele>1448.84</ele>
        <time>2014-06-13T11:52:30Z</time>
      </trkpt>
      <trkpt lat="47.12376" lon="7.03451">
        <ele>1445.96</ele>
        <time>2014-06-13T11:52:45Z</time>
      </trkpt>
      <trkpt lat="47.12388" lon="7.03465">
        <ele>1445</ele>
        <time>2014-06-13T11:52:57Z</time>
      </trkpt>
      <trkpt lat="47.12402" lon="7.0348">
        <ele>1444.04</ele>
        <time>2014-06-13T11:53:10Z</time>
      </trkpt>
      <trkpt lat="47.12415" lon="7.0349">
        <ele>1442.6</ele>
        <time>2014-06-13T11:53:22Z</time>
      </trkpt>
      <trkpt lat="47.12427" lon="7.03501">
        <ele>1440.67</ele>
        <time>2014-06-13T11:53:34Z</time>
      </trkpt>
      <trkpt lat="47.12439" lon="7.03511">
        <ele>1437.79</ele>
        <time>2014-06-13T11:53:47Z</time>
      </trkpt>
      <trkpt lat="47.1245" lon="7.03522">
        <ele>1435.39</ele>
        <time>2014-06-13T11:53:59Z</time>
      </trkpt>
      <trkpt lat="47.12463" lon="7.03533">
        <ele>1432.98</ele>
        <time>2014-06-13T11:54:11Z</time>
      </trkpt>
      <trkpt lat="47.12477" lon="7.03548">
        <ele>1431.06</ele>
        <time>2014-06-13T11:54:25Z</time>
      </trkpt>
      <trkpt lat="47.1249" lon="7.03563">
        <ele>1431.54</ele>
        <time>2014-06-13T11:54:39Z</time>
      </trkpt>
      <trkpt lat="47.12503" lon="7.03581">
        <ele>1431.06</ele>
        <time>2014-06-13T11:54:55Z</time>
      </trkpt>
      <trkpt lat="47.12519" lon="7.03595">
        <ele>1429.62</ele>
        <time>2014-06-13T11:55:10Z</time>
      </trkpt>
      <trkpt lat="47.12526" lon="7.03602">
        <ele>1429.14</ele>
        <time>2014-06-13T11:55:17Z</time>
      </trkpt>
      <trkpt lat="47.1253" lon="7.03603">
        <ele>1428.66</ele>
        <time>2014-06-13T11:55:21Z</time>
      </trkpt>
      <trkpt lat="47.12545" lon="7.03608">
        <ele>1425.29</ele>
        <time>2014-06-13T11:55:35Z</time>
      </trkpt>
      <trkpt lat="47.12559" lon="7.03614">
        <ele>1423.37</ele>
        <time>2014-06-13T11:55:48Z</time>
      </trkpt>
      <trkpt lat="47.12571" lon="7.03624">
        <ele>1421.93</ele>
        <time>2014-06-13T11:56:00Z</time>
      </trkpt>
      <trkpt lat="47.12583" lon="7.03628">
        <ele>1420.49</ele>
        <time>2014-06-13T11:56:12Z</time>
      </trkpt>
      <trkpt lat="47.12598" lon="7.03627">
        <ele>1417.12</ele>
        <time>2014-06-13T11:56:26Z</time>
      </trkpt>
      <trkpt lat="47.12614" lon="7.03625">
        <ele>1415.68</ele>
        <time>2014-06-13T11:56:40Z</time>
      </trkpt>
      <trkpt lat="47.12631" lon="7.03621">
        <ele>1411.35</ele>
        <time>2014-06-13T11:56:56Z</time>
      </trkpt>
      <trkpt lat="47.12645" lon="7.03615">
        <ele>1408.47</ele>
        <time>2014-06-13T11:57:08Z</time>
      </trkpt>
      <trkpt lat="47.12657" lon="7.03604">
        <ele>1405.58</ele>
        <time>2014-06-13T11:57:21Z</time>
      </trkpt>
      <trkpt lat="47.12662" lon="7.036">
        <ele>1403.66</ele>
        <time>2014-06-13T11:57:27Z</time>
      </trkpt>
      <trkpt lat="47.12676" lon="7.03594">
        <ele>1399.82</ele>
        <time>2014-06-13T11:57:41Z</time>
      </trkpt>
      <trkpt lat="47.12689" lon="7.03585">
        <ele>1397.89</ele>
        <time>2014-06-13T11:57:55Z</time>
      </trkpt>
      <trkpt lat="47.12696" lon="7.03579">
        <ele>1397.41</ele>
        <time>2014-06-13T11:58:05Z</time>
      </trkpt>
      <trkpt lat="47.12705" lon="7.03577">
        <ele>1395.01</ele>
        <time>2014-06-13T11:58:15Z</time>
      </trkpt>
      <trkpt lat="47.12719" lon="7.03581">
        <ele>1388.28</ele>
        <time>2014-06-13T11:58:29Z</time>
      </trkpt>
      <trkpt lat="47.12723" lon="7.03584">
        <ele>1386.84</ele>
        <time>2014-06-13T11:58:34Z</time>
      </trkpt>
      <trkpt lat="47.12729" lon="7.03586">
        <ele>1383.47</ele>
        <time>2014-06-13T11:58:50Z</time>
      </trkpt>
      <trkpt lat="47.12741" lon="7.03592">
        <ele>1381.55</ele>
        <time>2014-06-13T11:59:03Z</time>
      </trkpt>
      <trkpt lat="47.12748" lon="7.03594">
        <ele>1380.11</ele>
        <time>2014-06-13T11:59:10Z</time>
      </trkpt>
      <trkpt lat="47.12756" lon="7.03592">
        <ele>1378.67</ele>
        <time>2014-06-13T11:59:17Z</time>
      </trkpt>
      <trkpt lat="47.12761" lon="7.03591">
        <ele>1377.71</ele>
        <time>2014-06-13T11:59:24Z</time>
      </trkpt>
      <trkpt lat="47.12769" lon="7.03584">
        <ele>1379.15</ele>
        <time>2014-06-13T11:59:37Z</time>
      </trkpt>
      <trkpt lat="47.12779" lon="7.03575">
        <ele>1379.15</ele>
        <time>2014-06-13T11:59:50Z</time>
      </trkpt>
      <trkpt lat="47.12788" lon="7.03562">
        <ele>1379.63</ele>
        <time>2014-06-13T12:00:01Z</time>
      </trkpt>
      <trkpt lat="47.12793" lon="7.03554">
        <ele>1380.11</ele>
        <time>2014-06-13T12:00:08Z</time>
      </trkpt>
      <trkpt lat="47.12806" lon="7.03547">
        <ele>1375.78</ele>
        <time>2014-06-13T12:00:20Z</time>
      </trkpt>
      <trkpt lat="47.12819" lon="7.03543">
        <ele>1374.34</ele>
        <time>2014-06-13T12:00:33Z</time>
      </trkpt>
      <trkpt lat="47.12827" lon="7.03539">
        <ele>1375.78</ele>
        <time>2014-06-13T12:00:43Z</time>
      </trkpt>
      <trkpt lat="47.12829" lon="7.03538">
        <ele>1376.26</ele>
        <time>2014-06-13T12:00:46Z</time>
      </trkpt>
      <trkpt lat="47.12839" lon="7.03536">
        <ele>1378.19</ele>
        <time>2014-06-13T12:00:58Z</time>
      </trkpt>
      <trkpt lat="47.12849" lon="7.03531">
        <ele>1379.63</ele>
        <time>2014-06-13T12:01:10Z</time>
      </trkpt>
      <trkpt lat="47.12859" lon="7.03525">
        <ele>1380.11</ele>
        <time>2014-06-13T12:01:21Z</time>
      </trkpt>
      <trkpt lat="47.12868" lon="7.03518">
        <ele>1381.07</ele>
        <time>2014-06-13T12:01:32Z</time>
      </trkpt>
      <trkpt lat="47.12878" lon="7.03512">
        <ele>1381.55</ele>
        <time>2014-06-13T12:01:43Z</time>
      </trkpt>
      <trkpt lat="47.12889" lon="7.03509">
        <ele>1383.47</ele>
        <time>2014-06-13T12:01:55Z</time>
      </trkpt>
      <trkpt lat="47.12898" lon="7.03509">
        <ele>1384.44</ele>
        <time>2014-06-13T12:02:05Z</time>
      </trkpt>
      <trkpt lat="47.12906" lon="7.03512">
        <ele>1383.96</ele>
        <time>2014-06-13T12:02:19Z</time>
      </trkpt>
      <trkpt lat="47.12917" lon="7.03516">
        <ele>1383.96</ele>
        <time>2014-06-13T12:02:31Z</time>
      </trkpt>
      <trkpt lat="47.12923" lon="7.03518">
        <ele>1384.44</ele>
        <time>2014-06-13T12:02:37Z</time>
      </trkpt>
      <trkpt lat="47.12934" lon="7.0352">
        <ele>1385.4</ele>
        <time>2014-06-13T12:02:48Z</time>
      </trkpt>
      <trkpt lat="47.12945" lon="7.03524">
        <ele>1387.8</ele>
        <time>2014-06-13T12:02:59Z</time>
      </trkpt>
      <trkpt lat="47.1295" lon="7.03524">
        <ele>1389.24</ele>
        <time>2014-06-13T12:03:05Z</time>
      </trkpt>
      <trkpt lat="47.1296" lon="7.03527">
        <ele>1391.65</ele>
        <time>2014-06-13T12:03:17Z</time>
      </trkpt>
      <trkpt lat="47.1297" lon="7.03531">
        <ele>1392.61</ele>
        <time>2014-06-13T12:03:28Z</time>
      </trkpt>
      <trkpt lat="47.12977" lon="7.03533">
        <ele>1393.09</ele>
        <time>2014-06-13T12:03:36Z</time>
      </trkpt>
      <trkpt lat="47.12983" lon="7.03537">
        <ele>1396.45</ele>
        <time>2014-06-13T12:03:52Z</time>
      </trkpt>
      <trkpt lat="47.12984" lon="7.03537">
        <ele>1397.89</ele>
        <time>2014-06-13T12:04:29Z</time>
      </trkpt>
      <trkpt lat="47.12985" lon="7.03536">
        <ele>1397.41</ele>
        <time>2014-06-13T12:05:08Z</time>
      </trkpt>
      <trkpt lat="47.12992" lon="7.03539">
        <ele>1399.82</ele>
        <time>2014-06-13T12:05:26Z</time>
      </trkpt>
      <trkpt lat="47.13" lon="7.03541">
        <ele>1399.82</ele>
        <time>2014-06-13T12:05:37Z</time>
      </trkpt>
      <trkpt lat="47.13002" lon="7.03542">
        <ele>1398.86</ele>
        <time>2014-06-13T12:05:42Z</time>
      </trkpt>
      <trkpt lat="47.13012" lon="7.03543">
        <ele>1400.78</ele>
        <time>2014-06-13T12:05:54Z</time>
      </trkpt>
      <trkpt lat="47.13021" lon="7.03541">
        <ele>1404.14</ele>
        <time>2014-06-13T12:06:05Z</time>
      </trkpt>
      <trkpt lat="47.13026" lon="7.03537">
        <ele>1406.07</ele>
        <time>2014-06-13T12:06:15Z</time>
      </trkpt>
      <trkpt lat="47.13032" lon="7.03534">
        <ele>1406.07</ele>
        <time>2014-06-13T12:06:26Z</time>
      </trkpt>
      <trkpt lat="47.13037" lon="7.03529">
        <ele>1407.03</ele>
        <time>2014-06-13T12:06:39Z</time>
      </trkpt>
      <trkpt lat="47.13046" lon="7.0352">
        <ele>1409.91</ele>
        <time>2014-06-13T12:06:49Z</time>
      </trkpt>
      <trkpt lat="47.13055" lon="7.03508">
        <ele>1411.35</ele>
        <time>2014-06-13T12:07:00Z</time>
      </trkpt>
      <trkpt lat="47.13055" lon="7.03508">
        <ele>1411.35</ele>
        <time>2014-06-13T12:07:01Z</time>
      </trkpt>
      <trkpt lat="47.1307" lon="7.03493">
        <ele>1412.79</ele>
        <time>2014-06-13T12:07:17Z</time>
      </trkpt>
      <trkpt lat="47.13083" lon="7.03474">
        <ele>1411.83</ele>
        <time>2014-06-13T12:07:33Z</time>
      </trkpt>
      <trkpt lat="47.13093" lon="7.03457">
        <ele>1411.83</ele>
        <time>2014-06-13T12:07:48Z</time>
      </trkpt>
      <trkpt lat="47.13102" lon="7.03437">
        <ele>1412.31</ele>
        <time>2014-06-13T12:08:03Z</time>
      </trkpt>
      <trkpt lat="47.1311" lon="7.03422">
        <ele>1412.31</ele>
        <time>2014-06-13T12:08:17Z</time>
      </trkpt>
      <trkpt lat="47.13119" lon="7.03401">
        <ele>1412.79</ele>
        <time>2014-06-13T12:08:33Z</time>
      </trkpt>
      <trkpt lat="47.13131" lon="7.03381">
        <ele>1416.64</ele>
        <time>2014-06-13T12:08:49Z</time>
      </trkpt>
      <trkpt lat="47.13145" lon="7.03365">
        <ele>1419.52</ele>
        <time>2014-06-13T12:09:05Z</time>
      </trkpt>
      <trkpt lat="47.13153" lon="7.03354">
        <ele>1419.52</ele>
        <time>2014-06-13T12:09:20Z</time>
      </trkpt>
      <trkpt lat="47.13165" lon="7.03341">
        <ele>1420.97</ele>
        <time>2014-06-13T12:09:34Z</time>
      </trkpt>
      <trkpt lat="47.13179" lon="7.03322">
        <ele>1422.89</ele>
        <time>2014-06-13T12:09:52Z</time>
      </trkpt>
      <trkpt lat="47.13183" lon="7.03306">
        <ele>1423.37</ele>
        <time>2014-06-13T12:10:03Z</time>
      </trkpt>
      <trkpt lat="47.13183" lon="7.03304">
        <ele>1423.37</ele>
        <time>2014-06-13T12:10:05Z</time>
      </trkpt>
      <trkpt lat="47.13185" lon="7.03301">
        <ele>1422.89</ele>
        <time>2014-06-13T12:10:08Z</time>
      </trkpt>
      <trkpt lat="47.13196" lon="7.03309">
        <ele>1421.93</ele>
        <time>2014-06-13T12:10:20Z</time>
      </trkpt>
      <trkpt lat="47.13197" lon="7.0331">
        <ele>1421.45</ele>
        <time>2014-06-13T12:10:21Z</time>
      </trkpt>
      <trkpt lat="47.13201" lon="7.03315">
        <ele>1420.97</ele>
        <time>2014-06-13T12:10:31Z</time>
      </trkpt>
      <trkpt lat="47.13201" lon="7.03315">
        <ele>1420.97</ele>
        <time>2014-06-13T12:10:32Z</time>
      </trkpt>
      <trkpt lat="47.13209" lon="7.0331">
        <ele>1422.41</ele>
        <time>2014-06-13T12:10:45Z</time>
      </trkpt>
      <trkpt lat="47.13216" lon="7.03309">
        <ele>1422.41</ele>
        <time>2014-06-13T12:10:56Z</time>
      </trkpt>
      <trkpt lat="47.13219" lon="7.03308">
        <ele>1423.85</ele>
        <time>2014-06-13T12:11:15Z</time>
      </trkpt>
      <trkpt lat="47.13223" lon="7.03311">
        <ele>1423.37</ele>
        <time>2014-06-13T12:11:31Z</time>
      </trkpt>
      <trkpt lat="47.13224" lon="7.03312">
        <ele>1423.37</ele>
        <time>2014-06-13T12:11:47Z</time>
      </trkpt>
      <trkpt lat="47.13225" lon="7.03313">
        <ele>1424.81</ele>
        <time>2014-06-13T12:12:21Z</time>
      </trkpt>
      <trkpt lat="47.13224" lon="7.03313">
        <ele>1425.29</ele>
        <time>2014-06-13T12:12:46Z</time>
      </trkpt>
      <trkpt lat="47.13227" lon="7.03307">
        <ele>1427.21</ele>
        <time>2014-06-13T12:12:58Z</time>
      </trkpt>
      <trkpt lat="47.13222" lon="7.03304">
        <ele>1429.14</ele>
        <time>2014-06-13T12:13:10Z</time>
      </trkpt>
      <trkpt lat="47.1322" lon="7.03301">
        <ele>1430.1</ele>
        <time>2014-06-13T12:13:18Z</time>
      </trkpt>
      <trkpt lat="47.1321" lon="7.0328">
        <ele>1428.66</ele>
        <time>2014-06-13T12:13:33Z</time>
      </trkpt>
      <trkpt lat="47.13201" lon="7.03266">
        <ele>1429.14</ele>
        <time>2014-06-13T12:13:45Z</time>
      </trkpt>
      <trkpt lat="47.13198" lon="7.03259">
        <ele>1430.1</ele>
        <time>2014-06-13T12:13:57Z</time>
      </trkpt>
      <trkpt lat="47.13196" lon="7.03258">
        <ele>1429.62</ele>
        <time>2014-06-13T12:14:00Z</time>
      </trkpt>
      <trkpt lat="47.13192" lon="7.03257">
        <ele>1429.14</ele>
        <time>2014-06-13T12:14:15Z</time>
      </trkpt>
      <trkpt lat="47.13192" lon="7.03247">
        <ele>1428.66</ele>
        <time>2014-06-13T12:14:35Z</time>
      </trkpt>
      <trkpt lat="47.13195" lon="7.0323">
        <ele>1427.7</ele>
        <time>2014-06-13T12:14:49Z</time>
      </trkpt>
      <trkpt lat="47.13197" lon="7.03229">
        <ele>1427.21</ele>
        <time>2014-06-13T12:14:51Z</time>
      </trkpt>
      <trkpt lat="47.13202" lon="7.03222">
        <ele>1427.21</ele>
        <time>2014-06-13T12:14:59Z</time>
      </trkpt>
      <trkpt lat="47.13198" lon="7.03198">
        <ele>1425.29</ele>
        <time>2014-06-13T12:15:14Z</time>
      </trkpt>
      <trkpt lat="47.13192" lon="7.03177">
        <ele>1421.93</ele>
        <time>2014-06-13T12:15:29Z</time>
      </trkpt>
      <trkpt lat="47.13188" lon="7.03153">
        <ele>1417.12</ele>
        <time>2014-06-13T12:15:44Z</time>
      </trkpt>
      <trkpt lat="47.13183" lon="7.03135">
        <ele>1413.76</ele>
        <time>2014-06-13T12:15:57Z</time>
      </trkpt>
      <trkpt lat="47.13177" lon="7.03115">
        <ele>1409.91</ele>
        <time>2014-06-13T12:16:11Z</time>
      </trkpt>
      <trkpt lat="47.13175" lon="7.03106">
        <ele>1408.95</ele>
        <time>2014-06-13T12:16:17Z</time>
      </trkpt>
      <trkpt lat="47.13174" lon="7.03092">
        <ele>1405.1</ele>
        <time>2014-06-13T12:16:31Z</time>
      </trkpt>
      <trkpt lat="47.13174" lon="7.03087">
        <ele>1403.66</ele>
        <time>2014-06-13T12:16:37Z</time>
      </trkpt>
      <trkpt lat="47.13172" lon="7.03078">
        <ele>1403.18</ele>
        <time>2014-06-13T12:16:46Z</time>
      </trkpt>
      <trkpt lat="47.1317" lon="7.03063">
        <ele>1400.3</ele>
        <time>2014-06-13T12:16:59Z</time>
      </trkpt>
      <trkpt lat="47.13167" lon="7.03052">
        <ele>1398.86</ele>
        <time>2014-06-13T12:17:09Z</time>
      </trkpt>
      <trkpt lat="47.13173" lon="7.03045">
        <ele>1396.45</ele>
        <time>2014-06-13T12:17:23Z</time>
      </trkpt>
      <trkpt lat="47.13183" lon="7.03044">
        <ele>1391.65</ele>
        <time>2014-06-13T12:17:38Z</time>
      </trkpt>
      <trkpt lat="47.13191" lon="7.03044">
        <ele>1388.76</ele>
        <time>2014-06-13T12:17:48Z</time>
      </trkpt>
      <trkpt lat="47.13205" lon="7.03044">
        <ele>1388.28</ele>
        <time>2014-06-13T12:18:01Z</time>
      </trkpt>
      <trkpt lat="47.13214" lon="7.03045">
        <ele>1385.88</ele>
        <time>2014-06-13T12:18:13Z</time>
      </trkpt>
      <trkpt lat="47.13213" lon="7.0304">
        <ele>1382.51</ele>
        <time>2014-06-13T12:18:27Z</time>
      </trkpt>
      <trkpt lat="47.13207" lon="7.03028">
        <ele>1380.11</ele>
        <time>2014-06-13T12:18:41Z</time>
      </trkpt>
      <trkpt lat="47.13219" lon="7.03024">
        <ele>1377.23</ele>
        <time>2014-06-13T12:18:53Z</time>
      </trkpt>
      <trkpt lat="47.13228" lon="7.03024">
        <ele>1375.3</ele>
        <time>2014-06-13T12:19:05Z</time>
      </trkpt>
      <trkpt lat="47.13238" lon="7.03023">
        <ele>1373.38</ele>
        <time>2014-06-13T12:19:18Z</time>
      </trkpt>
      <trkpt lat="47.13249" lon="7.03025">
        <ele>1371.46</ele>
        <time>2014-06-13T12:19:30Z</time>
      </trkpt>
      <trkpt lat="47.13256" lon="7.03027">
        <ele>1369.05</ele>
        <time>2014-06-13T12:19:42Z</time>
      </trkpt>
      <trkpt lat="47.13266" lon="7.03029">
        <ele>1365.21</ele>
        <time>2014-06-13T12:19:57Z</time>
      </trkpt>
      <trkpt lat="47.13266" lon="7.03022">
        <ele>1361.84</ele>
        <time>2014-06-13T12:20:12Z</time>
      </trkpt>
      <trkpt lat="47.13263" lon="7.03011">
        <ele>1357.52</ele>
        <time>2014-06-13T12:20:25Z</time>
      </trkpt>
      <trkpt lat="47.13272" lon="7.0301">
        <ele>1356.08</ele>
        <time>2014-06-13T12:20:37Z</time>
      </trkpt>
      <trkpt lat="47.13273" lon="7.0301">
        <ele>1356.08</ele>
        <time>2014-06-13T12:20:38Z</time>
      </trkpt>
      <trkpt lat="47.13281" lon="7.03012">
        <ele>1354.63</ele>
        <time>2014-06-13T12:20:46Z</time>
      </trkpt>
      <trkpt lat="47.13295" lon="7.03019">
        <ele>1352.71</ele>
        <time>2014-06-13T12:21:01Z</time>
      </trkpt>
      <trkpt lat="47.13301" lon="7.03022">
        <ele>1351.75</ele>
        <time>2014-06-13T12:21:06Z</time>
      </trkpt>
      <trkpt lat="47.13308" lon="7.03022">
        <ele>1348.39</ele>
        <time>2014-06-13T12:21:24Z</time>
      </trkpt>
      <trkpt lat="47.13308" lon="7.03023">
        <ele>1347.91</ele>
        <time>2014-06-13T12:21:31Z</time>
      </trkpt>
      <trkpt lat="47.13322" lon="7.03028">
        <ele>1349.35</ele>
        <time>2014-06-13T12:21:45Z</time>
      </trkpt>
      <trkpt lat="47.13324" lon="7.03025">
        <ele>1349.35</ele>
        <time>2014-06-13T12:22:09Z</time>
      </trkpt>
      <trkpt lat="47.13322" lon="7.03031">
        <ele>1348.39</ele>
        <time>2014-06-13T12:22:36Z</time>
      </trkpt>
      <trkpt lat="47.13318" lon="7.03031">
        <ele>1346.46</ele>
        <time>2014-06-13T12:23:04Z</time>
      </trkpt>
      <trkpt lat="47.13321" lon="7.03036">
        <ele>1345.02</ele>
        <time>2014-06-13T12:23:25Z</time>
      </trkpt>
      <trkpt lat="47.13329" lon="7.03039">
        <ele>1341.66</ele>
        <time>2014-06-13T12:23:48Z</time>
      </trkpt>
      <trkpt lat="47.1333" lon="7.0304">
        <ele>1341.66</ele>
        <time>2014-06-13T12:23:49Z</time>
      </trkpt>
      <trkpt lat="47.13345" lon="7.03046">
        <ele>1339.73</ele>
        <time>2014-06-13T12:24:03Z</time>
      </trkpt>
      <trkpt lat="47.1336" lon="7.03051">
        <ele>1337.81</ele>
        <time>2014-06-13T12:24:16Z</time>
      </trkpt>
      <trkpt lat="47.13378" lon="7.03062">
        <ele>1335.89</ele>
        <time>2014-06-13T12:24:32Z</time>
      </trkpt>
      <trkpt lat="47.134" lon="7.03069">
        <ele>1334.45</ele>
        <time>2014-06-13T12:24:47Z</time>
      </trkpt>
      <trkpt lat="47.13418" lon="7.03077">
        <ele>1330.12</ele>
        <time>2014-06-13T12:25:02Z</time>
      </trkpt>
      <trkpt lat="47.13437" lon="7.03086">
        <ele>1325.31</ele>
        <time>2014-06-13T12:25:16Z</time>
      </trkpt>
      <trkpt lat="47.13455" lon="7.03094">
        <ele>1319.55</ele>
        <time>2014-06-13T12:25:32Z</time>
      </trkpt>
      <trkpt lat="47.13474" lon="7.031">
        <ele>1317.14</ele>
        <time>2014-06-13T12:25:47Z</time>
      </trkpt>
      <trkpt lat="47.13491" lon="7.03105">
        <ele>1314.26</ele>
        <time>2014-06-13T12:26:01Z</time>
      </trkpt>
      <trkpt lat="47.13511" lon="7.03111">
        <ele>1310.9</ele>
        <time>2014-06-13T12:26:16Z</time>
      </trkpt>
      <trkpt lat="47.13528" lon="7.03099">
        <ele>1309.45</ele>
        <time>2014-06-13T12:26:32Z</time>
      </trkpt>
      <trkpt lat="47.13541" lon="7.03078">
        <ele>1308.97</ele>
        <time>2014-06-13T12:26:47Z</time>
      </trkpt>
      <trkpt lat="47.13555" lon="7.03047">
        <ele>1309.45</ele>
        <time>2014-06-13T12:27:05Z</time>
      </trkpt>
      <trkpt lat="47.13564" lon="7.03026">
        <ele>1311.86</ele>
        <time>2014-06-13T12:27:19Z</time>
      </trkpt>
      <trkpt lat="47.13564" lon="7.03024">
        <ele>1311.86</ele>
        <time>2014-06-13T12:27:20Z</time>
      </trkpt>
      <trkpt lat="47.13559" lon="7.02998">
        <ele>1311.38</ele>
        <time>2014-06-13T12:27:35Z</time>
      </trkpt>
      <trkpt lat="47.13553" lon="7.02974">
        <ele>1311.38</ele>
        <time>2014-06-13T12:27:48Z</time>
      </trkpt>
      <trkpt lat="47.13546" lon="7.02944">
        <ele>1309.93</ele>
        <time>2014-06-13T12:28:04Z</time>
      </trkpt>
      <trkpt lat="47.13539" lon="7.02919">
        <ele>1308.97</ele>
        <time>2014-06-13T12:28:18Z</time>
      </trkpt>
      <trkpt lat="47.13534" lon="7.02892">
        <ele>1306.09</ele>
        <time>2014-06-13T12:28:32Z</time>
      </trkpt>
      <trkpt lat="47.13527" lon="7.02863">
        <ele>1304.17</ele>
        <time>2014-06-13T12:28:48Z</time>
      </trkpt>
      <trkpt lat="47.13519" lon="7.02835">
        <ele>1301.28</ele>
        <time>2014-06-13T12:29:04Z</time>
      </trkpt>
      <trkpt lat="47.13514" lon="7.02809">
        <ele>1299.36</ele>
        <time>2014-06-13T12:29:18Z</time>
      </trkpt>
      <trkpt lat="47.13513" lon="7.02806">
        <ele>1298.88</ele>
        <time>2014-06-13T12:29:20Z</time>
      </trkpt>
      <trkpt lat="47.13504" lon="7.02779">
        <ele>1295.03</ele>
        <time>2014-06-13T12:29:35Z</time>
      </trkpt>
      <trkpt lat="47.13496" lon="7.02758">
        <ele>1292.63</ele>
        <time>2014-06-13T12:29:48Z</time>
      </trkpt>
      <trkpt lat="47.13495" lon="7.02752">
        <ele>1291.67</ele>
        <time>2014-06-13T12:29:52Z</time>
      </trkpt>
      <trkpt lat="47.13484" lon="7.02731">
        <ele>1290.23</ele>
        <time>2014-06-13T12:30:06Z</time>
      </trkpt>
      <trkpt lat="47.1347" lon="7.02707">
        <ele>1287.82</ele>
        <time>2014-06-13T12:30:22Z</time>
      </trkpt>
      <trkpt lat="47.13461" lon="7.02691">
        <ele>1286.86</ele>
        <time>2014-06-13T12:30:34Z</time>
      </trkpt>
      <trkpt lat="47.13446" lon="7.02667">
        <ele>1281.57</ele>
        <time>2014-06-13T12:30:52Z</time>
      </trkpt>
      <trkpt lat="47.13433" lon="7.02649">
        <ele>1277.25</ele>
        <time>2014-06-13T12:31:06Z</time>
      </trkpt>
      <trkpt lat="47.1342" lon="7.02631">
        <ele>1272.92</ele>
        <time>2014-06-13T12:31:21Z</time>
      </trkpt>
      <trkpt lat="47.13407" lon="7.02612">
        <ele>1269.08</ele>
        <time>2014-06-13T12:31:36Z</time>
      </trkpt>
      <trkpt lat="47.1339" lon="7.02587">
        <ele>1267.64</ele>
        <time>2014-06-13T12:31:54Z</time>
      </trkpt>
      <trkpt lat="47.13377" lon="7.02568">
        <ele>1266.67</ele>
        <time>2014-06-13T12:32:08Z</time>
      </trkpt>
      <trkpt lat="47.13374" lon="7.02563">
        <ele>1266.19</ele>
        <time>2014-06-13T12:32:12Z</time>
      </trkpt>
      <trkpt lat="47.13373" lon="7.02547">
        <ele>1264.75</ele>
        <time>2014-06-13T12:32:25Z</time>
      </trkpt>
      <trkpt lat="47.13372" lon="7.02525">
        <ele>1264.75</ele>
        <time>2014-06-13T12:32:39Z</time>
      </trkpt>
      <trkpt lat="47.1337" lon="7.02517">
        <ele>1264.27</ele>
        <time>2014-06-13T12:32:45Z</time>
      </trkpt>
      <trkpt lat="47.13366" lon="7.0249">
        <ele>1259.46</ele>
        <time>2014-06-13T12:33:01Z</time>
      </trkpt>
      <trkpt lat="47.13363" lon="7.02465">
        <ele>1256.58</ele>
        <time>2014-06-13T12:33:15Z</time>
      </trkpt>
      <trkpt lat="47.13362" lon="7.02448">
        <ele>1256.1</ele>
        <time>2014-06-13T12:33:24Z</time>
      </trkpt>
      <trkpt lat="47.13357" lon="7.0242">
        <ele>1255.14</ele>
        <time>2014-06-13T12:33:40Z</time>
      </trkpt>
      <trkpt lat="47.13355" lon="7.02394">
        <ele>1253.7</ele>
        <time>2014-06-13T12:33:54Z</time>
      </trkpt>
      <trkpt lat="47.13353" lon="7.02372">
        <ele>1251.77</ele>
        <time>2014-06-13T12:34:09Z</time>
      </trkpt>
      <trkpt lat="47.13352" lon="7.02351">
        <ele>1250.33</ele>
        <time>2014-06-13T12:34:23Z</time>
      </trkpt>
      <trkpt lat="47.13349" lon="7.02331">
        <ele>1247.45</ele>
        <time>2014-06-13T12:34:37Z</time>
      </trkpt>
      <trkpt lat="47.13348" lon="7.02313">
        <ele>1246.49</ele>
        <time>2014-06-13T12:34:50Z</time>
      </trkpt>
      <trkpt lat="47.13351" lon="7.023">
        <ele>1246.49</ele>
        <time>2014-06-13T12:34:58Z</time>
      </trkpt>
      <trkpt lat="47.13354" lon="7.02282">
        <ele>1247.93</ele>
        <time>2014-06-13T12:35:12Z</time>
      </trkpt>
      <trkpt lat="47.13354" lon="7.02273">
        <ele>1246.01</ele>
        <time>2014-06-13T12:35:21Z</time>
      </trkpt>
      <trkpt lat="47.1335" lon="7.02265">
        <ele>1245.53</ele>
        <time>2014-06-13T12:35:28Z</time>
      </trkpt>
      <trkpt lat="47.1335" lon="7.02265">
        <ele>1243.6</ele>
        <time>2014-06-13T12:35:45Z</time>
      </trkpt>
      <trkpt lat="47.13349" lon="7.02261">
        <ele>1243.12</ele>
        <time>2014-06-13T12:35:48Z</time>
      </trkpt>
      <trkpt lat="47.13349" lon="7.0225">
        <ele>1241.2</ele>
        <time>2014-06-13T12:35:58Z</time>
      </trkpt>
      <trkpt lat="47.13346" lon="7.02242">
        <ele>1239.76</ele>
        <time>2014-06-13T12:36:03Z</time>
      </trkpt>
      <trkpt lat="47.13342" lon="7.02221">
        <ele>1236.39</ele>
        <time>2014-06-13T12:36:16Z</time>
      </trkpt>
      <trkpt lat="47.1334" lon="7.02207">
        <ele>1235.43</ele>
        <time>2014-06-13T12:36:24Z</time>
      </trkpt>
      <trkpt lat="47.13337" lon="7.02197">
        <ele>1234.47</ele>
        <time>2014-06-13T12:36:29Z</time>
      </trkpt>
      <trkpt lat="47.13339" lon="7.02178">
        <ele>1230.14</ele>
        <time>2014-06-13T12:36:45Z</time>
      </trkpt>
      <trkpt lat="47.13347" lon="7.02178">
        <ele>1226.3</ele>
        <time>2014-06-13T12:37:09Z</time>
      </trkpt>
      <trkpt lat="47.13359" lon="7.02164">
        <ele>1221.49</ele>
        <time>2014-06-13T12:37:26Z</time>
      </trkpt>
      <trkpt lat="47.13371" lon="7.02145">
        <ele>1217.65</ele>
        <time>2014-06-13T12:37:43Z</time>
      </trkpt>
      <trkpt lat="47.13385" lon="7.02133">
        <ele>1215.72</ele>
        <time>2014-06-13T12:37:59Z</time>
      </trkpt>
      <trkpt lat="47.13389" lon="7.02129">
        <ele>1215.24</ele>
        <time>2014-06-13T12:38:02Z</time>
      </trkpt>
      <trkpt lat="47.13402" lon="7.02118">
        <ele>1211.88</ele>
        <time>2014-06-13T12:38:18Z</time>
      </trkpt>
      <trkpt lat="47.13417" lon="7.02109">
        <ele>1209.48</ele>
        <time>2014-06-13T12:38:33Z</time>
      </trkpt>
      <trkpt lat="47.13431" lon="7.02101">
        <ele>1209</ele>
        <time>2014-06-13T12:38:46Z</time>
      </trkpt>
      <trkpt lat="47.13438" lon="7.02101">
        <ele>1207.55</ele>
        <time>2014-06-13T12:39:01Z</time>
      </trkpt>
      <trkpt lat="47.13448" lon="7.02105">
        <ele>1205.15</ele>
        <time>2014-06-13T12:39:14Z</time>
      </trkpt>
      <trkpt lat="47.1346" lon="7.02106">
        <ele>1198.9</ele>
        <time>2014-06-13T12:39:29Z</time>
      </trkpt>
      <trkpt lat="47.13468" lon="7.02104">
        <ele>1196.98</ele>
        <time>2014-06-13T12:39:42Z</time>
      </trkpt>
      <trkpt lat="47.13482" lon="7.02109">
        <ele>1194.09</ele>
        <time>2014-06-13T12:39:55Z</time>
      </trkpt>
      <trkpt lat="47.13485" lon="7.0211">
        <ele>1196.02</ele>
        <time>2014-06-13T12:40:09Z</time>
      </trkpt>
      <trkpt lat="47.13475" lon="7.021">
        <ele>1195.06</ele>
        <time>2014-06-13T12:40:26Z</time>
      </trkpt>
      <trkpt lat="47.13472" lon="7.02088">
        <ele>1191.69</ele>
        <time>2014-06-13T12:40:44Z</time>
      </trkpt>
      <trkpt lat="47.13468" lon="7.02075">
        <ele>1190.25</ele>
        <time>2014-06-13T12:41:01Z</time>
      </trkpt>
      <trkpt lat="47.13474" lon="7.02066">
        <ele>1187.37</ele>
        <time>2014-06-13T12:41:13Z</time>
      </trkpt>
      <trkpt lat="47.13478" lon="7.02066">
        <ele>1184.48</ele>
        <time>2014-06-13T12:41:20Z</time>
      </trkpt>
      <trkpt lat="47.13488" lon="7.0207">
        <ele>1178.23</ele>
        <time>2014-06-13T12:41:35Z</time>
      </trkpt>
      <trkpt lat="47.13498" lon="7.02076">
        <ele>1170.06</ele>
        <time>2014-06-13T12:41:51Z</time>
      </trkpt>
      <trkpt lat="47.13506" lon="7.02079">
        <ele>1165.74</ele>
        <time>2014-06-13T12:42:03Z</time>
      </trkpt>
      <trkpt lat="47.13515" lon="7.02086">
        <ele>1161.41</ele>
        <time>2014-06-13T12:42:15Z</time>
      </trkpt>
      <trkpt lat="47.13516" lon="7.02085">
        <ele>1159.49</ele>
        <time>2014-06-13T12:42:29Z</time>
      </trkpt>
      <trkpt lat="47.13512" lon="7.02077">
        <ele>1156.12</ele>
        <time>2014-06-13T12:42:44Z</time>
      </trkpt>
      <trkpt lat="47.1351" lon="7.02065">
        <ele>1155.16</ele>
        <time>2014-06-13T12:42:57Z</time>
      </trkpt>
      <trkpt lat="47.13503" lon="7.02047">
        <ele>1152.76</ele>
        <time>2014-06-13T12:43:11Z</time>
      </trkpt>
      <trkpt lat="47.13505" lon="7.02031">
        <ele>1153.24</ele>
        <time>2014-06-13T12:43:26Z</time>
      </trkpt>
      <trkpt lat="47.13506" lon="7.02012">
        <ele>1152.28</ele>
        <time>2014-06-13T12:43:38Z</time>
      </trkpt>
      <trkpt lat="47.13507" lon="7.02009">
        <ele>1151.8</ele>
        <time>2014-06-13T12:43:40Z</time>
      </trkpt>
      <trkpt lat="47.13514" lon="7.0199">
        <ele>1149.87</ele>
        <time>2014-06-13T12:43:51Z</time>
      </trkpt>
      <trkpt lat="47.13515" lon="7.01989">
        <ele>1149.87</ele>
        <time>2014-06-13T12:43:52Z</time>
      </trkpt>
      <trkpt lat="47.1352" lon="7.01977">
        <ele>1146.51</ele>
        <time>2014-06-13T12:44:02Z</time>
      </trkpt>
      <trkpt lat="47.13523" lon="7.01961">
        <ele>1141.7</ele>
        <time>2014-06-13T12:44:11Z</time>
      </trkpt>
      <trkpt lat="47.1353" lon="7.01948">
        <ele>1136.42</ele>
        <time>2014-06-13T12:44:20Z</time>
      </trkpt>
      <trkpt lat="47.13537" lon="7.01922">
        <ele>1129.69</ele>
        <time>2014-06-13T12:44:36Z</time>
      </trkpt>
      <trkpt lat="47.1354" lon="7.01907">
        <ele>1127.76</ele>
        <time>2014-06-13T12:44:46Z</time>
      </trkpt>
      <trkpt lat="47.13545" lon="7.01884">
        <ele>1124.88</ele>
        <time>2014-06-13T12:45:00Z</time>
      </trkpt>
      <trkpt lat="47.13556" lon="7.01865">
        <ele>1120.55</ele>
        <time>2014-06-13T12:45:15Z</time>
      </trkpt>
      <trkpt lat="47.13566" lon="7.01848">
        <ele>1116.23</ele>
        <time>2014-06-13T12:45:28Z</time>
      </trkpt>
      <trkpt lat="47.13575" lon="7.01828">
        <ele>1113.82</ele>
        <time>2014-06-13T12:45:42Z</time>
      </trkpt>
      <trkpt lat="47.13584" lon="7.01808">
        <ele>1114.31</ele>
        <time>2014-06-13T12:45:56Z</time>
      </trkpt>
      <trkpt lat="47.13586" lon="7.01805">
        <ele>1114.31</ele>
        <time>2014-06-13T12:45:59Z</time>
      </trkpt>
      <trkpt lat="47.13591" lon="7.018">
        <ele>1114.31</ele>
        <time>2014-06-13T12:46:04Z</time>
      </trkpt>
      <trkpt lat="47.13598" lon="7.01778">
        <ele>1114.31</ele>
        <time>2014-06-13T12:46:20Z</time>
      </trkpt>
      <trkpt lat="47.13614" lon="7.01759">
        <ele>1110.94</ele>
        <time>2014-06-13T12:46:36Z</time>
      </trkpt>
      <trkpt lat="47.13634" lon="7.01758">
        <ele>1110.94</ele>
        <time>2014-06-13T12:46:50Z</time>
      </trkpt>
      <trkpt lat="47.13651" lon="7.0176">
        <ele>1111.9</ele>
        <time>2014-06-13T12:47:04Z</time>
      </trkpt>
      <trkpt lat="47.13668" lon="7.01758">
        <ele>1111.9</ele>
        <time>2014-06-13T12:47:17Z</time>
      </trkpt>
      <trkpt lat="47.13681" lon="7.01756">
        <ele>1113.82</ele>
        <time>2014-06-13T12:47:29Z</time>
      </trkpt>
      <trkpt lat="47.13693" lon="7.01753">
        <ele>1115.27</ele>
        <time>2014-06-13T12:47:41Z</time>
      </trkpt>
      <trkpt lat="47.13693" lon="7.01755">
        <ele>1117.19</ele>
        <time>2014-06-13T12:48:02Z</time>
      </trkpt>
      <trkpt lat="47.13694" lon="7.01757">
        <ele>1116.23</ele>
        <time>2014-06-13T12:48:09Z</time>
      </trkpt>
      <trkpt lat="47.137" lon="7.01751">
        <ele>1116.71</ele>
        <time>2014-06-13T12:48:17Z</time>
      </trkpt>
      <trkpt lat="47.13717" lon="7.01745">
        <ele>1118.15</ele>
        <time>2014-06-13T12:48:30Z</time>
      </trkpt>
      <trkpt lat="47.13735" lon="7.01745">
        <ele>1117.67</ele>
        <time>2014-06-13T12:48:43Z</time>
      </trkpt>
      <trkpt lat="47.13751" lon="7.01744">
        <ele>1116.71</ele>
        <time>2014-06-13T12:48:56Z</time>
      </trkpt>
      <trkpt lat="47.13767" lon="7.01745">
        <ele>1117.19</ele>
        <time>2014-06-13T12:49:09Z</time>
      </trkpt>
      <trkpt lat="47.13783" lon="7.01749">
        <ele>1117.19</ele>
        <time>2014-06-13T12:49:21Z</time>
      </trkpt>
      <trkpt lat="47.13801" lon="7.01757">
        <ele>1116.23</ele>
        <time>2014-06-13T12:49:35Z</time>
      </trkpt>
      <trkpt lat="47.13813" lon="7.01766">
        <ele>1116.23</ele>
        <time>2014-06-13T12:49:45Z</time>
      </trkpt>
      <trkpt lat="47.13828" lon="7.01775">
        <ele>1114.79</ele>
        <time>2014-06-13T12:49:57Z</time>
      </trkpt>
      <trkpt lat="47.13843" lon="7.01782">
        <ele>1115.27</ele>
        <time>2014-06-13T12:50:10Z</time>
      </trkpt>
      <trkpt lat="47.13852" lon="7.01791">
        <ele>1118.15</ele>
        <time>2014-06-13T12:50:19Z</time>
      </trkpt>
      <trkpt lat="47.13858" lon="7.01799">
        <ele>1120.07</ele>
        <time>2014-06-13T12:50:26Z</time>
      </trkpt>
      <trkpt lat="47.13874" lon="7.01808">
        <ele>1121.03</ele>
        <time>2014-06-13T12:50:41Z</time>
      </trkpt>
      <trkpt lat="47.13886" lon="7.01814">
        <ele>1121.03</ele>
        <time>2014-06-13T12:50:56Z</time>
      </trkpt>
      <trkpt lat="47.13901" lon="7.01825">
        <ele>1125.84</ele>
        <time>2014-06-13T12:51:14Z</time>
      </trkpt>
      <trkpt lat="47.13915" lon="7.0183">
        <ele>1134.49</ele>
        <time>2014-06-13T12:51:29Z</time>
      </trkpt>
      <trkpt lat="47.13928" lon="7.01839">
        <ele>1141.22</ele>
        <time>2014-06-13T12:51:45Z</time>
      </trkpt>
      <trkpt lat="47.13933" lon="7.01841">
        <ele>1142.66</ele>
        <time>2014-06-13T12:52:03Z</time>
      </trkpt>
      <trkpt lat="47.13945" lon="7.01844">
        <ele>1143.14</ele>
        <time>2014-06-13T12:52:16Z</time>
      </trkpt>
      <trkpt lat="47.13951" lon="7.01847">
        <ele>1142.18</ele>
        <time>2014-06-13T12:52:20Z</time>
      </trkpt>
      <trkpt lat="47.13972" lon="7.01849">
        <ele>1139.78</ele>
        <time>2014-06-13T12:52:35Z</time>
      </trkpt>
      <trkpt lat="47.13985" lon="7.01842">
        <ele>1140.26</ele>
        <time>2014-06-13T12:52:47Z</time>
      </trkpt>
      <trkpt lat="47.14001" lon="7.01833">
        <ele>1141.7</ele>
        <time>2014-06-13T12:53:01Z</time>
      </trkpt>
      <trkpt lat="47.14011" lon="7.01823">
        <ele>1142.66</ele>
        <time>2014-06-13T12:53:12Z</time>
      </trkpt>
      <trkpt lat="47.14015" lon="7.01816">
        <ele>1143.63</ele>
        <time>2014-06-13T12:53:17Z</time>
      </trkpt>
      <trkpt lat="47.14016" lon="7.01811">
        <ele>1144.11</ele>
        <time>2014-06-13T12:53:21Z</time>
      </trkpt>
      <trkpt lat="47.14022" lon="7.018">
        <ele>1143.63</ele>
        <time>2014-06-13T12:53:35Z</time>
      </trkpt>
      <trkpt lat="47.14033" lon="7.01785">
        <ele>1143.14</ele>
        <time>2014-06-13T12:53:50Z</time>
      </trkpt>
      <trkpt lat="47.14054" lon="7.01768">
        <ele>1135.45</ele>
        <time>2014-06-13T12:54:04Z</time>
      </trkpt>
      <trkpt lat="47.14069" lon="7.01768">
        <ele>1131.61</ele>
        <time>2014-06-13T12:54:17Z</time>
      </trkpt>
      <trkpt lat="47.14083" lon="7.01773">
        <ele>1128.73</ele>
        <time>2014-06-13T12:54:31Z</time>
      </trkpt>
      <trkpt lat="47.14098" lon="7.01777">
        <ele>1124.4</ele>
        <time>2014-06-13T12:54:44Z</time>
      </trkpt>
      <trkpt lat="47.14114" lon="7.0178">
        <ele>1122</ele>
        <time>2014-06-13T12:54:57Z</time>
      </trkpt>
      <trkpt lat="47.1413" lon="7.01789">
        <ele>1118.15</ele>
        <time>2014-06-13T12:55:11Z</time>
      </trkpt>
      <trkpt lat="47.1413" lon="7.01789">
        <ele>1117.67</ele>
        <time>2014-06-13T12:55:13Z</time>
      </trkpt>
      <trkpt lat="47.14134" lon="7.01792">
        <ele>1116.71</ele>
        <time>2014-06-13T12:55:19Z</time>
      </trkpt>
      <trkpt lat="47.14146" lon="7.01775">
        <ele>1113.82</ele>
        <time>2014-06-13T12:55:33Z</time>
      </trkpt>
      <trkpt lat="47.14149" lon="7.01769">
        <ele>1113.82</ele>
        <time>2014-06-13T12:55:37Z</time>
      </trkpt>
      <trkpt lat="47.1416" lon="7.01749">
        <ele>1112.86</ele>
        <time>2014-06-13T12:55:51Z</time>
      </trkpt>
      <trkpt lat="47.14167" lon="7.01737">
        <ele>1111.42</ele>
        <time>2014-06-13T12:56:01Z</time>
      </trkpt>
      <trkpt lat="47.14171" lon="7.01733">
        <ele>1109.5</ele>
        <time>2014-06-13T12:56:05Z</time>
      </trkpt>
      <trkpt lat="47.14187" lon="7.01722">
        <ele>1107.58</ele>
        <time>2014-06-13T12:56:21Z</time>
      </trkpt>
      <trkpt lat="47.14208" lon="7.0171">
        <ele>1103.73</ele>
        <time>2014-06-13T12:56:41Z</time>
      </trkpt>
      <trkpt lat="47.14235" lon="7.01714">
        <ele>1100.37</ele>
        <time>2014-06-13T12:57:05Z</time>
      </trkpt>
      <trkpt lat="47.14251" lon="7.0172">
        <ele>1097.48</ele>
        <time>2014-06-13T12:57:23Z</time>
      </trkpt>
      <trkpt lat="47.14255" lon="7.0173">
        <ele>1098.92</ele>
        <time>2014-06-13T12:57:36Z</time>
      </trkpt>
      <trkpt lat="47.14261" lon="7.01746">
        <ele>1097.96</ele>
        <time>2014-06-13T12:57:51Z</time>
      </trkpt>
      <trkpt lat="47.1427" lon="7.01759">
        <ele>1095.08</ele>
        <time>2014-06-13T12:58:05Z</time>
      </trkpt>
      <trkpt lat="47.14275" lon="7.01777">
        <ele>1096.52</ele>
        <time>2014-06-13T12:58:18Z</time>
      </trkpt>
      <trkpt lat="47.14291" lon="7.01805">
        <ele>1098.44</ele>
        <time>2014-06-13T12:58:40Z</time>
      </trkpt>
      <trkpt lat="47.14305" lon="7.01815">
        <ele>1097</ele>
        <time>2014-06-13T12:58:56Z</time>
      </trkpt>
      <trkpt lat="47.14318" lon="7.01827">
        <ele>1092.68</ele>
        <time>2014-06-13T12:59:12Z</time>
      </trkpt>
      <trkpt lat="47.1433" lon="7.01832">
        <ele>1088.83</ele>
        <time>2014-06-13T12:59:26Z</time>
      </trkpt>
      <trkpt lat="47.14335" lon="7.01839">
        <ele>1083.06</ele>
        <time>2014-06-13T12:59:40Z</time>
      </trkpt>
      <trkpt lat="47.14341" lon="7.01843">
        <ele>1078.74</ele>
        <time>2014-06-13T12:59:54Z</time>
      </trkpt>
      <trkpt lat="47.14351" lon="7.01853">
        <ele>1075.37</ele>
        <time>2014-06-13T13:00:09Z</time>
      </trkpt>
      <trkpt lat="47.14362" lon="7.01861">
        <ele>1072.49</ele>
        <time>2014-06-13T13:00:22Z</time>
      </trkpt>
      <trkpt lat="47.14371" lon="7.0187">
        <ele>1069.6</ele>
        <time>2014-06-13T13:00:38Z</time>
      </trkpt>
      <trkpt lat="47.14383" lon="7.01884">
        <ele>1066.24</ele>
        <time>2014-06-13T13:00:54Z</time>
      </trkpt>
      <trkpt lat="47.1439" lon="7.01895">
        <ele>1061.91</ele>
        <time>2014-06-13T13:01:10Z</time>
      </trkpt>
      <trkpt lat="47.14398" lon="7.019">
        <ele>1057.11</ele>
        <time>2014-06-13T13:01:25Z</time>
      </trkpt>
      <trkpt lat="47.14406" lon="7.01908">
        <ele>1053.74</ele>
        <time>2014-06-13T13:01:40Z</time>
      </trkpt>
      <trkpt lat="47.14408" lon="7.01917">
        <ele>1050.86</ele>
        <time>2014-06-13T13:01:54Z</time>
      </trkpt>
      <trkpt lat="47.14414" lon="7.01928">
        <ele>1047.97</ele>
        <time>2014-06-13T13:02:09Z</time>
      </trkpt>
      <trkpt lat="47.14427" lon="7.01937">
        <ele>1047.97</ele>
        <time>2014-06-13T13:02:24Z</time>
      </trkpt>
      <trkpt lat="47.14437" lon="7.01954">
        <ele>1047.97</ele>
        <time>2014-06-13T13:02:44Z</time>
      </trkpt>
      <trkpt lat="47.1445" lon="7.01963">
        <ele>1043.17</ele>
        <time>2014-06-13T13:03:00Z</time>
      </trkpt>
      <trkpt lat="47.14463" lon="7.01969">
        <ele>1040.28</ele>
        <time>2014-06-13T13:03:13Z</time>
      </trkpt>
      <trkpt lat="47.14471" lon="7.01971">
        <ele>1036.44</ele>
        <time>2014-06-13T13:03:26Z</time>
      </trkpt>
      <trkpt lat="47.14481" lon="7.01986">
        <ele>1034.52</ele>
        <time>2014-06-13T13:03:40Z</time>
      </trkpt>
      <trkpt lat="47.14495" lon="7.0201">
        <ele>1031.63</ele>
        <time>2014-06-13T13:03:56Z</time>
      </trkpt>
      <trkpt lat="47.14507" lon="7.02034">
        <ele>1030.67</ele>
        <time>2014-06-13T13:04:11Z</time>
      </trkpt>
      <trkpt lat="47.14514" lon="7.02048">
        <ele>1032.11</ele>
        <time>2014-06-13T13:04:24Z</time>
      </trkpt>
      <trkpt lat="47.14529" lon="7.02068">
        <ele>1034.04</ele>
        <time>2014-06-13T13:04:38Z</time>
      </trkpt>
      <trkpt lat="47.14543" lon="7.02081">
        <ele>1034.04</ele>
        <time>2014-06-13T13:04:51Z</time>
      </trkpt>
      <trkpt lat="47.14553" lon="7.02097">
        <ele>1030.19</ele>
        <time>2014-06-13T13:05:04Z</time>
      </trkpt>
      <trkpt lat="47.14561" lon="7.02116">
        <ele>1024.42</ele>
        <time>2014-06-13T13:05:18Z</time>
      </trkpt>
      <trkpt lat="47.14567" lon="7.02138">
        <ele>1017.69</ele>
        <time>2014-06-13T13:05:33Z</time>
      </trkpt>
      <trkpt lat="47.14576" lon="7.02158">
        <ele>1012.41</ele>
        <time>2014-06-13T13:05:47Z</time>
      </trkpt>
      <trkpt lat="47.14584" lon="7.02175">
        <ele>1008.56</ele>
        <time>2014-06-13T13:06:01Z</time>
      </trkpt>
      <trkpt lat="47.14597" lon="7.02193">
        <ele>1009.52</ele>
        <time>2014-06-13T13:06:15Z</time>
      </trkpt>
      <trkpt lat="47.14609" lon="7.02212">
        <ele>1009.52</ele>
        <time>2014-06-13T13:06:28Z</time>
      </trkpt>
      <trkpt lat="47.1462" lon="7.02234">
        <ele>1007.6</ele>
        <time>2014-06-13T13:06:44Z</time>
      </trkpt>
      <trkpt lat="47.14632" lon="7.02253">
        <ele>1006.64</ele>
        <time>2014-06-13T13:07:00Z</time>
      </trkpt>
      <trkpt lat="47.14637" lon="7.02262">
        <ele>1005.68</ele>
        <time>2014-06-13T13:07:05Z</time>
      </trkpt>
      <trkpt lat="47.14643" lon="7.02273">
        <ele>1006.64</ele>
        <time>2014-06-13T13:07:21Z</time>
      </trkpt>
      <trkpt lat="47.14651" lon="7.02285">
        <ele>1006.64</ele>
        <time>2014-06-13T13:07:35Z</time>
      </trkpt>
      <trkpt lat="47.14652" lon="7.02286">
        <ele>1006.64</ele>
        <time>2014-06-13T13:07:36Z</time>
      </trkpt>
      <trkpt lat="47.14657" lon="7.02294">
        <ele>1006.16</ele>
        <time>2014-06-13T13:07:44Z</time>
      </trkpt>
      <trkpt lat="47.1467" lon="7.02312">
        <ele>1003.27</ele>
        <time>2014-06-13T13:08:00Z</time>
      </trkpt>
      <trkpt lat="47.14683" lon="7.02331">
        <ele>1002.31</ele>
        <time>2014-06-13T13:08:13Z</time>
      </trkpt>
      <trkpt lat="47.14687" lon="7.02337">
        <ele>1001.35</ele>
        <time>2014-06-13T13:08:18Z</time>
      </trkpt>
      <trkpt lat="47.14697" lon="7.0236">
        <ele>996.06</ele>
        <time>2014-06-13T13:08:31Z</time>
      </trkpt>
      <trkpt lat="47.14706" lon="7.02391">
        <ele>991.26</ele>
        <time>2014-06-13T13:08:48Z</time>
      </trkpt>
      <trkpt lat="47.14707" lon="7.02395">
        <ele>990.3</ele>
        <time>2014-06-13T13:08:50Z</time>
      </trkpt>
      <trkpt lat="47.14715" lon="7.02417">
        <ele>985.01</ele>
        <time>2014-06-13T13:09:03Z</time>
      </trkpt>
      <trkpt lat="47.14721" lon="7.02436">
        <ele>982.12</ele>
        <time>2014-06-13T13:09:16Z</time>
      </trkpt>
      <trkpt lat="47.14727" lon="7.02458">
        <ele>980.2</ele>
        <time>2014-06-13T13:09:29Z</time>
      </trkpt>
      <trkpt lat="47.14731" lon="7.02481">
        <ele>979.72</ele>
        <time>2014-06-13T13:09:44Z</time>
      </trkpt>
      <trkpt lat="47.14731" lon="7.02481">
        <ele>979.72</ele>
        <time>2014-06-13T13:09:45Z</time>
      </trkpt>
      <trkpt lat="47.14743" lon="7.02472">
        <ele>977.32</ele>
        <time>2014-06-13T13:09:59Z</time>
      </trkpt>
      <trkpt lat="47.14743" lon="7.02464">
        <ele>976.36</ele>
        <time>2014-06-13T13:10:05Z</time>
      </trkpt>
      <trkpt lat="47.14736" lon="7.02445">
        <ele>974.91</ele>
        <time>2014-06-13T13:10:19Z</time>
      </trkpt>
      <trkpt lat="47.14729" lon="7.02422">
        <ele>974.43</ele>
        <time>2014-06-13T13:10:34Z</time>
      </trkpt>
      <trkpt lat="47.14723" lon="7.02399">
        <ele>974.43</ele>
        <time>2014-06-13T13:10:48Z</time>
      </trkpt>
      <trkpt lat="47.14717" lon="7.0237">
        <ele>973.47</ele>
        <time>2014-06-13T13:11:03Z</time>
      </trkpt>
      <trkpt lat="47.14717" lon="7.02349">
        <ele>972.99</ele>
        <time>2014-06-13T13:11:15Z</time>
      </trkpt>
      <trkpt lat="47.14715" lon="7.02335">
        <ele>972.51</ele>
        <time>2014-06-13T13:11:23Z</time>
      </trkpt>
      <trkpt lat="47.14711" lon="7.02309">
        <ele>971.07</ele>
        <time>2014-06-13T13:11:38Z</time>
      </trkpt>
      <trkpt lat="47.14703" lon="7.02286">
        <ele>968.18</ele>
        <time>2014-06-13T13:11:54Z</time>
      </trkpt>
      <trkpt lat="47.14697" lon="7.02263">
        <ele>969.63</ele>
        <time>2014-06-13T13:12:08Z</time>
      </trkpt>
      <trkpt lat="47.14692" lon="7.0224">
        <ele>969.15</ele>
        <time>2014-06-13T13:12:22Z</time>
      </trkpt>
      <trkpt lat="47.14684" lon="7.02215">
        <ele>967.22</ele>
        <time>2014-06-13T13:12:36Z</time>
      </trkpt>
      <trkpt lat="47.14679" lon="7.02195">
        <ele>964.82</ele>
        <time>2014-06-13T13:12:51Z</time>
      </trkpt>
      <trkpt lat="47.14689" lon="7.02183">
        <ele>961.46</ele>
        <time>2014-06-13T13:13:07Z</time>
      </trkpt>
      <trkpt lat="47.147" lon="7.02181">
        <ele>957.61</ele>
        <time>2014-06-13T13:13:23Z</time>
      </trkpt>
      <trkpt lat="47.14713" lon="7.02182">
        <ele>953.77</ele>
        <time>2014-06-13T13:13:38Z</time>
      </trkpt>
      <trkpt lat="47.14725" lon="7.02189">
        <ele>950.88</ele>
        <time>2014-06-13T13:13:54Z</time>
      </trkpt>
      <trkpt lat="47.14736" lon="7.02205">
        <ele>948.96</ele>
        <time>2014-06-13T13:14:11Z</time>
      </trkpt>
      <trkpt lat="47.1475" lon="7.0222">
        <ele>946.56</ele>
        <time>2014-06-13T13:14:30Z</time>
      </trkpt>
      <trkpt lat="47.14764" lon="7.02222">
        <ele>942.71</ele>
        <time>2014-06-13T13:14:47Z</time>
      </trkpt>
      <trkpt lat="47.14774" lon="7.02226">
        <ele>940.31</ele>
        <time>2014-06-13T13:15:03Z</time>
      </trkpt>
      <trkpt lat="47.14782" lon="7.02237">
        <ele>940.31</ele>
        <time>2014-06-13T13:15:15Z</time>
      </trkpt>
      <trkpt lat="47.14794" lon="7.02244">
        <ele>938.38</ele>
        <time>2014-06-13T13:15:29Z</time>
      </trkpt>
      <trkpt lat="47.14804" lon="7.02251">
        <ele>937.42</ele>
        <time>2014-06-13T13:15:43Z</time>
      </trkpt>
      <trkpt lat="47.14816" lon="7.02256">
        <ele>936.94</ele>
        <time>2014-06-13T13:15:56Z</time>
      </trkpt>
      <trkpt lat="47.14828" lon="7.02269">
        <ele>933.1</ele>
        <time>2014-06-13T13:16:13Z</time>
      </trkpt>
      <trkpt lat="47.14836" lon="7.02281">
        <ele>931.17</ele>
        <time>2014-06-13T13:16:25Z</time>
      </trkpt>
      <trkpt lat="47.14848" lon="7.02299">
        <ele>927.33</ele>
        <time>2014-06-13T13:16:40Z</time>
      </trkpt>
      <trkpt lat="47.14857" lon="7.02316">
        <ele>924.45</ele>
        <time>2014-06-13T13:16:55Z</time>
      </trkpt>
      <trkpt lat="47.14862" lon="7.02336">
        <ele>921.56</ele>
        <time>2014-06-13T13:17:11Z</time>
      </trkpt>
      <trkpt lat="47.14868" lon="7.02351">
        <ele>916.75</ele>
        <time>2014-06-13T13:17:29Z</time>
      </trkpt>
      <trkpt lat="47.14885" lon="7.02361">
        <ele>906.18</ele>
        <time>2014-06-13T13:17:46Z</time>
      </trkpt>
      <trkpt lat="47.14896" lon="7.02375">
        <ele>899.45</ele>
        <time>2014-06-13T13:18:01Z</time>
      </trkpt>
      <trkpt lat="47.14905" lon="7.02389">
        <ele>890.8</ele>
        <time>2014-06-13T13:18:16Z</time>
      </trkpt>
      <trkpt lat="47.14916" lon="7.02382">
        <ele>882.15</ele>
        <time>2014-06-13T13:18:33Z</time>
      </trkpt>
      <trkpt lat="47.14916" lon="7.0238">
        <ele>881.67</ele>
        <time>2014-06-13T13:18:35Z</time>
      </trkpt>
      <trkpt lat="47.14919" lon="7.02364">
        <ele>877.34</ele>
        <time>2014-06-13T13:18:49Z</time>
      </trkpt>
      <trkpt lat="47.14924" lon="7.02344">
        <ele>872.05</ele>
        <time>2014-06-13T13:19:06Z</time>
      </trkpt>
      <trkpt lat="47.14927" lon="7.02324">
        <ele>869.17</ele>
        <time>2014-06-13T13:19:22Z</time>
      </trkpt>
      <trkpt lat="47.1493" lon="7.02312">
        <ele>867.73</ele>
        <time>2014-06-13T13:19:37Z</time>
      </trkpt>
      <trkpt lat="47.14949" lon="7.02302">
        <ele>862.92</ele>
        <time>2014-06-13T13:19:53Z</time>
      </trkpt>
      <trkpt lat="47.14966" lon="7.02288">
        <ele>854.75</ele>
        <time>2014-06-13T13:20:09Z</time>
      </trkpt>
      <trkpt lat="47.14977" lon="7.02283">
        <ele>850.9</ele>
        <time>2014-06-13T13:20:25Z</time>
      </trkpt>
      <trkpt lat="47.1498" lon="7.02297">
        <ele>850.42</ele>
        <time>2014-06-13T13:20:40Z</time>
      </trkpt>
      <trkpt lat="47.14982" lon="7.02326">
        <ele>847.54</ele>
        <time>2014-06-13T13:21:02Z</time>
      </trkpt>
      <trkpt lat="47.14981" lon="7.02367">
        <ele>843.69</ele>
        <time>2014-06-13T13:21:23Z</time>
      </trkpt>
      <trkpt lat="47.14987" lon="7.02384">
        <ele>842.25</ele>
        <time>2014-06-13T13:21:36Z</time>
      </trkpt>
      <trkpt lat="47.14993" lon="7.02399">
        <ele>838.89</ele>
        <time>2014-06-13T13:21:51Z</time>
      </trkpt>
      <trkpt lat="47.14996" lon="7.02423">
        <ele>837.93</ele>
        <time>2014-06-13T13:22:06Z</time>
      </trkpt>
      <trkpt lat="47.14996" lon="7.02444">
        <ele>836.96</ele>
        <time>2014-06-13T13:22:20Z</time>
      </trkpt>
      <trkpt lat="47.14991" lon="7.02465">
        <ele>834.08</ele>
        <time>2014-06-13T13:22:35Z</time>
      </trkpt>
      <trkpt lat="47.1499" lon="7.02474">
        <ele>832.16</ele>
        <time>2014-06-13T13:22:51Z</time>
      </trkpt>
      <trkpt lat="47.14996" lon="7.02462">
        <ele>834.08</ele>
        <time>2014-06-13T13:23:06Z</time>
      </trkpt>
      <trkpt lat="47.15004" lon="7.02446">
        <ele>835.04</ele>
        <time>2014-06-13T13:23:20Z</time>
      </trkpt>
      <trkpt lat="47.15014" lon="7.02428">
        <ele>832.64</ele>
        <time>2014-06-13T13:23:36Z</time>
      </trkpt>
      <trkpt lat="47.15028" lon="7.02418">
        <ele>829.76</ele>
        <time>2014-06-13T13:23:52Z</time>
      </trkpt>
      <trkpt lat="47.15044" lon="7.02403">
        <ele>825.43</ele>
        <time>2014-06-13T13:24:09Z</time>
      </trkpt>
      <trkpt lat="47.15071" lon="7.02379">
        <ele>818.22</ele>
        <time>2014-06-13T13:24:31Z</time>
      </trkpt>
      <trkpt lat="47.15092" lon="7.02368">
        <ele>809.57</ele>
        <time>2014-06-13T13:24:47Z</time>
      </trkpt>
      <trkpt lat="47.15106" lon="7.0236">
        <ele>803.32</ele>
        <time>2014-06-13T13:25:00Z</time>
      </trkpt>
      <trkpt lat="47.15121" lon="7.02353">
        <ele>796.59</ele>
        <time>2014-06-13T13:25:13Z</time>
      </trkpt>
      <trkpt lat="47.15138" lon="7.0235">
        <ele>790.82</ele>
        <time>2014-06-13T13:25:29Z</time>
      </trkpt>
      <trkpt lat="47.15153" lon="7.02348">
        <ele>788.42</ele>
        <time>2014-06-13T13:25:42Z</time>
      </trkpt>
      <trkpt lat="47.15177" lon="7.02347">
        <ele>783.61</ele>
        <time>2014-06-13T13:25:56Z</time>
      </trkpt>
      <trkpt lat="47.15192" lon="7.02353">
        <ele>782.65</ele>
        <time>2014-06-13T13:26:10Z</time>
      </trkpt>
      <trkpt lat="47.15212" lon="7.02349">
        <ele>781.21</ele>
        <time>2014-06-13T13:26:26Z</time>
      </trkpt>
      <trkpt lat="47.1523" lon="7.02353">
        <ele>778.81</ele>
        <time>2014-06-13T13:26:42Z</time>
      </trkpt>
      <trkpt lat="47.15247" lon="7.02354">
        <ele>777.36</ele>
        <time>2014-06-13T13:26:58Z</time>
      </trkpt>
      <trkpt lat="47.1525" lon="7.02355">
        <ele>777.36</ele>
        <time>2014-06-13T13:27:00Z</time>
      </trkpt>
      <trkpt lat="47.15268" lon="7.02356">
        <ele>777.36</ele>
        <time>2014-06-13T13:27:14Z</time>
      </trkpt>
      <trkpt lat="47.15271" lon="7.02355">
        <ele>777.36</ele>
        <time>2014-06-13T13:27:16Z</time>
      </trkpt>
      <trkpt lat="47.15287" lon="7.02345">
        <ele>775.92</ele>
        <time>2014-06-13T13:27:31Z</time>
      </trkpt>
      <trkpt lat="47.15303" lon="7.02332">
        <ele>773.52</ele>
        <time>2014-06-13T13:27:46Z</time>
      </trkpt>
      <trkpt lat="47.15315" lon="7.0232">
        <ele>772.08</ele>
        <time>2014-06-13T13:27:58Z</time>
      </trkpt>
      <trkpt lat="47.1533" lon="7.02312">
        <ele>772.08</ele>
        <time>2014-06-13T13:28:11Z</time>
      </trkpt>
      <trkpt lat="47.15335" lon="7.0231">
        <ele>771.6</ele>
        <time>2014-06-13T13:28:17Z</time>
      </trkpt>
      <trkpt lat="47.15346" lon="7.02302">
        <ele>769.67</ele>
        <time>2014-06-13T13:28:27Z</time>
      </trkpt>
      <trkpt lat="47.15359" lon="7.02288">
        <ele>771.11</ele>
        <time>2014-06-13T13:28:40Z</time>
      </trkpt>
      <trkpt lat="47.15361" lon="7.0228">
        <ele>770.63</ele>
        <time>2014-06-13T13:28:54Z</time>
      </trkpt>
      <trkpt lat="47.15363" lon="7.02282">
        <ele>772.56</ele>
        <time>2014-06-13T13:29:08Z</time>
      </trkpt>
      <trkpt lat="47.15363" lon="7.0228">
        <ele>774.96</ele>
        <time>2014-06-13T13:29:23Z</time>
      </trkpt>
    </trkseg>
  </trk>
</gpx>